Darstellungsparameter: Aktuell verwendete Einstellungen:
Skalierung der Graphiken ... ?
xyx+y,   Skalierungsfaktor:      Skalierung: Modus: x, Faktor: 1
Darstellungszeitraum ... ?
Vom - - bis: - -   Zeitraum: 21.07.2019 - 20.08.2019
Min/Max/Avg-Anzeige ... ?
Zeige MMA aktuell
Zeige MMA Monat
Zeige MMA alles
Zeige --A aktuell
Zeige --A Monat
Zeige --A alles
Keine MMA-Anzeige
MMA:
Keine MMA-Graphiken
MMA-Basis: 21.07.2019 - 20.08.2019
Quicknavigation für Darstellung... ?
Tage:      1T, 2T, 3T, 5T -1T -2T -3T -5T +1T +2T +3T +5T
Wochen: 1W, 2W, 3W -1W -2W -3W +1W +2W +3W
Monate: 1M, 3M, 6M -1M -3M -6M +1M +3M +6M
Jahre:    1J, 3J, 5J, 10J -1J -3J -5J -10J +1J +3J +5J +10J
Nutze für die Darstellung ... ?
Originaldaten oder Mittelwerte auf ...
Stundenbasis Tagesbasis Wochenbasis
Monatsbasis Jahresbasis      Datenbasis: Original-Daten
Darstellen als:
Statistik (Auto) Statistik J:M      Darstellung:
Zur Graphik,    zurück zur Übersicht aller Sensoren.
 
Tabellarische Datenbersicht: ?
 
Sensor: Nr:Datum:Temp:Feuchte:Taupunkt:
Aussen-T/F 1 21-07-2019 00:00:00 19.4 C 85 % 16.81 C
2 21-07-2019 00:05:00 19.4 C 85 % 16.81 C
3 21-07-2019 00:10:00 19.3 C 85 % 16.72 C
4 21-07-2019 00:15:00 19.2 C 85 % 16.62 C
5 21-07-2019 00:20:00 19.2 C 85 % 16.62 C
6 21-07-2019 00:25:00 19.1 C 86 % 16.7 C
7 21-07-2019 00:30:00 19 C 86 % 16.6 C
8 21-07-2019 00:35:00 19 C 86 % 16.6 C
9 21-07-2019 00:40:00 18.9 C 86 % 16.51 C
10 21-07-2019 00:45:00 18.9 C 86 % 16.51 C
11 21-07-2019 00:50:00 18.8 C 86 % 16.41 C
12 21-07-2019 00:55:00 18.8 C 87 % 16.59 C
13 21-07-2019 01:00:00 18.7 C 87 % 16.49 C
14 21-07-2019 01:05:00 18.7 C 87 % 16.49 C
15 21-07-2019 01:10:00 18.7 C 88 % 16.67 C
16 21-07-2019 01:15:00 18.7 C 87 % 16.49 C
17 21-07-2019 01:20:00 18.7 C 88 % 16.67 C
18 21-07-2019 01:25:00 18.6 C 88 % 16.57 C
19 21-07-2019 01:30:00 18.6 C 88 % 16.57 C
20 21-07-2019 01:35:00 18.4 C 88 % 16.38 C
21 21-07-2019 01:40:00 18.4 C 88 % 16.38 C
22 21-07-2019 01:45:00 18.4 C 88 % 16.38 C
23 21-07-2019 01:50:00 18.5 C 89 % 16.65 C
24 21-07-2019 01:55:00 18.6 C 89 % 16.75 C
25 21-07-2019 02:00:00 18.7 C 89 % 16.85 C
Sensor: Nr:Datum:Temp:Feuchte:Taupunkt:
Aussen-T/F 26 21-07-2019 02:05:00 18.8 C 88 % 16.77 C
27 21-07-2019 02:10:00 18.9 C 88 % 16.87 C
28 21-07-2019 02:15:00 19 C 88 % 16.97 C
29 21-07-2019 02:20:00 19 C 87 % 16.79 C
30 21-07-2019 02:25:00 19 C 87 % 16.79 C
31 21-07-2019 02:30:00 18.9 C 87 % 16.69 C
32 21-07-2019 02:35:00 18.9 C 87 % 16.69 C
33 21-07-2019 02:40:00 18.9 C 88 % 16.87 C
34 21-07-2019 02:45:00 18.8 C 88 % 16.77 C
35 21-07-2019 02:50:00 18.8 C 88 % 16.77 C
36 21-07-2019 02:55:00 18.8 C 88 % 16.77 C
37 21-07-2019 03:00:00 18.8 C 88 % 16.77 C
38 21-07-2019 03:05:00 18.7 C 88 % 16.67 C
39 21-07-2019 03:10:00 18.7 C 88 % 16.67 C
40 21-07-2019 03:15:00 18.7 C 89 % 16.85 C
41 21-07-2019 03:20:00 18.7 C 89 % 16.85 C
42 21-07-2019 03:25:00 18.7 C 89 % 16.85 C
43 21-07-2019 03:30:00 18.7 C 88 % 16.67 C
44 21-07-2019 03:35:00 18.7 C 89 % 16.85 C
45 21-07-2019 03:40:00 18.6 C 89 % 16.75 C
46 21-07-2019 03:45:00 18.6 C 89 % 16.75 C
47 21-07-2019 03:50:00 18.5 C 89 % 16.65 C
48 21-07-2019 03:55:00 18.4 C 89 % 16.55 C
49 21-07-2019 04:00:00 18.3 C 89 % 16.46 C
50 21-07-2019 04:05:00 18.2 C 89 % 16.36 C
Sensor: Nr:Datum:Temp:Feuchte:Taupunkt:
Aussen-T/F 51 21-07-2019 04:10:00 18.2 C 89 % 16.36 C
52 21-07-2019 04:15:00 18.1 C 89 % 16.26 C
53 21-07-2019 04:20:00 18 C 89 % 16.16 C
54 21-07-2019 04:25:00 17.9 C 89 % 16.06 C
55 21-07-2019 04:30:00 17.9 C 89 % 16.06 C
56 21-07-2019 04:35:00 17.9 C 90 % 16.24 C
57 21-07-2019 04:40:00 17.8 C 89 % 15.96 C
58 21-07-2019 04:45:00 17.7 C 90 % 16.04 C
59 21-07-2019 04:50:00 17.7 C 90 % 16.04 C
60 21-07-2019 04:55:00 17.7 C 90 % 16.04 C
61 21-07-2019 05:00:00 17.6 C 90 % 15.94 C
62 21-07-2019 05:05:00 17.5 C 90 % 15.84 C
63 21-07-2019 05:10:00 17.4 C 91 % 15.92 C
64 21-07-2019 05:15:00 17.4 C 91 % 15.92 C
65 21-07-2019 05:20:00 17.4 C 91 % 15.92 C
66 21-07-2019 05:25:00 17.4 C 91 % 15.92 C
67 21-07-2019 05:30:00 17.4 C 91 % 15.92 C
68 21-07-2019 05:35:00 17.4 C 91 % 15.92 C
69 21-07-2019 05:40:00 17.4 C 92 % 16.09 C
70 21-07-2019 05:45:00 17.5 C 92 % 16.19 C
71 21-07-2019 05:50:00 17.6 C 92 % 16.28 C
72 21-07-2019 05:55:00 17.6 C 92 % 16.28 C
73 21-07-2019 06:00:00 17.6 C 92 % 16.28 C
74 21-07-2019 06:05:00 17.6 C 92 % 16.28 C
75 21-07-2019 06:10:00 17.6 C 92 % 16.28 C
Sensor: Nr:Datum:Temp:Feuchte:Taupunkt:
Aussen-T/F 76 21-07-2019 06:15:00 17.7 C 92 % 16.38 C
77 21-07-2019 06:20:00 17.7 C 92 % 16.38 C
78 21-07-2019 06:25:00 17.7 C 92 % 16.38 C
79 21-07-2019 06:30:00 17.7 C 92 % 16.38 C
80 21-07-2019 06:35:00 17.8 C 92 % 16.48 C
81 21-07-2019 06:40:00 17.8 C 91 % 16.31 C
82 21-07-2019 06:45:00 17.8 C 91 % 16.31 C
83 21-07-2019 06:50:00 17.9 C 91 % 16.41 C
84 21-07-2019 06:55:00 17.9 C 91 % 16.41 C
85 21-07-2019 07:00:00 17.9 C 90 % 16.24 C
86 21-07-2019 07:05:00 18.1 C 90 % 16.43 C
87 21-07-2019 07:10:00 18.2 C 90 % 16.53 C
88 21-07-2019 07:15:00 18.3 C 90 % 16.63 C
89 21-07-2019 07:20:00 18.4 C 90 % 16.73 C
90 21-07-2019 07:25:00 18.5 C 90 % 16.83 C
91 21-07-2019 07:30:00 18.6 C 89 % 16.75 C
92 21-07-2019 07:35:00 18.7 C 89 % 16.85 C
93 21-07-2019 07:40:00 18.7 C 89 % 16.85 C
94 21-07-2019 07:45:00 18.8 C 88 % 16.77 C
95 21-07-2019 07:50:00 18.9 C 89 % 17.05 C
96 21-07-2019 07:55:00 18.9 C 86 % 16.51 C
97 21-07-2019 08:00:00 19 C 84 % 16.24 C
98 21-07-2019 08:05:00 19.1 C 82 % 15.96 C
99 21-07-2019 08:10:00 19.2 C 81 % 15.86 C
100 21-07-2019 08:15:00 19.3 C 81 % 15.96 C
Sensor: Nr:Datum:Temp:Feuchte:Taupunkt:
Aussen-T/F 101 21-07-2019 08:20:00 19.3 C 81 % 15.96 C
102 21-07-2019 08:25:00 19.3 C 79 % 15.57 C
103 21-07-2019 08:30:00 19.3 C 80 % 15.76 C
104 21-07-2019 08:35:00 19.4 C 79 % 15.66 C
105 21-07-2019 08:40:00 19.4 C 79 % 15.66 C
106 21-07-2019 08:45:00 19.5 C 79 % 15.76 C
107 21-07-2019 08:50:00 19.6 C 80 % 16.06 C
108 21-07-2019 08:55:00 19.7 C 80 % 16.15 C
109 21-07-2019 09:00:00 19.8 C 79 % 16.05 C
110 21-07-2019 09:05:00 19.8 C 78 % 15.85 C
111 21-07-2019 09:10:00 20.1 C 78 % 16.14 C
112 21-07-2019 09:15:00 20.1 C 76 % 15.74 C
113 21-07-2019 09:20:00 20.2 C 74 % 15.42 C
114 21-07-2019 09:25:00 20.3 C 73 % 15.3 C
115 21-07-2019 09:30:00 20.4 C 73 % 15.4 C
116 21-07-2019 09:35:00 20.4 C 73 % 15.4 C
117 21-07-2019 09:40:00 20.5 C 71 % 15.06 C
118 21-07-2019 09:45:00 20.6 C 72 % 15.38 C
119 21-07-2019 09:50:00 20.7 C 70 % 15.03 C
120 21-07-2019 09:55:00 20.8 C 71 % 15.35 C
121 21-07-2019 10:00:00 21 C 70 % 15.32 C
122 21-07-2019 10:05:00 21.1 C 69 % 15.19 C
123 21-07-2019 10:10:00 21.2 C 69 % 15.29 C
124 21-07-2019 10:15:00 21.3 C 68 % 15.16 C
125 21-07-2019 10:20:00 21.5 C 68 % 15.35 C
Sensor: Nr:Datum:Temp:Feuchte:Taupunkt:
Aussen-T/F 126 21-07-2019 10:25:00 21.7 C 68 % 15.54 C
127 21-07-2019 10:30:00 21.9 C 67 % 15.5 C
128 21-07-2019 10:35:00 22.1 C 65 % 15.21 C
129 21-07-2019 10:40:00 22.3 C 64 % 15.16 C
130 21-07-2019 10:45:00 22.6 C 64 % 15.45 C
131 21-07-2019 10:50:00 22.8 C 63 % 15.39 C
132 21-07-2019 10:55:00 22.8 C 60 % 14.63 C
133 21-07-2019 11:00:00 22.9 C 60 % 14.73 C
134 21-07-2019 11:05:00 23.1 C 59 % 14.65 C
135 21-07-2019 11:10:00 23.4 C 56 % 14.13 C
136 21-07-2019 11:15:00 23.6 C 54 % 13.75 C
137 21-07-2019 11:20:00 23.7 C 54 % 13.84 C
138 21-07-2019 11:25:00 23.8 C 53 % 13.65 C
139 21-07-2019 11:30:00 24 C 54 % 14.12 C
140 21-07-2019 11:35:00 24.1 C 52 % 13.63 C
141 21-07-2019 11:40:00 24.2 C 51 % 13.43 C
142 21-07-2019 11:45:00 24.2 C 51 % 13.43 C
143 21-07-2019 11:50:00 24.2 C 51 % 13.43 C
144 21-07-2019 11:55:00 24.3 C 51 % 13.52 C
145 21-07-2019 12:00:00 24.4 C 49 % 13 C
146 21-07-2019 12:05:00 24.6 C 50 % 13.49 C
147 21-07-2019 12:10:00 24.8 C 51 % 13.98 C
148 21-07-2019 12:15:00 24.9 C 49 % 13.46 C
149 21-07-2019 12:20:00 25.1 C 49 % 13.64 C
150 21-07-2019 12:25:00 25.2 C 51 % 14.35 C
Sensor: Nr:Datum:Temp:Feuchte:Taupunkt:
Aussen-T/F 151 21-07-2019 12:30:00 25.3 C 52 % 14.74 C
152 21-07-2019 12:35:00 25.1 C 51 % 14.25 C
153 21-07-2019 12:40:00 25.1 C 52 % 14.55 C
154 21-07-2019 12:45:00 25.1 C 53 % 14.85 C
155 21-07-2019 12:50:00 25.1 C 53 % 14.85 C
156 21-07-2019 12:55:00 24.9 C 53 % 14.66 C
157 21-07-2019 13:00:00 24.9 C 53 % 14.66 C
158 21-07-2019 13:05:00 24.9 C 52 % 14.37 C
159 21-07-2019 13:10:00 24.8 C 53 % 14.57 C
160 21-07-2019 13:15:00 24.8 C 53 % 14.57 C
161 21-07-2019 13:20:00 24.8 C 54 % 14.86 C
162 21-07-2019 13:25:00 24.8 C 54 % 14.86 C
163 21-07-2019 13:30:00 24.8 C 54 % 14.86 C
164 21-07-2019 13:35:00 24.9 C 54 % 14.95 C
165 21-07-2019 13:40:00 25 C 55 % 15.33 C
166 21-07-2019 13:45:00 25.2 C 52 % 14.65 C
167 21-07-2019 13:50:00 25.3 C 53 % 15.03 C
168 21-07-2019 13:55:00 25.3 C 52 % 14.74 C
169 21-07-2019 14:00:00 25.4 C 52 % 14.83 C
170 21-07-2019 14:05:00 25.6 C 55 % 15.89 C
171 21-07-2019 14:10:00 25.8 C 52 % 15.2 C
172 21-07-2019 14:15:00 25.9 C 52 % 15.29 C
173 21-07-2019 14:20:00 26 C 53 % 15.68 C
174 21-07-2019 14:25:00 26.2 C 50 % 14.96 C
175 21-07-2019 14:30:00 26.2 C 48 % 14.32 C
Sensor: Nr:Datum:Temp:Feuchte:Taupunkt:
Aussen-T/F 176 21-07-2019 14:35:00 26.2 C 50 % 14.96 C
177 21-07-2019 14:40:00 26.2 C 50 % 14.96 C
178 21-07-2019 14:45:00 26.2 C 51 % 15.27 C
179 21-07-2019 14:50:00 26.2 C 51 % 15.27 C
180 21-07-2019 14:55:00 26.3 C 49 % 14.74 C
181 21-07-2019 15:00:00 26.4 C 50 % 15.14 C
182 21-07-2019 15:05:00 26.7 C 49 % 15.1 C
183 21-07-2019 15:10:00 26.7 C 49 % 15.1 C
184 21-07-2019 15:15:00 26.8 C 48 % 14.87 C
185 21-07-2019 15:20:00 26.9 C 48 % 14.96 C
186 21-07-2019 15:25:00 27.2 C 49 % 15.56 C
187 21-07-2019 15:30:00 27.1 C 47 % 14.82 C
188 21-07-2019 15:35:00 26.8 C 48 % 14.87 C
189 21-07-2019 15:40:00 26.7 C 48 % 14.78 C
190 21-07-2019 15:45:00 26.8 C 49 % 15.19 C
191 21-07-2019 15:50:00 26.9 C 48 % 14.96 C
192 21-07-2019 15:55:00 27.1 C 47 % 14.82 C
193 21-07-2019 16:00:00 27.3 C 46 % 14.67 C
194 21-07-2019 16:05:00 27.5 C 47 % 15.18 C
195 21-07-2019 16:10:00 27.6 C 47 % 15.27 C
196 21-07-2019 16:15:00 27.6 C 46 % 14.94 C
197 21-07-2019 16:20:00 27.6 C 46 % 14.94 C
198 21-07-2019 16:25:00 27.8 C 47 % 15.45 C
199 21-07-2019 16:30:00 27.9 C 45 % 14.87 C
200 21-07-2019 16:35:00 27.8 C 45 % 14.78 C
Sensor: Nr:Datum:Temp:Feuchte:Taupunkt:
Aussen-T/F 201 21-07-2019 16:40:00 27.9 C 45 % 14.87 C
202 21-07-2019 16:45:00 28 C 46 % 15.3 C
203 21-07-2019 16:50:00 28.1 C 46 % 15.39 C
204 21-07-2019 16:55:00 28.1 C 45 % 15.05 C
205 21-07-2019 17:00:00 27.9 C 45 % 14.87 C
206 21-07-2019 17:05:00 27.8 C 47 % 15.45 C
207 21-07-2019 17:10:00 27.7 C 46 % 15.03 C
208 21-07-2019 17:15:00 27.3 C 47 % 15 C
209 21-07-2019 17:20:00 27.3 C 48 % 15.33 C
210 21-07-2019 17:25:00 27.3 C 48 % 15.33 C
211 21-07-2019 17:30:00 27.3 C 48 % 15.33 C
212 21-07-2019 17:35:00 26.9 C 50 % 15.6 C
213 21-07-2019 17:40:00 26.8 C 49 % 15.19 C
214 21-07-2019 17:45:00 26.8 C 49 % 15.19 C
215 21-07-2019 17:50:00 27 C 47 % 14.73 C
216 21-07-2019 17:55:00 27.2 C 47 % 14.91 C
217 21-07-2019 18:00:00 27.2 C 49 % 15.56 C
218 21-07-2019 18:05:00 27.2 C 48 % 15.24 C
219 21-07-2019 18:10:00 26.9 C 48 % 14.96 C
220 21-07-2019 18:15:00 26.7 C 48 % 14.78 C
221 21-07-2019 18:20:00 26.4 C 48 % 14.51 C
222 21-07-2019 18:25:00 26.3 C 50 % 15.05 C
223 21-07-2019 18:30:00 26.2 C 50 % 14.96 C
224 21-07-2019 18:35:00 26.2 C 50 % 14.96 C
225 21-07-2019 18:40:00 26.1 C 50 % 14.87 C
Sensor: Nr:Datum:Temp:Feuchte:Taupunkt:
Aussen-T/F 226 21-07-2019 18:45:00 26 C 50 % 14.77 C
227 21-07-2019 18:50:00 26 C 50 % 14.77 C
228 21-07-2019 18:55:00 26.1 C 50 % 14.87 C
229 21-07-2019 19:00:00 26.3 C 50 % 15.05 C
230 21-07-2019 19:05:00 26.2 C 50 % 14.96 C
231 21-07-2019 19:10:00 26.1 C 51 % 15.17 C
232 21-07-2019 19:15:00 25.9 C 50 % 14.68 C
233 21-07-2019 19:20:00 25.7 C 52 % 15.11 C
234 21-07-2019 19:25:00 25.4 C 52 % 14.83 C
235 21-07-2019 19:30:00 25.2 C 53 % 14.94 C
236 21-07-2019 19:35:00 25.1 C 53 % 14.85 C
237 21-07-2019 19:40:00 24.9 C 53 % 14.66 C
238 21-07-2019 19:45:00 24.8 C 54 % 14.86 C
239 21-07-2019 19:50:00 24.7 C 54 % 14.77 C
240 21-07-2019 19:55:00 24.6 C 54 % 14.68 C
241 21-07-2019 20:00:00 24.5 C 54 % 14.58 C
242 21-07-2019 20:05:00 24.5 C 54 % 14.58 C
243 21-07-2019 20:10:00 24.4 C 55 % 14.78 C
244 21-07-2019 20:15:00 24.4 C 56 % 15.06 C
245 21-07-2019 20:20:00 24.3 C 55 % 14.68 C
246 21-07-2019 20:25:00 24.3 C 56 % 14.96 C
247 21-07-2019 20:30:00 24.4 C 56 % 15.06 C
248 21-07-2019 20:35:00 24.5 C 55 % 14.87 C
249 21-07-2019 20:40:00 24.4 C 54 % 14.49 C
250 21-07-2019 20:45:00 24.4 C 55 % 14.78 C
Sensor: Nr:Datum:Temp:Feuchte:Taupunkt:
Aussen-T/F 251 21-07-2019 20:50:00 24.4 C 54 % 14.49 C
252 21-07-2019 20:55:00 24.3 C 54 % 14.4 C
253 21-07-2019 21:00:00 24.2 C 54 % 14.31 C
254 21-07-2019 21:05:00 24.1 C 55 % 14.5 C
255 21-07-2019 21:10:00 23.9 C 58 % 15.14 C
256 21-07-2019 21:15:00 23.7 C 59 % 15.21 C
257 21-07-2019 21:20:00 23.3 C 60 % 15.1 C
258 21-07-2019 21:25:00 22.8 C 61 % 14.89 C
259 21-07-2019 21:30:00 22.4 C 62 % 14.76 C
260 21-07-2019 21:35:00 22.1 C 63 % 14.73 C
261 21-07-2019 21:40:00 21.7 C 64 % 14.6 C
262 21-07-2019 21:45:00 21.4 C 65 % 14.55 C
263 21-07-2019 21:50:00 21.2 C 66 % 14.6 C
264 21-07-2019 21:55:00 20.9 C 67 % 14.55 C
265 21-07-2019 22:00:00 20.7 C 68 % 14.58 C
266 21-07-2019 22:05:00 20.5 C 69 % 14.62 C
267 21-07-2019 22:10:00 20.3 C 70 % 14.65 C
268 21-07-2019 22:15:00 20.2 C 71 % 14.78 C
269 21-07-2019 22:20:00 19.9 C 71 % 14.49 C
270 21-07-2019 22:25:00 19.8 C 71 % 14.39 C
271 21-07-2019 22:30:00 19.7 C 72 % 14.51 C
272 21-07-2019 22:35:00 19.6 C 72 % 14.42 C
273 21-07-2019 22:40:00 19.6 C 72 % 14.42 C
274 21-07-2019 22:45:00 19.4 C 73 % 14.44 C
275 21-07-2019 22:50:00 19.3 C 74 % 14.55 C
Sensor: Nr:Datum:Temp:Feuchte:Taupunkt:
Aussen-T/F 276 21-07-2019 22:55:00 19.2 C 75 % 14.66 C
277 21-07-2019 23:00:00 19.1 C 76 % 14.77 C
278 21-07-2019 23:05:00 18.9 C 76 % 14.58 C
279 21-07-2019 23:10:00 18.8 C 77 % 14.68 C
280 21-07-2019 23:15:00 18.7 C 77 % 14.59 C
281 21-07-2019 23:20:00 18.6 C 78 % 14.69 C
282 21-07-2019 23:25:00 18.3 C 78 % 14.4 C
283 21-07-2019 23:30:00 18.2 C 79 % 14.5 C
284 21-07-2019 23:35:00 18.1 C 79 % 14.4 C
285 21-07-2019 23:40:00 18.1 C 79 % 14.4 C
286 21-07-2019 23:45:00 17.9 C 79 % 14.21 C
287 21-07-2019 23:50:00 17.8 C 80 % 14.31 C
288 21-07-2019 23:55:00 17.7 C 80 % 14.21 C
289 22-07-2019 00:00:00 17.6 C 80 % 14.11 C
290 22-07-2019 00:05:00 17.5 C 80 % 14.01 C
291 22-07-2019 00:10:00 17.4 C 80 % 13.92 C
292 22-07-2019 00:15:00 17.3 C 80 % 13.82 C
293 22-07-2019 00:20:00 17.1 C 81 % 13.82 C
294 22-07-2019 00:25:00 17.1 C 81 % 13.82 C
295 22-07-2019 00:30:00 16.9 C 81 % 13.62 C
296 22-07-2019 00:35:00 16.9 C 82 % 13.81 C
297 22-07-2019 00:40:00 16.9 C 82 % 13.81 C
298 22-07-2019 00:45:00 16.8 C 82 % 13.71 C
299 22-07-2019 00:50:00 16.7 C 82 % 13.61 C
300 22-07-2019 00:55:00 16.7 C 82 % 13.61 C
Sensor: Nr:Datum:Temp:Feuchte:Taupunkt:
Aussen-T/F 301 22-07-2019 01:00:00 16.5 C 82 % 13.42 C
302 22-07-2019 01:05:00 16.4 C 83 % 13.51 C
303 22-07-2019 01:10:00 16.4 C 83 % 13.51 C
304 22-07-2019 01:15:00 16.3 C 84 % 13.59 C
305 22-07-2019 01:20:00 16.3 C 84 % 13.59 C
306 22-07-2019 01:25:00 16.2 C 84 % 13.5 C
307 22-07-2019 01:30:00 16.2 C 84 % 13.5 C
308 22-07-2019 01:35:00 16.1 C 85 % 13.58 C
309 22-07-2019 01:40:00 16 C 85 % 13.48 C
310 22-07-2019 01:45:00 15.9 C 85 % 13.38 C
311 22-07-2019 01:50:00 15.8 C 85 % 13.28 C
312 22-07-2019 01:55:00 15.8 C 86 % 13.46 C
313 22-07-2019 02:00:00 15.7 C 86 % 13.37 C
314 22-07-2019 02:05:00 15.7 C 87 % 13.54 C
315 22-07-2019 02:10:00 15.7 C 87 % 13.54 C
316 22-07-2019 02:15:00 15.7 C 87 % 13.54 C
317 22-07-2019 02:20:00 15.7 C 87 % 13.54 C
318 22-07-2019 02:25:00 15.7 C 87 % 13.54 C
319 22-07-2019 02:30:00 15.6 C 88 % 13.62 C
320 22-07-2019 02:35:00 15.6 C 88 % 13.62 C
321 22-07-2019 02:40:00 15.6 C 88 % 13.62 C
322 22-07-2019 02:45:00 15.6 C 88 % 13.62 C
323 22-07-2019 02:50:00 15.6 C 88 % 13.62 C
324 22-07-2019 02:55:00 15.5 C 88 % 13.52 C
325 22-07-2019 03:00:00 15.5 C 88 % 13.52 C
Sensor: Nr:Datum:Temp:Feuchte:Taupunkt:
Aussen-T/F 326 22-07-2019 03:05:00 15.5 C 88 % 13.52 C
327 22-07-2019 03:10:00 15.5 C 88 % 13.52 C
328 22-07-2019 03:15:00 15.4 C 88 % 13.42 C
329 22-07-2019 03:20:00 15.4 C 88 % 13.42 C
330 22-07-2019 03:25:00 15.4 C 88 % 13.42 C
331 22-07-2019 03:30:00 15.3 C 88 % 13.33 C
332 22-07-2019 03:35:00 15.3 C 88 % 13.33 C
333 22-07-2019 03:40:00 15.2 C 89 % 13.4 C
334 22-07-2019 03:45:00 15.2 C 89 % 13.4 C
335 22-07-2019 03:50:00 15.2 C 89 % 13.4 C
336 22-07-2019 03:55:00 15.1 C 89 % 13.3 C
337 22-07-2019 04:00:00 15.1 C 89 % 13.3 C
338 22-07-2019 04:05:00 15 C 89 % 13.2 C
339 22-07-2019 04:10:00 14.9 C 89 % 13.1 C
340 22-07-2019 04:15:00 14.8 C 89 % 13.01 C
341 22-07-2019 04:20:00 14.8 C 89 % 13.01 C
342 22-07-2019 04:25:00 14.7 C 89 % 12.91 C
343 22-07-2019 04:30:00 14.7 C 90 % 13.08 C
344 22-07-2019 04:35:00 14.6 C 90 % 12.98 C
345 22-07-2019 04:40:00 14.6 C 90 % 12.98 C
346 22-07-2019 04:45:00 14.6 C 90 % 12.98 C
347 22-07-2019 04:50:00 14.6 C 90 % 12.98 C
348 22-07-2019 04:55:00 14.5 C 90 % 12.88 C
349 22-07-2019 05:00:00 14.4 C 90 % 12.78 C
350 22-07-2019 05:05:00 14.4 C 90 % 12.78 C
Sensor: Nr:Datum:Temp:Feuchte:Taupunkt:
Aussen-T/F 351 22-07-2019 05:10:00 14.4 C 91 % 12.95 C
352 22-07-2019 05:15:00 14.3 C 91 % 12.85 C
353 22-07-2019 05:20:00 14.4 C 91 % 12.95 C
354 22-07-2019 05:25:00 14.3 C 91 % 12.85 C
355 22-07-2019 05:30:00 14.3 C 91 % 12.85 C
356 22-07-2019 05:35:00 14.3 C 91 % 12.85 C
357 22-07-2019 05:40:00 14.2 C 91 % 12.75 C
358 22-07-2019 05:45:00 14.2 C 91 % 12.75 C
359 22-07-2019 05:50:00 14.2 C 91 % 12.75 C
360 22-07-2019 05:55:00 14.2 C 92 % 12.92 C
361 22-07-2019 06:00:00 14.2 C 92 % 12.92 C
362 22-07-2019 06:05:00 14.2 C 92 % 12.92 C
363 22-07-2019 06:10:00 14.3 C 92 % 13.02 C
364 22-07-2019 06:15:00 14.3 C 92 % 13.02 C
365 22-07-2019 06:20:00 14.2 C 91 % 12.75 C
366 22-07-2019 06:25:00 14.1 C 91 % 12.65 C
367 22-07-2019 06:30:00 14.1 C 92 % 12.82 C
368 22-07-2019 06:35:00 14.1 C 92 % 12.82 C
369 22-07-2019 06:40:00 14.1 C 92 % 12.82 C
370 22-07-2019 06:45:00 14.1 C 92 % 12.82 C
371 22-07-2019 06:50:00 14.2 C 92 % 12.92 C
372 22-07-2019 06:55:00 14.2 C 92 % 12.92 C
373 22-07-2019 07:00:00 14.3 C 93 % 13.18 C
374 22-07-2019 07:05:00 14.3 C 93 % 13.18 C
375 22-07-2019 07:10:00 14.3 C 93 % 13.18 C
Sensor: Nr:Datum:Temp:Feuchte:Taupunkt:
Aussen-T/F 376 22-07-2019 07:15:00 14.4 C 93 % 13.28 C
377 22-07-2019 07:20:00 14.5 C 93 % 13.38 C
378 22-07-2019 07:25:00 14.7 C 93 % 13.58 C
379 22-07-2019 07:30:00 14.8 C 93 % 13.68 C
380 22-07-2019 07:35:00 14.9 C 93 % 13.78 C
381 22-07-2019 07:40:00 14.9 C 93 % 13.78 C
382 22-07-2019 07:45:00 15.1 C 92 % 13.81 C
383 22-07-2019 07:50:00 15.2 C 92 % 13.91 C
384 22-07-2019 07:55:00 15.3 C 92 % 14.01 C
385 22-07-2019 08:00:00 15.4 C 92 % 14.11 C
386 22-07-2019 08:05:00 15.5 C 92 % 14.21 C
387 22-07-2019 08:10:00 15.6 C 92 % 14.31 C
388 22-07-2019 08:15:00 15.7 C 91 % 14.24 C
389 22-07-2019 08:20:00 16 C 91 % 14.53 C
390 22-07-2019 08:25:00 16.2 C 89 % 14.39 C
391 22-07-2019 08:30:00 16.4 C 88 % 14.41 C
392 22-07-2019 08:35:00 16.6 C 88 % 14.6 C
393 22-07-2019 08:40:00 16.8 C 87 % 14.62 C
394 22-07-2019 08:45:00 16.9 C 87 % 14.72 C
395 22-07-2019 08:50:00 17.1 C 87 % 14.92 C
396 22-07-2019 08:55:00 17.2 C 87 % 15.02 C
397 22-07-2019 09:00:00 17.3 C 87 % 15.12 C
398 22-07-2019 09:05:00 17.4 C 86 % 15.03 C
399 22-07-2019 09:10:00 17.6 C 85 % 15.05 C
400 22-07-2019 09:15:00 17.7 C 86 % 15.33 C
Sensor: Nr:Datum:Temp:Feuchte:Taupunkt:
Aussen-T/F 401 22-07-2019 09:20:00 17.9 C 85 % 15.34 C
402 22-07-2019 09:25:00 18.1 C 83 % 15.17 C
403 22-07-2019 09:30:00 18.3 C 83 % 15.36 C
404 22-07-2019 09:35:00 18.6 C 82 % 15.47 C
405 22-07-2019 09:40:00 18.8 C 83 % 15.85 C
406 22-07-2019 09:45:00 18.8 C 82 % 15.66 C
407 22-07-2019 09:50:00 18.9 C 83 % 15.95 C
408 22-07-2019 09:55:00 19.1 C 82 % 15.96 C
409 22-07-2019 10:00:00 19.3 C 82 % 16.15 C
410 22-07-2019 10:05:00 19.5 C 81 % 16.15 C
411 22-07-2019 10:10:00 19.7 C 79 % 15.96 C
412 22-07-2019 10:15:00 19.8 C 77 % 15.65 C
413 22-07-2019 10:20:00 20.2 C 76 % 15.83 C
414 22-07-2019 10:25:00 20.6 C 76 % 16.22 C
415 22-07-2019 10:30:00 20.8 C 75 % 16.21 C
416 22-07-2019 10:35:00 21.2 C 72 % 15.95 C
417 22-07-2019 10:40:00 21.6 C 71 % 16.12 C
418 22-07-2019 10:45:00 22 C 72 % 16.72 C
419 22-07-2019 10:50:00 22.3 C 67 % 15.88 C
420 22-07-2019 10:55:00 22.7 C 63 % 15.3 C
421 22-07-2019 11:00:00 23.1 C 60 % 14.91 C
422 22-07-2019 11:05:00 23.3 C 61 % 15.36 C
423 22-07-2019 11:10:00 23.4 C 60 % 15.19 C
424 22-07-2019 11:15:00 23.6 C 61 % 15.64 C
425 22-07-2019 11:20:00 23.7 C 59 % 15.21 C
Sensor: Nr:Datum:Temp:Feuchte:Taupunkt:
Aussen-T/F 426 22-07-2019 11:25:00 23.8 C 59 % 15.31 C
427 22-07-2019 11:30:00 24.1 C 58 % 15.32 C
428 22-07-2019 11:35:00 24.3 C 57 % 15.24 C
429 22-07-2019 11:40:00 24.4 C 56 % 15.06 C
430 22-07-2019 11:45:00 24.6 C 56 % 15.24 C
431 22-07-2019 11:50:00 24.8 C 55 % 15.15 C
432 22-07-2019 11:55:00 25 C 54 % 15.05 C
433 22-07-2019 12:00:00 25.1 C 54 % 15.14 C
434 22-07-2019 12:05:00 25.3 C 53 % 15.03 C
435 22-07-2019 12:10:00 25.3 C 53 % 15.03 C
436 22-07-2019 12:15:00 25.3 C 53 % 15.03 C
437 22-07-2019 12:20:00 25.4 C 53 % 15.13 C
438 22-07-2019 12:25:00 25.4 C 53 % 15.13 C
439 22-07-2019 12:30:00 25.5 C 53 % 15.22 C
440 22-07-2019 12:35:00 25.7 C 53 % 15.4 C
441 22-07-2019 12:40:00 25.9 C 52 % 15.29 C
442 22-07-2019 12:45:00 25.9 C 52 % 15.29 C
443 22-07-2019 12:50:00 25.9 C 51 % 14.99 C
444 22-07-2019 12:55:00 26 C 51 % 15.08 C
445 22-07-2019 13:00:00 26 C 51 % 15.08 C
446 22-07-2019 13:05:00 26 C 51 % 15.08 C
447 22-07-2019 13:10:00 26.1 C 51 % 15.17 C
448 22-07-2019 13:15:00 26.2 C 51 % 15.27 C
449 22-07-2019 13:20:00 26.2 C 50 % 14.96 C
450 22-07-2019 13:25:00 26.3 C 51 % 15.36 C
Sensor: Nr:Datum:Temp:Feuchte:Taupunkt:
Aussen-T/F 451 22-07-2019 13:30:00 26.3 C 51 % 15.36 C
452 22-07-2019 13:35:00 26.4 C 50 % 15.14 C
453 22-07-2019 13:40:00 26.6 C 50 % 15.32 C
454 22-07-2019 13:45:00 26.7 C 50 % 15.42 C
455 22-07-2019 13:50:00 27 C 49 % 15.38 C
456 22-07-2019 13:55:00 27.2 C 47 % 14.91 C
457 22-07-2019 14:00:00 27.2 C 48 % 15.24 C
458 22-07-2019 14:05:00 27.3 C 47 % 15 C
459 22-07-2019 14:10:00 27.4 C 46 % 14.76 C
460 22-07-2019 14:15:00 27.7 C 46 % 15.03 C
461 22-07-2019 14:20:00 27.7 C 45 % 14.69 C
462 22-07-2019 14:25:00 27.7 C 45 % 14.69 C
463 22-07-2019 14:30:00 27.7 C 45 % 14.69 C
464 22-07-2019 14:35:00 27.8 C 47 % 15.45 C
465 22-07-2019 14:40:00 28.1 C 46 % 15.39 C
466 22-07-2019 14:45:00 28.3 C 45 % 15.23 C
467 22-07-2019 14:50:00 28.2 C 45 % 15.14 C
468 22-07-2019 14:55:00 28.2 C 44 % 14.79 C
469 22-07-2019 15:00:00 28.3 C 45 % 15.23 C
470 22-07-2019 15:05:00 28.4 C 45 % 15.32 C
471 22-07-2019 15:10:00 28.6 C 45 % 15.5 C
472 22-07-2019 15:15:00 28.8 C 44 % 15.33 C
473 22-07-2019 15:20:00 28.9 C 44 % 15.42 C
474 22-07-2019 15:25:00 29.1 C 42 % 14.88 C
475 22-07-2019 15:30:00 29.2 C 42 % 14.97 C
Sensor: Nr:Datum:Temp:Feuchte:Taupunkt:
Aussen-T/F 476 22-07-2019 15:35:00 29.1 C 42 % 14.88 C
477 22-07-2019 15:40:00 29.2 C 44 % 15.69 C
478 22-07-2019 15:45:00 29.4 C 42 % 15.15 C
479 22-07-2019 15:50:00 29.7 C 41 % 15.04 C
480 22-07-2019 15:55:00 29.9 C 41 % 15.22 C
481 22-07-2019 16:00:00 30.2 C 41 % 15.49 C
482 22-07-2019 16:05:00 30.4 C 39 % 14.89 C
483 22-07-2019 16:10:00 30.7 C 40 % 15.55 C
484 22-07-2019 16:15:00 30.8 C 39 % 15.24 C
485 22-07-2019 16:20:00 30.9 C 38 % 14.93 C
486 22-07-2019 16:25:00 30.8 C 39 % 15.24 C
487 22-07-2019 16:30:00 30.9 C 38 % 14.93 C
488 22-07-2019 16:35:00 30.8 C 38 % 14.84 C
489 22-07-2019 16:40:00 30.7 C 39 % 15.15 C
490 22-07-2019 16:45:00 31 C 39 % 15.42 C
491 22-07-2019 16:50:00 31.2 C 38 % 15.19 C
492 22-07-2019 16:55:00 31.3 C 37 % 14.87 C
493 22-07-2019 17:00:00 31.4 C 38 % 15.37 C
494 22-07-2019 17:05:00 31.6 C 37 % 15.13 C
495 22-07-2019 17:10:00 31.3 C 37 % 14.87 C
496 22-07-2019 17:15:00 31.2 C 37 % 14.78 C
497 22-07-2019 17:20:00 31.2 C 37 % 14.78 C
498 22-07-2019 17:25:00 31.3 C 37 % 14.87 C
499 22-07-2019 17:30:00 31.3 C 37 % 14.87 C
500 22-07-2019 17:35:00 31.4 C 37 % 14.96 C
Sensor: Nr:Datum:Temp:Feuchte:Taupunkt:
Aussen-T/F 501 22-07-2019 17:40:00 31.7 C 37 % 15.22 C
502 22-07-2019 17:45:00 31.8 C 36 % 14.88 C
503 22-07-2019 17:50:00 31.9 C 36 % 14.97 C
504 22-07-2019 17:55:00 32.1 C 36 % 15.15 C
505 22-07-2019 18:00:00 32.1 C 35 % 14.71 C
506 22-07-2019 18:05:00 32 C 36 % 15.06 C
507 22-07-2019 18:10:00 32 C 36 % 15.06 C
508 22-07-2019 18:15:00 32.1 C 36 % 15.15 C
509 22-07-2019 18:20:00 32.1 C 36 % 15.15 C
510 22-07-2019 18:25:00 32.2 C 36 % 15.23 C
511 22-07-2019 18:30:00 32.3 C 35 % 14.88 C
512 22-07-2019 18:35:00 32.3 C 35 % 14.88 C
513 22-07-2019 18:40:00 32.6 C 35 % 15.15 C
514 22-07-2019 18:45:00 32.7 C 35 % 15.23 C
515 22-07-2019 18:50:00 32.8 C 34 % 14.87 C
516 22-07-2019 18:55:00 32.6 C 35 % 15.15 C
517 22-07-2019 19:00:00 32.3 C 36 % 15.32 C
518 22-07-2019 19:05:00 32.3 C 35 % 14.88 C
519 22-07-2019 19:10:00 32.2 C 34 % 14.35 C
520 22-07-2019 19:15:00 32 C 35 % 14.62 C
521 22-07-2019 19:20:00 31.9 C 35 % 14.53 C
522 22-07-2019 19:25:00 31.9 C 36 % 14.97 C
523 22-07-2019 19:30:00 31.7 C 36 % 14.79 C
524 22-07-2019 19:35:00 31.2 C 37 % 14.78 C
525 22-07-2019 19:40:00 30.8 C 37 % 14.43 C
Sensor: Nr:Datum:Temp:Feuchte:Taupunkt:
Aussen-T/F 526 22-07-2019 19:45:00 30.7 C 38 % 14.75 C
527 22-07-2019 19:50:00 30.4 C 38 % 14.49 C
528 22-07-2019 19:55:00 30.3 C 39 % 14.8 C
529 22-07-2019 20:00:00 30.2 C 40 % 15.1 C
530 22-07-2019 20:05:00 30.1 C 40 % 15.01 C
531 22-07-2019 20:10:00 30 C 40 % 14.93 C
532 22-07-2019 20:15:00 29.9 C 40 % 14.84 C
533 22-07-2019 20:20:00 29.8 C 40 % 14.75 C
534 22-07-2019 20:25:00 29.7 C 42 % 15.42 C
535 22-07-2019 20:30:00 29.4 C 42 % 15.15 C
536 22-07-2019 20:35:00 29.3 C 43 % 15.42 C
537 22-07-2019 20:40:00 29.1 C 44 % 15.6 C
538 22-07-2019 20:45:00 28.8 C 45 % 15.68 C
539 22-07-2019 20:50:00 28.6 C 48 % 16.51 C
540 22-07-2019 20:55:00 28.2 C 51 % 17.1 C
541 22-07-2019 21:00:00 27.9 C 51 % 16.83 C
542 22-07-2019 21:05:00 27.4 C 52 % 16.67 C
543 22-07-2019 21:10:00 26.9 C 53 % 16.51 C
544 22-07-2019 21:15:00 26.4 C 55 % 16.63 C
545 22-07-2019 21:20:00 26 C 56 % 16.54 C
546 22-07-2019 21:25:00 25.6 C 57 % 16.45 C
547 22-07-2019 21:30:00 25.2 C 57 % 16.08 C
548 22-07-2019 21:35:00 24.8 C 58 % 15.98 C
549 22-07-2019 21:40:00 24.6 C 58 % 15.79 C
550 22-07-2019 21:45:00 24.3 C 60 % 16.04 C
Sensor: Nr:Datum:Temp:Feuchte:Taupunkt:
Aussen-T/F 551 22-07-2019 21:50:00 24.1 C 60 % 15.85 C
552 22-07-2019 21:55:00 23.9 C 61 % 15.92 C
553 22-07-2019 22:00:00 23.7 C 61 % 15.73 C
554 22-07-2019 22:05:00 23.6 C 61 % 15.64 C
555 22-07-2019 22:10:00 23.4 C 62 % 15.71 C
556 22-07-2019 22:15:00 23.3 C 62 % 15.61 C
557 22-07-2019 22:20:00 23.1 C 62 % 15.42 C
558 22-07-2019 22:25:00 22.9 C 63 % 15.48 C
559 22-07-2019 22:30:00 22.8 C 64 % 15.64 C
560 22-07-2019 22:35:00 22.6 C 65 % 15.69 C
561 22-07-2019 22:40:00 22.4 C 66 % 15.74 C
562 22-07-2019 22:45:00 22.3 C 66 % 15.64 C
563 22-07-2019 22:50:00 22.1 C 66 % 15.45 C
564 22-07-2019 22:55:00 22 C 66 % 15.36 C
565 22-07-2019 23:00:00 21.9 C 67 % 15.5 C
566 22-07-2019 23:05:00 21.7 C 68 % 15.54 C
567 22-07-2019 23:10:00 21.4 C 69 % 15.48 C
568 22-07-2019 23:15:00 21.2 C 70 % 15.51 C
569 22-07-2019 23:20:00 21.1 C 70 % 15.42 C
570 22-07-2019 23:25:00 21 C 71 % 15.54 C
571 22-07-2019 23:30:00 20.8 C 72 % 15.57 C
572 22-07-2019 23:35:00 20.7 C 72 % 15.47 C
573 22-07-2019 23:40:00 20.5 C 72 % 15.28 C
574 22-07-2019 23:45:00 20.4 C 73 % 15.4 C
575 22-07-2019 23:50:00 20.3 C 74 % 15.51 C
Sensor: Nr:Datum:Temp:Feuchte:Taupunkt:
Aussen-T/F 576 22-07-2019 23:55:00 20.1 C 74 % 15.32 C
577 23-07-2019 00:00:00 20 C 75 % 15.43 C
578 23-07-2019 00:05:00 19.8 C 75 % 15.24 C
579 23-07-2019 00:10:00 19.8 C 75 % 15.24 C
580 23-07-2019 00:15:00 19.6 C 75 % 15.05 C
581 23-07-2019 00:20:00 19.5 C 76 % 15.16 C
582 23-07-2019 00:25:00 19.4 C 76 % 15.06 C
583 23-07-2019 00:30:00 19.3 C 76 % 14.97 C
584 23-07-2019 00:35:00 19.2 C 77 % 15.07 C
585 23-07-2019 00:40:00 19.2 C 77 % 15.07 C
586 23-07-2019 00:45:00 19.1 C 77 % 14.97 C
587 23-07-2019 00:50:00 19 C 78 % 15.08 C
588 23-07-2019 00:55:00 18.9 C 78 % 14.98 C
589 23-07-2019 01:00:00 18.8 C 78 % 14.88 C
590 23-07-2019 01:05:00 18.8 C 78 % 14.88 C
591 23-07-2019 01:10:00 18.7 C 79 % 14.99 C
592 23-07-2019 01:15:00 18.6 C 79 % 14.89 C
593 23-07-2019 01:20:00 18.5 C 80 % 14.99 C
594 23-07-2019 01:25:00 18.4 C 80 % 14.89 C
595 23-07-2019 01:30:00 18.3 C 80 % 14.79 C
596 23-07-2019 01:35:00 18.2 C 80 % 14.69 C
597 23-07-2019 01:40:00 18.2 C 81 % 14.89 C
598 23-07-2019 01:45:00 18.1 C 81 % 14.79 C
599 23-07-2019 01:50:00 18 C 81 % 14.69 C
600 23-07-2019 01:55:00 17.9 C 81 % 14.59 C
Sensor: Nr:Datum:Temp:Feuchte:Taupunkt:
Aussen-T/F 601 23-07-2019 02:00:00 17.9 C 81 % 14.59 C
602 23-07-2019 02:05:00 17.8 C 82 % 14.69 C
603 23-07-2019 02:10:00 17.8 C 82 % 14.69 C
604 23-07-2019 02:15:00 17.7 C 82 % 14.59 C
605 23-07-2019 02:20:00 17.7 C 82 % 14.59 C
606 23-07-2019 02:25:00 17.6 C 82 % 14.49 C
607 23-07-2019 02:30:00 17.5 C 83 % 14.58 C
608 23-07-2019 02:35:00 17.4 C 83 % 14.48 C
609 23-07-2019 02:40:00 17.4 C 83 % 14.48 C
610 23-07-2019 02:45:00 17.3 C 83 % 14.39 C
611 23-07-2019 02:50:00 17.3 C 83 % 14.39 C
612 23-07-2019 02:55:00 17.3 C 84 % 14.57 C
613 23-07-2019 03:00:00 17.2 C 84 % 14.47 C
614 23-07-2019 03:05:00 17.1 C 84 % 14.38 C
615 23-07-2019 03:10:00 16.9 C 84 % 14.18 C
616 23-07-2019 03:15:00 16.9 C 85 % 14.36 C
617 23-07-2019 03:20:00 16.9 C 85 % 14.36 C
618 23-07-2019 03:25:00 16.9 C 85 % 14.36 C
619 23-07-2019 03:30:00 16.8 C 85 % 14.26 C
620 23-07-2019 03:35:00 16.8 C 85 % 14.26 C
621 23-07-2019 03:40:00 16.7 C 86 % 14.35 C
622 23-07-2019 03:45:00 16.7 C 86 % 14.35 C
623 23-07-2019 03:50:00 16.6 C 86 % 14.25 C
624 23-07-2019 03:55:00 16.6 C 86 % 14.25 C
625 23-07-2019 04:00:00 16.6 C 86 % 14.25 C
Sensor: Nr:Datum:Temp:Feuchte:Taupunkt:
Aussen-T/F 626 23-07-2019 04:05:00 16.5 C 87 % 14.33 C
627 23-07-2019 04:10:00 16.4 C 87 % 14.23 C
628 23-07-2019 04:15:00 16.4 C 87 % 14.23 C
629 23-07-2019 04:20:00 16.3 C 87 % 14.13 C
630 23-07-2019 04:25:00 16.3 C 87 % 14.13 C
631 23-07-2019 04:30:00 16.2 C 88 % 14.21 C
632 23-07-2019 04:35:00 16.2 C 88 % 14.21 C
633 23-07-2019 04:40:00 16.2 C 88 % 14.21 C
634 23-07-2019 04:45:00 16.2 C 88 % 14.21 C
635 23-07-2019 04:50:00 16.1 C 88 % 14.11 C
636 23-07-2019 04:55:00 16.1 C 88 % 14.11 C
637 23-07-2019 05:00:00 16.1 C 88 % 14.11 C
638 23-07-2019 05:05:00 16 C 89 % 14.19 C
639 23-07-2019 05:10:00 16 C 89 % 14.19 C
640 23-07-2019 05:15:00 15.9 C 89 % 14.09 C
641 23-07-2019 05:20:00 15.9 C 89 % 14.09 C
642 23-07-2019 05:25:00 15.8 C 89 % 13.99 C
643 23-07-2019 05:30:00 15.8 C 89 % 13.99 C
644 23-07-2019 05:35:00 15.8 C 89 % 13.99 C
645 23-07-2019 05:40:00 15.7 C 89 % 13.89 C
646 23-07-2019 05:45:00 15.7 C 89 % 13.89 C
647 23-07-2019 05:50:00 15.6 C 90 % 13.97 C
648 23-07-2019 05:55:00 15.6 C 90 % 13.97 C
649 23-07-2019 06:00:00 15.6 C 90 % 13.97 C
650 23-07-2019 06:05:00 15.6 C 90 % 13.97 C
Sensor: Nr:Datum:Temp:Feuchte:Taupunkt:
Aussen-T/F 651 23-07-2019 06:10:00 15.6 C 91 % 14.14 C
652 23-07-2019 06:15:00 15.6 C 91 % 14.14 C
653 23-07-2019 06:20:00 15.6 C 91 % 14.14 C
654 23-07-2019 06:25:00 15.6 C 91 % 14.14 C
655 23-07-2019 06:30:00 15.7 C 91 % 14.24 C
656 23-07-2019 06:35:00 15.7 C 91 % 14.24 C
657 23-07-2019 06:40:00 15.7 C 91 % 14.24 C
658 23-07-2019 06:45:00 15.7 C 91 % 14.24 C
659 23-07-2019 06:50:00 15.7 C 91 % 14.24 C
660 23-07-2019 06:55:00 15.8 C 91 % 14.33 C
661 23-07-2019 07:00:00 15.8 C 91 % 14.33 C
662 23-07-2019 07:05:00 15.9 C 91 % 14.43 C
663 23-07-2019 07:10:00 16 C 91 % 14.53 C
664 23-07-2019 07:15:00 16.1 C 91 % 14.63 C
665 23-07-2019 07:20:00 16.1 C 91 % 14.63 C
666 23-07-2019 07:25:00 16.1 C 91 % 14.63 C
667 23-07-2019 07:30:00 16.1 C 91 % 14.63 C
668 23-07-2019 07:35:00 16.2 C 91 % 14.73 C
669 23-07-2019 07:40:00 16.2 C 91 % 14.73 C
670 23-07-2019 07:45:00 16.2 C 91 % 14.73 C
671 23-07-2019 07:50:00 16.3 C 91 % 14.83 C
672 23-07-2019 07:55:00 16.3 C 91 % 14.83 C
673 23-07-2019 08:00:00 16.4 C 91 % 14.93 C
674 23-07-2019 08:05:00 16.4 C 91 % 14.93 C
675 23-07-2019 08:10:00 16.5 C 91 % 15.03 C
Sensor: Nr:Datum:Temp:Feuchte:Taupunkt:
Aussen-T/F 676 23-07-2019 08:15:00 16.6 C 91 % 15.13 C
677 23-07-2019 08:20:00 16.7 C 91 % 15.22 C
678 23-07-2019 08:25:00 16.7 C 91 % 15.22 C
679 23-07-2019 08:30:00 16.8 C 91 % 15.32 C
680 23-07-2019 08:35:00 16.9 C 90 % 15.25 C
681 23-07-2019 08:40:00 17.1 C 90 % 15.45 C
682 23-07-2019 08:45:00 17.2 C 90 % 15.55 C
683 23-07-2019 08:50:00 17.3 C 90 % 15.64 C
684 23-07-2019 08:55:00 17.4 C 90 % 15.74 C
685 23-07-2019 09:00:00 17.6 C 90 % 15.94 C
686 23-07-2019 09:05:00 17.7 C 89 % 15.86 C
687 23-07-2019 09:10:00 17.8 C 89 % 15.96 C
688 23-07-2019 09:15:00 18.1 C 89 % 16.26 C
689 23-07-2019 09:20:00 18.3 C 88 % 16.28 C
690 23-07-2019 09:25:00 18.6 C 88 % 16.57 C
691 23-07-2019 09:30:00 18.8 C 87 % 16.59 C
692 23-07-2019 09:35:00 19 C 87 % 16.79 C
693 23-07-2019 09:40:00 19.2 C 86 % 16.8 C
694 23-07-2019 09:45:00 19.5 C 85 % 16.91 C
695 23-07-2019 09:50:00 19.8 C 84 % 17.02 C
696 23-07-2019 09:55:00 20.1 C 83 % 17.12 C
697 23-07-2019 10:00:00 20.4 C 83 % 17.42 C
698 23-07-2019 10:05:00 20.7 C 81 % 17.32 C
699 23-07-2019 10:10:00 21.1 C 80 % 17.51 C
700 23-07-2019 10:15:00 21.3 C 79 % 17.51 C
Sensor: Nr:Datum:Temp:Feuchte:Taupunkt:
Aussen-T/F 701 23-07-2019 10:20:00 21.6 C 79 % 17.8 C
702 23-07-2019 10:25:00 21.9 C 77 % 17.68 C
703 23-07-2019 10:30:00 22.3 C 77 % 18.07 C
704 23-07-2019 10:35:00 22.7 C 76 % 18.25 C
705 23-07-2019 10:40:00 23.2 C 73 % 18.09 C
706 23-07-2019 10:45:00 23.8 C 66 % 17.07 C
707 23-07-2019 10:50:00 24.8 C 66 % 18.01 C
708 23-07-2019 10:55:00 25.3 C 63 % 17.75 C
709 23-07-2019 11:00:00 25.6 C 61 % 17.52 C
710 23-07-2019 11:05:00 25.9 C 58 % 17 C
711 23-07-2019 11:10:00 26.4 C 57 % 17.19 C
712 23-07-2019 11:15:00 26.9 C 57 % 17.66 C
713 23-07-2019 11:20:00 27.1 C 57 % 17.85 C
714 23-07-2019 11:25:00 27.1 C 53 % 16.7 C
715 23-07-2019 11:30:00 27.4 C 53 % 16.97 C
716 23-07-2019 11:35:00 27.8 C 51 % 16.73 C
717 23-07-2019 11:40:00 28.1 C 49 % 16.38 C
718 23-07-2019 11:45:00 28.4 C 48 % 16.33 C
719 23-07-2019 11:50:00 28.7 C 47 % 16.27 C
720 23-07-2019 11:55:00 28.8 C 49 % 17.02 C
721 23-07-2019 12:00:00 28.9 C 47 % 16.45 C
722 23-07-2019 12:05:00 29.1 C 45 % 15.95 C
723 23-07-2019 12:10:00 29.2 C 46 % 16.39 C
724 23-07-2019 12:15:00 29.3 C 45 % 16.13 C
725 23-07-2019 12:20:00 29.4 C 46 % 16.57 C
Sensor: Nr:Datum:Temp:Feuchte:Taupunkt:
Aussen-T/F 726 23-07-2019 12:25:00 29.5 C 44 % 15.96 C
727 23-07-2019 12:30:00 29.6 C 44 % 16.05 C
728 23-07-2019 12:35:00 29.8 C 42 % 15.51 C
729 23-07-2019 12:40:00 29.9 C 43 % 15.96 C
730 23-07-2019 12:45:00 30 C 42 % 15.69 C
731 23-07-2019 12:50:00 30.2 C 43 % 16.23 C
732 23-07-2019 12:55:00 30.2 C 41 % 15.49 C
733 23-07-2019 13:00:00 30.3 C 41 % 15.58 C
734 23-07-2019 13:05:00 30.3 C 42 % 15.95 C
735 23-07-2019 13:10:00 30.4 C 41 % 15.67 C
736 23-07-2019 13:15:00 30.6 C 40 % 15.46 C
737 23-07-2019 13:20:00 30.6 C 40 % 15.46 C
738 23-07-2019 13:25:00 30.7 C 40 % 15.55 C
739 23-07-2019 13:30:00 30.8 C 40 % 15.64 C
740 23-07-2019 13:35:00 30.9 C 39 % 15.33 C
741 23-07-2019 13:40:00 31.1 C 38 % 15.1 C
742 23-07-2019 13:45:00 31.2 C 40 % 15.99 C
743 23-07-2019 13:50:00 31.2 C 40 % 15.99 C
744 23-07-2019 13:55:00 31.3 C 38 % 15.28 C
745 23-07-2019 14:00:00 31.3 C 39 % 15.69 C
746 23-07-2019 14:05:00 31.4 C 38 % 15.37 C
747 23-07-2019 14:10:00 31.7 C 39 % 16.04 C
748 23-07-2019 14:15:00 31.9 C 38 % 15.81 C
749 23-07-2019 14:20:00 32.1 C 38 % 15.99 C
750 23-07-2019 14:25:00 32.2 C 37 % 15.66 C
Sensor: Nr:Datum:Temp:Feuchte:Taupunkt:
Aussen-T/F 751 23-07-2019 14:30:00 32.3 C 36 % 15.32 C
752 23-07-2019 14:35:00 32.3 C 36 % 15.32 C
753 23-07-2019 14:40:00 32.4 C 36 % 15.41 C
754 23-07-2019 14:45:00 32.5 C 36 % 15.5 C
755 23-07-2019 14:50:00 32.6 C 37 % 16.01 C
756 23-07-2019 14:55:00 32.7 C 36 % 15.67 C
757 23-07-2019 15:00:00 32.8 C 37 % 16.19 C
758 23-07-2019 15:05:00 33.1 C 38 % 16.87 C
759 23-07-2019 15:10:00 33.2 C 37 % 16.54 C
760 23-07-2019 15:15:00 33.4 C 36 % 16.29 C
761 23-07-2019 15:20:00 33.6 C 36 % 16.46 C
762 23-07-2019 15:25:00 33.8 C 34 % 15.74 C
763 23-07-2019 15:30:00 33.8 C 34 % 15.74 C
764 23-07-2019 15:35:00 34 C 34 % 15.92 C
765 23-07-2019 15:40:00 34.4 C 34 % 16.26 C
766 23-07-2019 15:45:00 34.7 C 34 % 16.53 C
767 23-07-2019 15:50:00 34.9 C 33 % 16.23 C
768 23-07-2019 15:55:00 35.2 C 34 % 16.96 C
769 23-07-2019 16:00:00 35.5 C 32 % 16.27 C
770 23-07-2019 16:05:00 35.6 C 32 % 16.35 C
771 23-07-2019 16:10:00 35.6 C 30 % 15.34 C
772 23-07-2019 16:15:00 35.6 C 33 % 16.84 C
773 23-07-2019 16:20:00 35.8 C 31 % 16.03 C
774 23-07-2019 16:25:00 35.9 C 31 % 16.11 C
775 23-07-2019 16:30:00 36.1 C 30 % 15.77 C
Sensor: Nr:Datum:Temp:Feuchte:Taupunkt:
Aussen-T/F 776 23-07-2019 16:35:00 36 C 31 % 16.2 C
777 23-07-2019 16:40:00 35.8 C 31 % 16.03 C
778 23-07-2019 16:45:00 35.8 C 30 % 15.52 C
779 23-07-2019 16:50:00 35.8 C 30 % 15.52 C
780 23-07-2019 16:55:00 36.1 C 30 % 15.77 C
781 23-07-2019 17:00:00 36.1 C 29 % 15.24 C
782 23-07-2019 17:05:00 36.3 C 30 % 15.94 C
783 23-07-2019 17:10:00 36.4 C 29 % 15.5 C
784 23-07-2019 17:15:00 36.3 C 28 % 14.87 C
785 23-07-2019 17:20:00 36.3 C 29 % 15.41 C
786 23-07-2019 17:25:00 36.4 C 29 % 15.5 C
787 23-07-2019 17:30:00 36.4 C 29 % 15.5 C
788 23-07-2019 17:35:00 36.5 C 28 % 15.04 C
789 23-07-2019 17:40:00 36.6 C 28 % 15.12 C
790 23-07-2019 17:45:00 36.6 C 28 % 15.12 C
791 23-07-2019 17:50:00 36.3 C 28 % 14.87 C
792 23-07-2019 17:55:00 36.4 C 29 % 15.5 C
793 23-07-2019 18:00:00 36.7 C 30 % 16.29 C
794 23-07-2019 18:05:00 36.8 C 28 % 15.29 C
795 23-07-2019 18:10:00 36.8 C 28 % 15.29 C
796 23-07-2019 18:15:00 36.7 C 29 % 15.76 C
797 23-07-2019 18:20:00 37 C 28 % 15.46 C
798 23-07-2019 18:25:00 36.9 C 27 % 14.81 C
799 23-07-2019 18:30:00 36.8 C 28 % 15.29 C
800 23-07-2019 18:35:00 36.8 C 29 % 15.84 C
Sensor: Nr:Datum:Temp:Feuchte:Taupunkt:
Aussen-T/F 801 23-07-2019 18:40:00 36.9 C 29 % 15.93 C
802 23-07-2019 18:45:00 36.9 C 27 % 14.81 C
803 23-07-2019 18:50:00 36.6 C 29 % 15.67 C
804 23-07-2019 18:55:00 36.3 C 29 % 15.41 C
805 23-07-2019 19:00:00 36.2 C 29 % 15.33 C
806 23-07-2019 19:05:00 36.2 C 29 % 15.33 C
807 23-07-2019 19:10:00 36.3 C 29 % 15.41 C
808 23-07-2019 19:15:00 36.3 C 30 % 15.94 C
809 23-07-2019 19:20:00 36.1 C 28 % 14.7 C
810 23-07-2019 19:25:00 35.8 C 31 % 16.03 C
811 23-07-2019 19:30:00 35.6 C 30 % 15.34 C
812 23-07-2019 19:35:00 35.4 C 31 % 15.68 C
813 23-07-2019 19:40:00 35.2 C 30 % 15 C
814 23-07-2019 19:45:00 35 C 33 % 16.32 C
815 23-07-2019 19:50:00 34.9 C 36 % 17.6 C
816 23-07-2019 19:55:00 34.7 C 34 % 16.53 C
817 23-07-2019 20:00:00 34.5 C 33 % 15.88 C
818 23-07-2019 20:05:00 34.3 C 35 % 16.63 C
819 23-07-2019 20:10:00 34.2 C 38 % 17.84 C
820 23-07-2019 20:15:00 33.9 C 39 % 17.99 C
821 23-07-2019 20:20:00 33.6 C 39 % 17.73 C
822 23-07-2019 20:25:00 33.3 C 40 % 17.86 C
823 23-07-2019 20:30:00 32.8 C 45 % 19.3 C
824 23-07-2019 20:35:00 32.3 C 42 % 17.74 C
825 23-07-2019 20:40:00 31.7 C 42 % 17.21 C
Sensor: Nr:Datum:Temp:Feuchte:Taupunkt:
Aussen-T/F 826 23-07-2019 20:45:00 31.2 C 44 % 17.49 C
827 23-07-2019 20:50:00 30.7 C 45 % 17.4 C
828 23-07-2019 20:55:00 30.2 C 46 % 17.3 C
829 23-07-2019 21:00:00 29.7 C 47 % 17.18 C
830 23-07-2019 21:05:00 29.4 C 48 % 17.24 C
831 23-07-2019 21:10:00 29.1 C 48 % 16.97 C
832 23-07-2019 21:15:00 28.8 C 49 % 17.02 C
833 23-07-2019 21:20:00 28.4 C 50 % 16.97 C
834 23-07-2019 21:25:00 28.1 C 50 % 16.7 C
835 23-07-2019 21:30:00 27.7 C 51 % 16.64 C
836 23-07-2019 21:35:00 27.4 C 52 % 16.67 C
837 23-07-2019 21:40:00 27.2 C 52 % 16.49 C
838 23-07-2019 21:45:00 26.9 C 52 % 16.21 C
839 23-07-2019 21:50:00 26.8 C 53 % 16.42 C
840 23-07-2019 21:55:00 26.6 C 52 % 15.94 C
841 23-07-2019 22:00:00 26.5 C 53 % 16.14 C
842 23-07-2019 22:05:00 26.4 C 53 % 16.05 C
843 23-07-2019 22:10:00 26.2 C 54 % 16.16 C
844 23-07-2019 22:15:00 25.8 C 56 % 16.36 C
845 23-07-2019 22:20:00 25.6 C 57 % 16.45 C
846 23-07-2019 22:25:00 25.2 C 57 % 16.08 C
847 23-07-2019 22:30:00 25 C 58 % 16.16 C
848 23-07-2019 22:35:00 24.8 C 60 % 16.51 C
849 23-07-2019 22:40:00 24.6 C 60 % 16.32 C
850 23-07-2019 22:45:00 24.3 C 61 % 16.3 C
Sensor: Nr:Datum:Temp:Feuchte:Taupunkt:
Aussen-T/F 851 23-07-2019 22:50:00 24.1 C 62 % 16.37 C
852 23-07-2019 22:55:00 23.9 C 63 % 16.43 C
853 23-07-2019 23:00:00 23.7 C 63 % 16.24 C
854 23-07-2019 23:05:00 23.5 C 64 % 16.3 C
855 23-07-2019 23:10:00 23.3 C 65 % 16.35 C
856 23-07-2019 23:15:00 23.2 C 65 % 16.26 C
857 23-07-2019 23:20:00 23.1 C 66 % 16.4 C
858 23-07-2019 23:25:00 23 C 66 % 16.31 C
859 23-07-2019 23:30:00 22.9 C 66 % 16.21 C
860 23-07-2019 23:35:00 22.8 C 66 % 16.12 C
861 23-07-2019 23:40:00 22.7 C 67 % 16.26 C
862 23-07-2019 23:45:00 22.5 C 68 % 16.3 C
863 23-07-2019 23:50:00 22.3 C 68 % 16.11 C
864 23-07-2019 23:55:00 22.2 C 68 % 16.01 C
865 24-07-2019 00:00:00 22.1 C 69 % 16.15 C
866 24-07-2019 00:05:00 21.9 C 70 % 16.18 C
867 24-07-2019 00:10:00 21.8 C 70 % 16.09 C
868 24-07-2019 00:15:00 21.7 C 70 % 15.99 C
869 24-07-2019 00:20:00 21.6 C 71 % 16.12 C
870 24-07-2019 00:25:00 21.4 C 71 % 15.93 C
871 24-07-2019 00:30:00 21.4 C 72 % 16.14 C
872 24-07-2019 00:35:00 21.3 C 72 % 16.05 C
873 24-07-2019 00:40:00 21.2 C 73 % 16.17 C
874 24-07-2019 00:45:00 21.1 C 73 % 16.07 C
875 24-07-2019 00:50:00 20.9 C 73 % 15.88 C
Sensor: Nr:Datum:Temp:Feuchte:Taupunkt:
Aussen-T/F 876 24-07-2019 00:55:00 20.9 C 74 % 16.09 C
877 24-07-2019 01:00:00 20.8 C 74 % 16 C
878 24-07-2019 01:05:00 20.7 C 76 % 16.32 C
879 24-07-2019 01:10:00 20.7 C 76 % 16.32 C
880 24-07-2019 01:15:00 20.6 C 76 % 16.22 C
881 24-07-2019 01:20:00 20.6 C 76 % 16.22 C
882 24-07-2019 01:25:00 20.4 C 76 % 16.03 C
883 24-07-2019 01:30:00 20.3 C 77 % 16.14 C
884 24-07-2019 01:35:00 20.2 C 77 % 16.04 C
885 24-07-2019 01:40:00 20.1 C 77 % 15.94 C
886 24-07-2019 01:45:00 19.9 C 77 % 15.75 C
887 24-07-2019 01:50:00 19.8 C 77 % 15.65 C
888 24-07-2019 01:55:00 19.7 C 78 % 15.76 C
889 24-07-2019 02:00:00 19.7 C 78 % 15.76 C
890 24-07-2019 02:05:00 19.6 C 78 % 15.66 C
891 24-07-2019 02:10:00 19.5 C 78 % 15.56 C
892 24-07-2019 02:15:00 19.5 C 78 % 15.56 C
893 24-07-2019 02:20:00 19.4 C 78 % 15.47 C
894 24-07-2019 02:25:00 19.4 C 79 % 15.66 C
895 24-07-2019 02:30:00 19.3 C 79 % 15.57 C
896 24-07-2019 02:35:00 19.2 C 79 % 15.47 C
897 24-07-2019 02:40:00 19.1 C 80 % 15.57 C
898 24-07-2019 02:45:00 19.1 C 80 % 15.57 C
899 24-07-2019 02:50:00 19 C 80 % 15.47 C
900 24-07-2019 02:55:00 18.9 C 81 % 15.57 C
Sensor: Nr:Datum:Temp:Feuchte:Taupunkt:
Aussen-T/F 901 24-07-2019 03:00:00 18.9 C 81 % 15.57 C
902 24-07-2019 03:05:00 19.1 C 81 % 15.76 C
903 24-07-2019 03:10:00 19.1 C 80 % 15.57 C
904 24-07-2019 03:15:00 18.9 C 80 % 15.38 C
905 24-07-2019 03:20:00 18.8 C 80 % 15.28 C
906 24-07-2019 03:25:00 18.7 C 81 % 15.37 C
907 24-07-2019 03:30:00 18.6 C 82 % 15.47 C
908 24-07-2019 03:35:00 18.5 C 83 % 15.56 C
909 24-07-2019 03:40:00 18.4 C 83 % 15.46 C
910 24-07-2019 03:45:00 18.3 C 83 % 15.36 C
911 24-07-2019 03:50:00 18.2 C 83 % 15.27 C
912 24-07-2019 03:55:00 18.1 C 84 % 15.35 C
913 24-07-2019 04:00:00 18.1 C 84 % 15.35 C
914 24-07-2019 04:05:00 18 C 84 % 15.26 C
915 24-07-2019 04:10:00 17.9 C 84 % 15.16 C
916 24-07-2019 04:15:00 17.9 C 84 % 15.16 C
917 24-07-2019 04:20:00 17.8 C 84 % 15.06 C
918 24-07-2019 04:25:00 17.8 C 84 % 15.06 C
919 24-07-2019 04:30:00 17.8 C 85 % 15.25 C
920 24-07-2019 04:35:00 17.7 C 85 % 15.15 C
921 24-07-2019 04:40:00 17.7 C 85 % 15.15 C
922 24-07-2019 04:45:00 17.6 C 85 % 15.05 C
923 24-07-2019 04:50:00 17.5 C 85 % 14.95 C
924 24-07-2019 04:55:00 17.4 C 86 % 15.03 C
925 24-07-2019 05:00:00 17.4 C 86 % 15.03 C
Sensor: Nr:Datum:Temp:Feuchte:Taupunkt:
Aussen-T/F 926 24-07-2019 05:05:00 17.4 C 86 % 15.03 C
927 24-07-2019 05:10:00 17.3 C 86 % 14.94 C
928 24-07-2019 05:15:00 17.3 C 87 % 15.12 C
929 24-07-2019 05:20:00 17.3 C 87 % 15.12 C
930 24-07-2019 05:25:00 17.2 C 87 % 15.02 C
931 24-07-2019 05:30:00 17.2 C 87 % 15.02 C
932 24-07-2019 05:35:00 17.2 C 88 % 15.2 C
933 24-07-2019 05:40:00 17.2 C 88 % 15.2 C
934 24-07-2019 05:45:00 17.1 C 88 % 15.1 C
935 24-07-2019 05:50:00 17.1 C 87 % 14.92 C
936 24-07-2019 05:55:00 17.1 C 88 % 15.1 C
937 24-07-2019 06:00:00 17.1 C 88 % 15.1 C
938 24-07-2019 06:05:00 17.1 C 88 % 15.1 C
939 24-07-2019 06:10:00 17.1 C 88 % 15.1 C
940 24-07-2019 06:15:00 17.1 C 88 % 15.1 C
941 24-07-2019 06:20:00 17 C 88 % 15 C
942 24-07-2019 06:25:00 17.1 C 88 % 15.1 C
943 24-07-2019 06:30:00 17.1 C 88 % 15.1 C
944 24-07-2019 06:35:00 17 C 88 % 15 C
945 24-07-2019 06:40:00 17 C 88 % 15 C
946 24-07-2019 06:45:00 17.1 C 89 % 15.27 C
947 24-07-2019 06:50:00 17.1 C 89 % 15.27 C
948 24-07-2019 06:55:00 17.1 C 89 % 15.27 C
949 24-07-2019 07:00:00 17.1 C 90 % 15.45 C
950 24-07-2019 07:05:00 17.1 C 90 % 15.45 C
Sensor: Nr:Datum:Temp:Feuchte:Taupunkt:
Aussen-T/F 951 24-07-2019 07:10:00 17.1 C 90 % 15.45 C
952 24-07-2019 07:15:00 17.1 C 90 % 15.45 C
953 24-07-2019 07:20:00 17.2 C 90 % 15.55 C
954 24-07-2019 07:25:00 17.2 C 90 % 15.55 C
955 24-07-2019 07:30:00 17.3 C 90 % 15.64 C
956 24-07-2019 07:35:00 17.3 C 90 % 15.64 C
957 24-07-2019 07:40:00 17.3 C 90 % 15.64 C
958 24-07-2019 07:45:00 17.4 C 90 % 15.74 C
959 24-07-2019 07:50:00 17.5 C 90 % 15.84 C
960 24-07-2019 07:55:00 17.6 C 90 % 15.94 C
961 24-07-2019 08:00:00 17.6 C 90 % 15.94 C
962 24-07-2019 08:05:00 17.7 C 90 % 16.04 C
963 24-07-2019 08:10:00 17.8 C 90 % 16.14 C
964 24-07-2019 08:15:00 18 C 89 % 16.16 C
965 24-07-2019 08:20:00 18.2 C 89 % 16.36 C
966 24-07-2019 08:25:00 18.3 C 89 % 16.46 C
967 24-07-2019 08:30:00 18.4 C 89 % 16.55 C
968 24-07-2019 08:35:00 18.5 C 88 % 16.48 C
969 24-07-2019 08:40:00 18.6 C 88 % 16.57 C
970 24-07-2019 08:45:00 18.8 C 88 % 16.77 C
971 24-07-2019 08:50:00 18.9 C 88 % 16.87 C
972 24-07-2019 08:55:00 19.1 C 88 % 17.07 C
973 24-07-2019 09:00:00 19.2 C 88 % 17.16 C
974 24-07-2019 09:05:00 19.3 C 88 % 17.26 C
975 24-07-2019 09:10:00 19.5 C 88 % 17.46 C
Sensor: Nr:Datum:Temp:Feuchte:Taupunkt:
Aussen-T/F 976 24-07-2019 09:15:00 19.6 C 87 % 17.38 C
977 24-07-2019 09:20:00 19.8 C 87 % 17.57 C
978 24-07-2019 09:25:00 20.1 C 86 % 17.68 C
979 24-07-2019 09:30:00 20.3 C 86 % 17.88 C
980 24-07-2019 09:35:00 20.5 C 85 % 17.89 C
981 24-07-2019 09:40:00 20.7 C 84 % 17.9 C
982 24-07-2019 09:45:00 20.9 C 83 % 17.9 C
983 24-07-2019 09:50:00 21.3 C 82 % 18.1 C
984 24-07-2019 09:55:00 21.6 C 80 % 18 C
985 24-07-2019 10:00:00 21.9 C 78 % 17.89 C
986 24-07-2019 10:05:00 22.3 C 79 % 18.48 C
987 24-07-2019 10:10:00 22.6 C 77 % 18.36 C
988 24-07-2019 10:15:00 22.8 C 75 % 18.14 C
989 24-07-2019 10:20:00 23.1 C 74 % 18.21 C
990 24-07-2019 10:25:00 23.6 C 73 % 18.48 C
991 24-07-2019 10:30:00 24 C 72 % 18.64 C
992 24-07-2019 10:35:00 24.3 C 71 % 18.7 C
993 24-07-2019 10:40:00 24.6 C 69 % 18.53 C
994 24-07-2019 10:45:00 24.9 C 67 % 18.35 C
995 24-07-2019 10:50:00 25.3 C 67 % 18.73 C
996 24-07-2019 10:55:00 25.6 C 67 % 19.01 C
997 24-07-2019 11:00:00 25.8 C 67 % 19.2 C
998 24-07-2019 11:05:00 26 C 64 % 18.66 C
999 24-07-2019 11:10:00 26.3 C 66 % 19.44 C
1000 24-07-2019 11:15:00 26.6 C 65 % 19.48 C
Sensor: Nr:Datum:Temp:Feuchte:Taupunkt:
Aussen-T/F 1001 24-07-2019 11:20:00 26.8 C 60 % 18.38 C
1002 24-07-2019 11:25:00 27.1 C 60 % 18.66 C
1003 24-07-2019 11:30:00 27.4 C 59 % 18.68 C
1004 24-07-2019 11:35:00 27.9 C 58 % 18.87 C
1005 24-07-2019 11:40:00 28.3 C 55 % 18.39 C
1006 24-07-2019 11:45:00 28.6 C 54 % 18.38 C
1007 24-07-2019 11:50:00 29 C 53 % 18.45 C
1008 24-07-2019 11:55:00 29.4 C 53 % 18.82 C
1009 24-07-2019 12:00:00 29.8 C 53 % 19.19 C
1010 24-07-2019 12:05:00 30.3 C 48 % 18.06 C
1011 24-07-2019 12:10:00 30.7 C 47 % 18.09 C
1012 24-07-2019 12:15:00 31.2 C 44 % 17.49 C
1013 24-07-2019 12:20:00 31.7 C 42 % 17.21 C
1014 24-07-2019 12:25:00 32.1 C 43 % 17.94 C
1015 24-07-2019 12:30:00 32.4 C 38 % 16.25 C
1016 24-07-2019 12:35:00 32.8 C 37 % 16.19 C
1017 24-07-2019 12:40:00 33 C 37 % 16.36 C
1018 24-07-2019 12:45:00 33.3 C 38 % 17.05 C
1019 24-07-2019 12:50:00 33.5 C 37 % 16.81 C
1020 24-07-2019 12:55:00 33.7 C 36 % 16.55 C
1021 24-07-2019 13:00:00 33.8 C 34 % 15.74 C
1022 24-07-2019 13:05:00 33.9 C 31 % 14.39 C
1023 24-07-2019 13:10:00 33.9 C 30 % 13.89 C
1024 24-07-2019 13:15:00 33.9 C 31 % 14.39 C
1025 24-07-2019 13:20:00 34 C 30 % 13.97 C
Sensor: Nr:Datum:Temp:Feuchte:Taupunkt:
Aussen-T/F 1026 24-07-2019 13:25:00 34.1 C 29 % 13.54 C
1027 24-07-2019 13:30:00 34.2 C 28 % 13.08 C
1028 24-07-2019 13:35:00 34.3 C 29 % 13.71 C
1029 24-07-2019 13:40:00 34.3 C 27 % 12.61 C
1030 24-07-2019 13:45:00 34.4 C 27 % 12.7 C
1031 24-07-2019 13:50:00 34.6 C 27 % 12.87 C
1032 24-07-2019 13:55:00 34.7 C 26 % 12.38 C
1033 24-07-2019 14:00:00 34.8 C 27 % 13.04 C
1034 24-07-2019 14:05:00 34.8 C 26 % 12.46 C
1035 24-07-2019 14:10:00 34.9 C 27 % 13.12 C
1036 24-07-2019 14:15:00 35 C 27 % 13.21 C
1037 24-07-2019 14:20:00 35.1 C 26 % 12.71 C
1038 24-07-2019 14:25:00 35.3 C 27 % 13.46 C
1039 24-07-2019 14:30:00 35.3 C 26 % 12.88 C
1040 24-07-2019 14:35:00 35.5 C 26 % 13.05 C
1041 24-07-2019 14:40:00 35.6 C 28 % 14.27 C
1042 24-07-2019 14:45:00 35.8 C 27 % 13.88 C
1043 24-07-2019 14:50:00 35.8 C 27 % 13.88 C
1044 24-07-2019 14:55:00 35.9 C 28 % 14.53 C
1045 24-07-2019 15:00:00 35.9 C 28 % 14.53 C
1046 24-07-2019 15:05:00 36.1 C 30 % 15.77 C
1047 24-07-2019 15:10:00 36.2 C 28 % 14.78 C
1048 24-07-2019 15:15:00 36.3 C 27 % 14.31 C
1049 24-07-2019 15:20:00 36.3 C 26 % 13.72 C
1050 24-07-2019 15:25:00 36.4 C 25 % 13.21 C
Sensor: Nr:Datum:Temp:Feuchte:Taupunkt:
Aussen-T/F 1051 24-07-2019 15:30:00 36.8 C 25 % 13.54 C
1052 24-07-2019 15:35:00 37.2 C 23 % 12.6 C
1053 24-07-2019 15:40:00 37.4 C 24 % 13.42 C
1054 24-07-2019 15:45:00 37.9 C 26 % 15.07 C
1055 24-07-2019 15:50:00 38.4 C 25 % 14.88 C
1056 24-07-2019 15:55:00 38.8 C 25 % 15.22 C
1057 24-07-2019 16:00:00 39.2 C 23 % 14.26 C
1058 24-07-2019 16:05:00 39.3 C 22 % 13.65 C
1059 24-07-2019 16:10:00 39.4 C 23 % 14.42 C
1060 24-07-2019 16:15:00 39.4 C 25 % 15.72 C
1061 24-07-2019 16:20:00 39.5 C 25 % 15.8 C
1062 24-07-2019 16:25:00 39.7 C 24 % 15.33 C
1063 24-07-2019 16:30:00 39.8 C 22 % 14.06 C
1064 24-07-2019 16:35:00 39.7 C 22 % 13.98 C
1065 24-07-2019 16:40:00 39.6 C 22 % 13.9 C
1066 24-07-2019 16:45:00 39.7 C 23 % 14.67 C
1067 24-07-2019 16:50:00 39.9 C 22 % 14.15 C
1068 24-07-2019 16:55:00 39.9 C 24 % 15.5 C
1069 24-07-2019 17:00:00 39.9 C 23 % 14.83 C
1070 24-07-2019 17:05:00 40.1 C 27 % 17.52 C
1071 24-07-2019 17:10:00 39.9 C 21 % 13.43 C
1072 24-07-2019 17:15:00 39.9 C 23 % 14.83 C
1073 24-07-2019 17:20:00 40 C 22 % 14.23 C
1074 24-07-2019 17:25:00 39.9 C 22 % 14.15 C
1075 24-07-2019 17:30:00 39.8 C 22 % 14.06 C
Sensor: Nr:Datum:Temp:Feuchte:Taupunkt:
Aussen-T/F 1076 24-07-2019 17:35:00 39.5 C 23 % 14.5 C
1077 24-07-2019 17:40:00 39.3 C 22 % 13.65 C
1078 24-07-2019 17:45:00 39 C 23 % 14.09 C
1079 24-07-2019 17:50:00 38.9 C 23 % 14.01 C
1080 24-07-2019 17:55:00 39.1 C 24 % 14.83 C
1081 24-07-2019 18:00:00 39.4 C 23 % 14.42 C
1082 24-07-2019 18:05:00 39.6 C 24 % 15.25 C
1083 24-07-2019 18:10:00 39.8 C 22 % 14.06 C
1084 24-07-2019 18:15:00 39.8 C 22 % 14.06 C
1085 24-07-2019 18:20:00 39.4 C 22 % 13.74 C
1086 24-07-2019 18:25:00 39.2 C 23 % 14.26 C
1087 24-07-2019 18:30:00 39.2 C 22 % 13.57 C
1088 24-07-2019 18:35:00 39.2 C 23 % 14.26 C
1089 24-07-2019 18:40:00 39.1 C 23 % 14.17 C
1090 24-07-2019 18:45:00 39.1 C 22 % 13.49 C
1091 24-07-2019 18:50:00 39.1 C 23 % 14.17 C
1092 24-07-2019 18:55:00 38.9 C 23 % 14.01 C
1093 24-07-2019 19:00:00 38.8 C 22 % 13.24 C
1094 24-07-2019 19:05:00 38.7 C 23 % 13.84 C
1095 24-07-2019 19:10:00 38.6 C 27 % 16.25 C
1096 24-07-2019 19:15:00 38.7 C 26 % 15.74 C
1097 24-07-2019 19:20:00 38.8 C 23 % 13.92 C
1098 24-07-2019 19:25:00 38.8 C 28 % 16.99 C
1099 24-07-2019 19:30:00 38.7 C 29 % 17.46 C
1100 24-07-2019 19:35:00 38.7 C 30 % 18 C
Sensor: Nr:Datum:Temp:Feuchte:Taupunkt:
Aussen-T/F 1101 24-07-2019 19:40:00 38.4 C 31 % 18.26 C
1102 24-07-2019 19:45:00 38.2 C 30 % 17.57 C
1103 24-07-2019 19:50:00 37.9 C 31 % 17.83 C
1104 24-07-2019 19:55:00 37.6 C 31 % 17.58 C
1105 24-07-2019 20:00:00 37.1 C 34 % 18.61 C
1106 24-07-2019 20:05:00 36.4 C 33 % 17.53 C
1107 24-07-2019 20:10:00 35.6 C 34 % 17.31 C
1108 24-07-2019 20:15:00 34.8 C 35 % 17.07 C
1109 24-07-2019 20:20:00 33.9 C 38 % 17.58 C
1110 24-07-2019 20:25:00 33.1 C 40 % 17.68 C
1111 24-07-2019 20:30:00 32.4 C 42 % 17.83 C
1112 24-07-2019 20:35:00 31.7 C 44 % 17.94 C
1113 24-07-2019 20:40:00 31.2 C 44 % 17.49 C
1114 24-07-2019 20:45:00 30.8 C 45 % 17.49 C
1115 24-07-2019 20:50:00 30.4 C 45 % 17.13 C
1116 24-07-2019 20:55:00 30.2 C 46 % 17.3 C
1117 24-07-2019 21:00:00 29.9 C 47 % 17.36 C
1118 24-07-2019 21:05:00 29.7 C 47 % 17.18 C
1119 24-07-2019 21:10:00 29.4 C 48 % 17.24 C
1120 24-07-2019 21:15:00 29.2 C 48 % 17.06 C
1121 24-07-2019 21:20:00 29 C 49 % 17.2 C
1122 24-07-2019 21:25:00 28.8 C 49 % 17.02 C
1123 24-07-2019 21:30:00 28.7 C 49 % 16.93 C
1124 24-07-2019 21:35:00 28.5 C 50 % 17.06 C
1125 24-07-2019 21:40:00 28.3 C 49 % 16.56 C
Sensor: Nr:Datum:Temp:Feuchte:Taupunkt:
Aussen-T/F 1126 24-07-2019 21:45:00 28.2 C 50 % 16.79 C
1127 24-07-2019 21:50:00 28.1 C 50 % 16.7 C
1128 24-07-2019 21:55:00 28.1 C 50 % 16.7 C
1129 24-07-2019 22:00:00 27.9 C 50 % 16.51 C
1130 24-07-2019 22:05:00 27.8 C 51 % 16.73 C
1131 24-07-2019 22:10:00 27.8 C 51 % 16.73 C
1132 24-07-2019 22:15:00 27.7 C 51 % 16.64 C
1133 24-07-2019 22:20:00 27.6 C 51 % 16.55 C
1134 24-07-2019 22:25:00 27.4 C 52 % 16.67 C
1135 24-07-2019 22:30:00 27.3 C 52 % 16.58 C
1136 24-07-2019 22:35:00 27.2 C 53 % 16.79 C
1137 24-07-2019 22:40:00 27.1 C 53 % 16.7 C
1138 24-07-2019 22:45:00 27 C 53 % 16.6 C
1139 24-07-2019 22:50:00 26.9 C 53 % 16.51 C
1140 24-07-2019 22:55:00 26.8 C 54 % 16.71 C
1141 24-07-2019 23:00:00 26.8 C 54 % 16.71 C
1142 24-07-2019 23:05:00 26.6 C 55 % 16.82 C
1143 24-07-2019 23:10:00 26.4 C 56 % 16.92 C
1144 24-07-2019 23:15:00 26.2 C 57 % 17.01 C
1145 24-07-2019 23:20:00 25.9 C 58 % 17 C
1146 24-07-2019 23:25:00 25.7 C 58 % 16.82 C
1147 24-07-2019 23:30:00 25.4 C 58 % 16.54 C
1148 24-07-2019 23:35:00 25.2 C 58 % 16.35 C
1149 24-07-2019 23:40:00 25 C 60 % 16.7 C
1150 24-07-2019 23:45:00 24.8 C 61 % 16.77 C
Sensor: Nr:Datum:Temp:Feuchte:Taupunkt:
Aussen-T/F 1151 24-07-2019 23:50:00 24.6 C 62 % 16.84 C
1152 24-07-2019 23:55:00 24.4 C 63 % 16.9 C
1153 25-07-2019 00:00:00 24.3 C 62 % 16.55 C
1154 25-07-2019 00:05:00 24 C 61 % 16.02 C
1155 25-07-2019 00:10:00 23.9 C 63 % 16.43 C
1156 25-07-2019 00:15:00 23.9 C 63 % 16.43 C
1157 25-07-2019 00:20:00 23.8 C 63 % 16.33 C
1158 25-07-2019 00:25:00 23.7 C 62 % 15.99 C
1159 25-07-2019 00:30:00 23.6 C 62 % 15.89 C
1160 25-07-2019 00:35:00 23.6 C 64 % 16.39 C
1161 25-07-2019 00:40:00 23.4 C 64 % 16.2 C
1162 25-07-2019 00:45:00 23.3 C 63 % 15.86 C
1163 25-07-2019 00:50:00 23.4 C 64 % 16.2 C
1164 25-07-2019 00:55:00 23.3 C 66 % 16.59 C
1165 25-07-2019 01:00:00 23.2 C 65 % 16.26 C
1166 25-07-2019 01:05:00 23.1 C 65 % 16.16 C
1167 25-07-2019 01:10:00 22.9 C 66 % 16.21 C
1168 25-07-2019 01:15:00 22.7 C 66 % 16.02 C
1169 25-07-2019 01:20:00 22.6 C 67 % 16.16 C
1170 25-07-2019 01:25:00 22.4 C 66 % 15.74 C
1171 25-07-2019 01:30:00 22.3 C 67 % 15.88 C
1172 25-07-2019 01:35:00 22.3 C 65 % 15.4 C
1173 25-07-2019 01:40:00 22.3 C 68 % 16.11 C
1174 25-07-2019 01:45:00 22.3 C 68 % 16.11 C
1175 25-07-2019 01:50:00 22.2 C 68 % 16.01 C
Sensor: Nr:Datum:Temp:Feuchte:Taupunkt:
Aussen-T/F 1176 25-07-2019 01:55:00 22.1 C 68 % 15.92 C
1177 25-07-2019 02:00:00 22 C 69 % 16.05 C
1178 25-07-2019 02:05:00 21.9 C 70 % 16.18 C
1179 25-07-2019 02:10:00 21.8 C 70 % 16.09 C
1180 25-07-2019 02:15:00 21.7 C 70 % 15.99 C
1181 25-07-2019 02:20:00 21.7 C 70 % 15.99 C
1182 25-07-2019 02:25:00 21.7 C 71 % 16.21 C
1183 25-07-2019 02:30:00 21.6 C 70 % 15.89 C
1184 25-07-2019 02:35:00 21.5 C 70 % 15.8 C
1185 25-07-2019 02:40:00 21.4 C 71 % 15.93 C
1186 25-07-2019 02:45:00 21.4 C 71 % 15.93 C
1187 25-07-2019 02:50:00 21.3 C 72 % 16.05 C
1188 25-07-2019 02:55:00 21.2 C 72 % 15.95 C
1189 25-07-2019 03:00:00 21.2 C 72 % 15.95 C
1190 25-07-2019 03:05:00 21.2 C 73 % 16.17 C
1191 25-07-2019 03:10:00 21.2 C 73 % 16.17 C
1192 25-07-2019 03:15:00 21.1 C 73 % 16.07 C
1193 25-07-2019 03:20:00 20.9 C 74 % 16.09 C
1194 25-07-2019 03:25:00 20.8 C 74 % 16 C
1195 25-07-2019 03:30:00 20.8 C 74 % 16 C
1196 25-07-2019 03:35:00 20.8 C 74 % 16 C
1197 25-07-2019 03:40:00 20.8 C 74 % 16 C
1198 25-07-2019 03:45:00 20.7 C 75 % 16.11 C
1199 25-07-2019 03:50:00 20.6 C 75 % 16.01 C
1200 25-07-2019 03:55:00 20.6 C 76 % 16.22 C
Sensor: Nr:Datum:Temp:Feuchte:Taupunkt:
Aussen-T/F 1201 25-07-2019 04:00:00 20.4 C 76 % 16.03 C
1202 25-07-2019 04:05:00 20.3 C 76 % 15.93 C
1203 25-07-2019 04:10:00 20.2 C 77 % 16.04 C
1204 25-07-2019 04:15:00 20.1 C 77 % 15.94 C
1205 25-07-2019 04:20:00 19.9 C 78 % 15.95 C
1206 25-07-2019 04:25:00 20.1 C 78 % 16.14 C
1207 25-07-2019 04:30:00 20.1 C 78 % 16.14 C
1208 25-07-2019 04:35:00 20.1 C 78 % 16.14 C
1209 25-07-2019 04:40:00 20.1 C 78 % 16.14 C
1210 25-07-2019 04:45:00 19.9 C 79 % 16.15 C
1211 25-07-2019 04:50:00 19.9 C 79 % 16.15 C
1212 25-07-2019 04:55:00 19.8 C 79 % 16.05 C
1213 25-07-2019 05:00:00 19.7 C 79 % 15.96 C
1214 25-07-2019 05:05:00 19.6 C 79 % 15.86 C
1215 25-07-2019 05:10:00 19.6 C 80 % 16.06 C
1216 25-07-2019 05:15:00 19.4 C 80 % 15.86 C
1217 25-07-2019 05:20:00 19.4 C 80 % 15.86 C
1218 25-07-2019 05:25:00 19.3 C 80 % 15.76 C
1219 25-07-2019 05:30:00 19.3 C 80 % 15.76 C
1220 25-07-2019 05:35:00 19.3 C 80 % 15.76 C
1221 25-07-2019 05:40:00 19.2 C 80 % 15.67 C
1222 25-07-2019 05:45:00 19.2 C 80 % 15.67 C
1223 25-07-2019 05:50:00 19.2 C 81 % 15.86 C
1224 25-07-2019 05:55:00 19.1 C 81 % 15.76 C
1225 25-07-2019 06:00:00 19.1 C 82 % 15.96 C
Sensor: Nr:Datum:Temp:Feuchte:Taupunkt:
Aussen-T/F 1226 25-07-2019 06:05:00 19.1 C 82 % 15.96 C
1227 25-07-2019 06:10:00 19.1 C 82 % 15.96 C
1228 25-07-2019 06:15:00 19.2 C 82 % 16.05 C
1229 25-07-2019 06:20:00 19.2 C 82 % 16.05 C
1230 25-07-2019 06:25:00 19.1 C 82 % 15.96 C
1231 25-07-2019 06:30:00 19.2 C 82 % 16.05 C
1232 25-07-2019 06:35:00 19.2 C 82 % 16.05 C
1233 25-07-2019 06:40:00 19.2 C 82 % 16.05 C
1234 25-07-2019 06:45:00 19.3 C 83 % 16.34 C
1235 25-07-2019 06:50:00 19.3 C 83 % 16.34 C
1236 25-07-2019 06:55:00 19.3 C 83 % 16.34 C
1237 25-07-2019 07:00:00 19.3 C 83 % 16.34 C
1238 25-07-2019 07:05:00 19.3 C 83 % 16.34 C
1239 25-07-2019 07:10:00 19.4 C 84 % 16.63 C
1240 25-07-2019 07:15:00 19.4 C 84 % 16.63 C
1241 25-07-2019 07:20:00 19.4 C 84 % 16.63 C
1242 25-07-2019 07:25:00 19.5 C 84 % 16.72 C
1243 25-07-2019 07:30:00 19.6 C 84 % 16.82 C
1244 25-07-2019 07:35:00 19.6 C 84 % 16.82 C
1245 25-07-2019 07:40:00 19.7 C 84 % 16.92 C
1246 25-07-2019 07:45:00 19.8 C 84 % 17.02 C
1247 25-07-2019 07:50:00 19.8 C 84 % 17.02 C
1248 25-07-2019 07:55:00 19.9 C 84 % 17.12 C
1249 25-07-2019 08:00:00 20 C 83 % 17.02 C
1250 25-07-2019 08:05:00 20.1 C 84 % 17.31 C
Sensor: Nr:Datum:Temp:Feuchte:Taupunkt:
Aussen-T/F 1251 25-07-2019 08:10:00 20.2 C 83 % 17.22 C
1252 25-07-2019 08:15:00 20.3 C 82 % 17.13 C
1253 25-07-2019 08:20:00 20.5 C 83 % 17.51 C
1254 25-07-2019 08:25:00 20.7 C 83 % 17.71 C
1255 25-07-2019 08:30:00 20.8 C 83 % 17.81 C
1256 25-07-2019 08:35:00 20.9 C 82 % 17.71 C
1257 25-07-2019 08:40:00 21.1 C 83 % 18.1 C
1258 25-07-2019 08:45:00 21.2 C 83 % 18.2 C
1259 25-07-2019 08:50:00 21.4 C 82 % 18.2 C
1260 25-07-2019 08:55:00 21.6 C 82 % 18.39 C
1261 25-07-2019 09:00:00 21.7 C 81 % 18.3 C
1262 25-07-2019 09:05:00 21.8 C 79 % 18 C
1263 25-07-2019 09:10:00 22.1 C 81 % 18.69 C
1264 25-07-2019 09:15:00 22.2 C 81 % 18.78 C
1265 25-07-2019 09:20:00 22.3 C 78 % 18.28 C
1266 25-07-2019 09:25:00 22.6 C 78 % 18.57 C
1267 25-07-2019 09:30:00 22.8 C 77 % 18.56 C
1268 25-07-2019 09:35:00 23.1 C 77 % 18.85 C
1269 25-07-2019 09:40:00 23.3 C 75 % 18.62 C
1270 25-07-2019 09:45:00 23.5 C 74 % 18.6 C
1271 25-07-2019 09:50:00 23.7 C 72 % 18.35 C
1272 25-07-2019 09:55:00 24 C 70 % 18.19 C
1273 25-07-2019 10:00:00 24.3 C 70 % 18.48 C
1274 25-07-2019 10:05:00 24.6 C 71 % 18.99 C
1275 25-07-2019 10:10:00 24.9 C 70 % 19.05 C
Sensor: Nr:Datum:Temp:Feuchte:Taupunkt:
Aussen-T/F 1276 25-07-2019 10:15:00 25.1 C 69 % 19.01 C
1277 25-07-2019 10:20:00 25.3 C 68 % 18.97 C
1278 25-07-2019 10:25:00 25.6 C 69 % 19.49 C
1279 25-07-2019 10:30:00 25.9 C 67 % 19.3 C
1280 25-07-2019 10:35:00 26.2 C 65 % 19.1 C
1281 25-07-2019 10:40:00 26.6 C 63 % 18.97 C
1282 25-07-2019 10:45:00 26.9 C 62 % 19 C
1283 25-07-2019 10:50:00 27.2 C 63 % 19.54 C
1284 25-07-2019 10:55:00 27.5 C 63 % 19.82 C
1285 25-07-2019 11:00:00 27.8 C 61 % 19.59 C
1286 25-07-2019 11:05:00 28.2 C 60 % 19.69 C
1287 25-07-2019 11:10:00 28.6 C 56 % 18.96 C
1288 25-07-2019 11:15:00 29.1 C 58 % 19.99 C
1289 25-07-2019 11:20:00 29.4 C 54 % 19.12 C
1290 25-07-2019 11:25:00 29.8 C 55 % 19.78 C
1291 25-07-2019 11:30:00 30.1 C 54 % 19.76 C
1292 25-07-2019 11:35:00 30.5 C 53 % 19.83 C
1293 25-07-2019 11:40:00 30.8 C 50 % 19.17 C
1294 25-07-2019 11:45:00 31.2 C 48 % 18.88 C
1295 25-07-2019 11:50:00 31.6 C 47 % 18.91 C
1296 25-07-2019 11:55:00 32.1 C 44 % 18.3 C
1297 25-07-2019 12:00:00 32.6 C 41 % 17.63 C
1298 25-07-2019 12:05:00 33 C 40 % 17.59 C
1299 25-07-2019 12:10:00 33.4 C 38 % 17.14 C
1300 25-07-2019 12:15:00 33.8 C 38 % 17.49 C
Sensor: Nr:Datum:Temp:Feuchte:Taupunkt:
Aussen-T/F 1301 25-07-2019 12:20:00 34.3 C 35 % 16.63 C
1302 25-07-2019 12:25:00 34.7 C 35 % 16.98 C
1303 25-07-2019 12:30:00 34.9 C 35 % 17.16 C
1304 25-07-2019 12:35:00 35.2 C 33 % 16.49 C
1305 25-07-2019 12:40:00 35.3 C 33 % 16.58 C
1306 25-07-2019 12:45:00 35.5 C 33 % 16.75 C
1307 25-07-2019 12:50:00 35.7 C 33 % 16.92 C
1308 25-07-2019 12:55:00 35.9 C 31 % 16.11 C
1309 25-07-2019 13:00:00 36 C 32 % 16.7 C
1310 25-07-2019 13:05:00 36.1 C 32 % 16.79 C
1311 25-07-2019 13:10:00 36.2 C 32 % 16.87 C
1312 25-07-2019 13:15:00 36.3 C 32 % 16.96 C
1313 25-07-2019 13:20:00 36.3 C 30 % 15.94 C
1314 25-07-2019 13:25:00 36.4 C 31 % 16.54 C
1315 25-07-2019 13:30:00 36.4 C 31 % 16.54 C
1316 25-07-2019 13:35:00 36.6 C 31 % 16.72 C
1317 25-07-2019 13:40:00 36.7 C 31 % 16.8 C
1318 25-07-2019 13:45:00 36.8 C 30 % 16.37 C
1319 25-07-2019 13:50:00 36.9 C 31 % 16.97 C
1320 25-07-2019 13:55:00 36.9 C 29 % 15.93 C
1321 25-07-2019 14:00:00 36.9 C 30 % 16.46 C
1322 25-07-2019 14:05:00 37.1 C 30 % 16.63 C
1323 25-07-2019 14:10:00 37.2 C 29 % 16.18 C
1324 25-07-2019 14:15:00 37.3 C 30 % 16.8 C
1325 25-07-2019 14:20:00 37.4 C 29 % 16.35 C
Sensor: Nr:Datum:Temp:Feuchte:Taupunkt:
Aussen-T/F 1326 25-07-2019 14:25:00 37.4 C 27 % 15.24 C
1327 25-07-2019 14:30:00 37.4 C 30 % 16.89 C
1328 25-07-2019 14:35:00 37.6 C 28 % 15.97 C
1329 25-07-2019 14:40:00 37.6 C 29 % 16.52 C
1330 25-07-2019 14:45:00 37.7 C 27 % 15.49 C
1331 25-07-2019 14:50:00 37.7 C 29 % 16.61 C
1332 25-07-2019 14:55:00 37.8 C 28 % 16.14 C
1333 25-07-2019 15:00:00 37.9 C 28 % 16.23 C
1334 25-07-2019 15:05:00 38.2 C 28 % 16.48 C
1335 25-07-2019 15:10:00 38.3 C 28 % 16.57 C
1336 25-07-2019 15:15:00 38.5 C 27 % 16.16 C
1337 25-07-2019 15:20:00 38.7 C 26 % 15.74 C
1338 25-07-2019 15:25:00 38.8 C 26 % 15.83 C
1339 25-07-2019 15:30:00 38.9 C 26 % 15.91 C
1340 25-07-2019 15:35:00 38.7 C 26 % 15.74 C
1341 25-07-2019 15:40:00 38.8 C 26 % 15.83 C
1342 25-07-2019 15:45:00 39.2 C 25 % 15.55 C
1343 25-07-2019 15:50:00 39.6 C 26 % 16.5 C
1344 25-07-2019 15:55:00 39.9 C 24 % 15.5 C
1345 25-07-2019 16:00:00 40.1 C 23 % 15 C
1346 25-07-2019 16:05:00 40.2 C 24 % 15.75 C
1347 25-07-2019 16:10:00 40.2 C 25 % 16.39 C
1348 25-07-2019 16:15:00 40.3 C 23 % 15.17 C
1349 25-07-2019 16:20:00 40.4 C 24 % 15.91 C
1350 25-07-2019 16:25:00 40.4 C 25 % 16.55 C
Sensor: Nr:Datum:Temp:Feuchte:Taupunkt:
Aussen-T/F 1351 25-07-2019 16:30:00 40.4 C 23 % 15.25 C
1352 25-07-2019 16:35:00 40.3 C 23 % 15.17 C
1353 25-07-2019 16:40:00 40 C 23 % 14.92 C
1354 25-07-2019 16:45:00 39.9 C 23 % 14.83 C
1355 25-07-2019 16:50:00 39.9 C 25 % 16.13 C
1356 25-07-2019 16:55:00 39.7 C 23 % 14.67 C
1357 25-07-2019 17:00:00 39.8 C 24 % 15.41 C
1358 25-07-2019 17:05:00 39.9 C 24 % 15.5 C
1359 25-07-2019 17:10:00 40.3 C 23 % 15.17 C
1360 25-07-2019 17:15:00 40.3 C 22 % 14.48 C
1361 25-07-2019 17:20:00 40.1 C 22 % 14.31 C
1362 25-07-2019 17:25:00 39.9 C 22 % 14.15 C
1363 25-07-2019 17:30:00 39.6 C 22 % 13.9 C
1364 25-07-2019 17:35:00 39.5 C 22 % 13.82 C
1365 25-07-2019 17:40:00 39.5 C 22 % 13.82 C
1366 25-07-2019 17:45:00 39.5 C 22 % 13.82 C
1367 25-07-2019 17:50:00 39.6 C 23 % 14.59 C
1368 25-07-2019 17:55:00 39.7 C 23 % 14.67 C
1369 25-07-2019 18:00:00 39.6 C 23 % 14.59 C
1370 25-07-2019 18:05:00 39.4 C 23 % 14.42 C
1371 25-07-2019 18:10:00 39.4 C 22 % 13.74 C
1372 25-07-2019 18:15:00 39.4 C 23 % 14.42 C
1373 25-07-2019 18:20:00 39.3 C 22 % 13.65 C
1374 25-07-2019 18:25:00 39.3 C 23 % 14.34 C
1375 25-07-2019 18:30:00 39.2 C 23 % 14.26 C
Sensor: Nr:Datum:Temp:Feuchte:Taupunkt:
Aussen-T/F 1376 25-07-2019 18:35:00 39.1 C 23 % 14.17 C
1377 25-07-2019 18:40:00 38.8 C 23 % 13.92 C
1378 25-07-2019 18:45:00 38.6 C 24 % 14.42 C
1379 25-07-2019 18:50:00 38.6 C 24 % 14.42 C
1380 25-07-2019 18:55:00 38.4 C 29 % 17.2 C
1381 25-07-2019 19:00:00 38.3 C 25 % 14.8 C
1382 25-07-2019 19:05:00 38.2 C 31 % 18.09 C
1383 25-07-2019 19:10:00 38 C 28 % 16.31 C
1384 25-07-2019 19:15:00 37.8 C 33 % 18.74 C
1385 25-07-2019 19:20:00 37.4 C 32 % 17.91 C
1386 25-07-2019 19:25:00 37 C 33 % 18.05 C
1387 25-07-2019 19:30:00 36.6 C 33 % 17.7 C
1388 25-07-2019 19:35:00 36.2 C 35 % 18.29 C
1389 25-07-2019 19:40:00 35.7 C 36 % 18.3 C
1390 25-07-2019 19:45:00 35.3 C 39 % 19.23 C
1391 25-07-2019 19:50:00 34.9 C 38 % 18.46 C
1392 25-07-2019 19:55:00 34.6 C 38 % 18.2 C
1393 25-07-2019 20:00:00 34.3 C 41 % 19.15 C
1394 25-07-2019 20:05:00 33.9 C 41 % 18.79 C
1395 25-07-2019 20:10:00 33.7 C 40 % 18.22 C
1396 25-07-2019 20:15:00 33.4 C 40 % 17.95 C
1397 25-07-2019 20:20:00 33.2 C 42 % 18.55 C
1398 25-07-2019 20:25:00 32.9 C 41 % 17.9 C
1399 25-07-2019 20:30:00 32.7 C 42 % 18.1 C
1400 25-07-2019 20:35:00 32.4 C 42 % 17.83 C
Sensor: Nr:Datum:Temp:Feuchte:Taupunkt:
Aussen-T/F 1401 25-07-2019 20:40:00 32.2 C 43 % 18.03 C
1402 25-07-2019 20:45:00 31.9 C 43 % 17.76 C
1403 25-07-2019 20:50:00 31.7 C 44 % 17.94 C
1404 25-07-2019 20:55:00 31.5 C 43 % 17.4 C
1405 25-07-2019 21:00:00 31.3 C 44 % 17.58 C
1406 25-07-2019 21:05:00 31.1 C 44 % 17.4 C
1407 25-07-2019 21:10:00 30.9 C 45 % 17.58 C
1408 25-07-2019 21:15:00 30.7 C 44 % 17.04 C
1409 25-07-2019 21:20:00 30.5 C 44 % 16.86 C
1410 25-07-2019 21:25:00 30.3 C 45 % 17.04 C
1411 25-07-2019 21:30:00 30.2 C 45 % 16.95 C
1412 25-07-2019 21:35:00 30.1 C 45 % 16.86 C
1413 25-07-2019 21:40:00 29.9 C 45 % 16.68 C
1414 25-07-2019 21:45:00 29.8 C 45 % 16.59 C
1415 25-07-2019 21:50:00 29.7 C 45 % 16.5 C
1416 25-07-2019 21:55:00 29.6 C 45 % 16.41 C
1417 25-07-2019 22:00:00 29.4 C 45 % 16.23 C
1418 25-07-2019 22:05:00 29.3 C 46 % 16.48 C
1419 25-07-2019 22:10:00 29.2 C 46 % 16.39 C
1420 25-07-2019 22:15:00 29.1 C 47 % 16.64 C
1421 25-07-2019 22:20:00 28.9 C 46 % 16.12 C
1422 25-07-2019 22:25:00 28.8 C 48 % 16.69 C
1423 25-07-2019 22:30:00 28.7 C 48 % 16.6 C
1424 25-07-2019 22:35:00 28.5 C 48 % 16.42 C
1425 25-07-2019 22:40:00 28.4 C 48 % 16.33 C
Sensor: Nr:Datum:Temp:Feuchte:Taupunkt:
Aussen-T/F 1426 25-07-2019 22:45:00 28.3 C 48 % 16.24 C
1427 25-07-2019 22:50:00 28.3 C 49 % 16.56 C
1428 25-07-2019 22:55:00 28.2 C 48 % 16.15 C
1429 25-07-2019 23:00:00 28.1 C 49 % 16.38 C
1430 25-07-2019 23:05:00 28 C 48 % 15.97 C
1431 25-07-2019 23:10:00 27.9 C 49 % 16.2 C
1432 25-07-2019 23:15:00 27.8 C 48 % 15.78 C
1433 25-07-2019 23:20:00 27.8 C 49 % 16.11 C
1434 25-07-2019 23:25:00 27.7 C 50 % 16.33 C
1435 25-07-2019 23:30:00 27.6 C 49 % 15.92 C
1436 25-07-2019 23:35:00 27.4 C 50 % 16.06 C
1437 25-07-2019 23:40:00 27.3 C 50 % 15.97 C
1438 25-07-2019 23:45:00 27.2 C 50 % 15.87 C
1439 25-07-2019 23:50:00 27.1 C 51 % 16.09 C
1440 25-07-2019 23:55:00 26.9 C 53 % 16.51 C
1441 26-07-2019 00:00:00 26.8 C 53 % 16.42 C
1442 26-07-2019 00:05:00 26.7 C 53 % 16.33 C
1443 26-07-2019 00:10:00 26.5 C 52 % 15.84 C
1444 26-07-2019 00:15:00 26.4 C 53 % 16.05 C
1445 26-07-2019 00:20:00 26.3 C 53 % 15.96 C
1446 26-07-2019 00:25:00 26.2 C 54 % 16.16 C
1447 26-07-2019 00:30:00 26.1 C 54 % 16.07 C
1448 26-07-2019 00:35:00 26 C 53 % 15.68 C
1449 26-07-2019 00:40:00 25.9 C 54 % 15.88 C
1450 26-07-2019 00:45:00 25.9 C 54 % 15.88 C
Sensor: Nr:Datum:Temp:Feuchte:Taupunkt:
Aussen-T/F 1451 26-07-2019 00:50:00 25.8 C 54 % 15.79 C
1452 26-07-2019 00:55:00 25.7 C 54 % 15.7 C
1453 26-07-2019 01:00:00 25.6 C 54 % 15.6 C
1454 26-07-2019 01:05:00 25.5 C 55 % 15.8 C
1455 26-07-2019 01:10:00 25.4 C 54 % 15.42 C
1456 26-07-2019 01:15:00 25.3 C 56 % 15.89 C
1457 26-07-2019 01:20:00 25.2 C 56 % 15.8 C
1458 26-07-2019 01:25:00 25.2 C 57 % 16.08 C
1459 26-07-2019 01:30:00 25.1 C 56 % 15.71 C
1460 26-07-2019 01:35:00 24.9 C 58 % 16.07 C
1461 26-07-2019 01:40:00 24.8 C 59 % 16.24 C
1462 26-07-2019 01:45:00 24.6 C 60 % 16.32 C
1463 26-07-2019 01:50:00 24.3 C 60 % 16.04 C
1464 26-07-2019 01:55:00 24.1 C 60 % 15.85 C
1465 26-07-2019 02:00:00 23.8 C 62 % 16.08 C
1466 26-07-2019 02:05:00 23.6 C 64 % 16.39 C
1467 26-07-2019 02:10:00 23.3 C 65 % 16.35 C
1468 26-07-2019 02:15:00 23 C 66 % 16.31 C
1469 26-07-2019 02:20:00 22.8 C 67 % 16.35 C
1470 26-07-2019 02:25:00 22.6 C 68 % 16.39 C
1471 26-07-2019 02:30:00 22.3 C 69 % 16.34 C
1472 26-07-2019 02:35:00 22.2 C 69 % 16.24 C
1473 26-07-2019 02:40:00 21.9 C 69 % 15.96 C
1474 26-07-2019 02:45:00 21.7 C 68 % 15.54 C
1475 26-07-2019 02:50:00 21.6 C 69 % 15.67 C
Sensor: Nr:Datum:Temp:Feuchte:Taupunkt:
Aussen-T/F 1476 26-07-2019 02:55:00 21.4 C 68 % 15.25 C
1477 26-07-2019 03:00:00 21.3 C 70 % 15.61 C
1478 26-07-2019 03:05:00 21.2 C 71 % 15.73 C
1479 26-07-2019 03:10:00 21.2 C 71 % 15.73 C
1480 26-07-2019 03:15:00 21.1 C 70 % 15.42 C
1481 26-07-2019 03:20:00 21.1 C 71 % 15.64 C
1482 26-07-2019 03:25:00 21 C 71 % 15.54 C
1483 26-07-2019 03:30:00 21 C 72 % 15.76 C
1484 26-07-2019 03:35:00 20.9 C 72 % 15.66 C
1485 26-07-2019 03:40:00 20.8 C 72 % 15.57 C
1486 26-07-2019 03:45:00 20.8 C 72 % 15.57 C
1487 26-07-2019 03:50:00 20.8 C 74 % 16 C
1488 26-07-2019 03:55:00 20.7 C 74 % 15.9 C
1489 26-07-2019 04:00:00 20.7 C 74 % 15.9 C
1490 26-07-2019 04:05:00 20.6 C 75 % 16.01 C
1491 26-07-2019 04:10:00 20.4 C 75 % 15.82 C
1492 26-07-2019 04:15:00 20.3 C 75 % 15.72 C
1493 26-07-2019 04:20:00 20.3 C 76 % 15.93 C
1494 26-07-2019 04:25:00 20.2 C 77 % 16.04 C
1495 26-07-2019 04:30:00 20.1 C 77 % 15.94 C
1496 26-07-2019 04:35:00 19.9 C 77 % 15.75 C
1497 26-07-2019 04:40:00 19.9 C 78 % 15.95 C
1498 26-07-2019 04:45:00 19.8 C 78 % 15.85 C
1499 26-07-2019 04:50:00 19.7 C 78 % 15.76 C
1500 26-07-2019 04:55:00 19.6 C 79 % 15.86 C
Sensor: Nr:Datum:Temp:Feuchte:Taupunkt:
Aussen-T/F 1501 26-07-2019 05:00:00 19.6 C 79 % 15.86 C
1502 26-07-2019 05:05:00 19.5 C 78 % 15.56 C
1503 26-07-2019 05:10:00 19.4 C 78 % 15.47 C
1504 26-07-2019 05:15:00 19.3 C 78 % 15.37 C
1505 26-07-2019 05:20:00 19.3 C 79 % 15.57 C
1506 26-07-2019 05:25:00 19.3 C 78 % 15.37 C
1507 26-07-2019 05:30:00 19.3 C 80 % 15.76 C
1508 26-07-2019 05:35:00 19.3 C 80 % 15.76 C
1509 26-07-2019 05:40:00 19.2 C 80 % 15.67 C
1510 26-07-2019 05:45:00 19.2 C 80 % 15.67 C
1511 26-07-2019 05:50:00 19.1 C 79 % 15.37 C
1512 26-07-2019 05:55:00 19 C 79 % 15.28 C
1513 26-07-2019 06:00:00 18.9 C 80 % 15.38 C
1514 26-07-2019 06:05:00 19 C 79 % 15.28 C
1515 26-07-2019 06:10:00 19 C 79 % 15.28 C
1516 26-07-2019 06:15:00 18.9 C 80 % 15.38 C
1517 26-07-2019 06:20:00 18.9 C 80 % 15.38 C
1518 26-07-2019 06:25:00 18.9 C 80 % 15.38 C
1519 26-07-2019 06:30:00 18.9 C 80 % 15.38 C
1520 26-07-2019 06:35:00 18.9 C 81 % 15.57 C
1521 26-07-2019 06:40:00 18.9 C 81 % 15.57 C
1522 26-07-2019 06:45:00 19 C 81 % 15.67 C
1523 26-07-2019 06:50:00 19.1 C 81 % 15.76 C
1524 26-07-2019 06:55:00 19.1 C 82 % 15.96 C
1525 26-07-2019 07:00:00 19.2 C 83 % 16.24 C
Sensor: Nr:Datum:Temp:Feuchte:Taupunkt:
Aussen-T/F 1526 26-07-2019 07:05:00 19.3 C 83 % 16.34 C
1527 26-07-2019 07:10:00 19.3 C 83 % 16.34 C
1528 26-07-2019 07:15:00 19.4 C 83 % 16.44 C
1529 26-07-2019 07:20:00 19.4 C 82 % 16.25 C
1530 26-07-2019 07:25:00 19.5 C 83 % 16.54 C
1531 26-07-2019 07:30:00 19.6 C 83 % 16.63 C
1532 26-07-2019 07:35:00 19.7 C 83 % 16.73 C
1533 26-07-2019 07:40:00 19.8 C 83 % 16.83 C
1534 26-07-2019 07:45:00 19.9 C 82 % 16.74 C
1535 26-07-2019 07:50:00 20.1 C 81 % 16.74 C
1536 26-07-2019 07:55:00 20.2 C 81 % 16.84 C
1537 26-07-2019 08:00:00 20.4 C 81 % 17.03 C
1538 26-07-2019 08:05:00 20.5 C 82 % 17.32 C
1539 26-07-2019 08:10:00 20.6 C 81 % 17.22 C
1540 26-07-2019 08:15:00 20.7 C 82 % 17.52 C
1541 26-07-2019 08:20:00 20.8 C 81 % 17.42 C
1542 26-07-2019 08:25:00 20.9 C 80 % 17.32 C
1543 26-07-2019 08:30:00 21.1 C 79 % 17.32 C
1544 26-07-2019 08:35:00 21.3 C 79 % 17.51 C
1545 26-07-2019 08:40:00 21.5 C 78 % 17.5 C
1546 26-07-2019 08:45:00 21.7 C 79 % 17.9 C
1547 26-07-2019 08:50:00 21.9 C 80 % 18.29 C
1548 26-07-2019 08:55:00 21.9 C 78 % 17.89 C
1549 26-07-2019 09:00:00 22.1 C 76 % 17.67 C
1550 26-07-2019 09:05:00 22.3 C 76 % 17.86 C
Sensor: Nr:Datum:Temp:Feuchte:Taupunkt:
Aussen-T/F 1551 26-07-2019 09:10:00 22.4 C 74 % 17.54 C
1552 26-07-2019 09:15:00 22.7 C 73 % 17.61 C
1553 26-07-2019 09:20:00 22.9 C 74 % 18.02 C
1554 26-07-2019 09:25:00 23.1 C 70 % 17.33 C
1555 26-07-2019 09:30:00 23.4 C 70 % 17.62 C
1556 26-07-2019 09:35:00 23.7 C 67 % 17.21 C
1557 26-07-2019 09:40:00 24.2 C 67 % 17.68 C
1558 26-07-2019 09:45:00 24.6 C 66 % 17.83 C
1559 26-07-2019 09:50:00 25 C 58 % 16.16 C
1560 26-07-2019 09:55:00 25.7 C 60 % 17.35 C
1561 26-07-2019 10:00:00 25.9 C 60 % 17.54 C
1562 26-07-2019 10:05:00 26.3 C 58 % 17.38 C
1563 26-07-2019 10:10:00 26.4 C 57 % 17.19 C
1564 26-07-2019 10:15:00 26.8 C 55 % 17 C
1565 26-07-2019 10:20:00 27.2 C 54 % 17.08 C
1566 26-07-2019 10:25:00 27.6 C 48 % 15.6 C
1567 26-07-2019 10:30:00 28.4 C 46 % 15.66 C
1568 26-07-2019 10:35:00 29.1 C 46 % 16.3 C
1569 26-07-2019 10:40:00 29.6 C 44 % 16.05 C
1570 26-07-2019 10:45:00 30.1 C 43 % 16.14 C
1571 26-07-2019 10:50:00 30.5 C 42 % 16.13 C
1572 26-07-2019 10:55:00 30.8 C 41 % 16.02 C
1573 26-07-2019 11:00:00 31 C 39 % 15.42 C
1574 26-07-2019 11:05:00 31.2 C 39 % 15.6 C
1575 26-07-2019 11:10:00 31.4 C 41 % 16.56 C
Sensor: Nr:Datum:Temp:Feuchte:Taupunkt:
Aussen-T/F 1576 26-07-2019 11:15:00 31.5 C 40 % 16.26 C
1577 26-07-2019 11:20:00 31.7 C 39 % 16.04 C
1578 26-07-2019 11:25:00 31.9 C 40 % 16.62 C
1579 26-07-2019 11:30:00 32.1 C 38 % 15.99 C
1580 26-07-2019 11:35:00 32.3 C 40 % 16.97 C
1581 26-07-2019 11:40:00 32.6 C 39 % 16.84 C
1582 26-07-2019 11:45:00 32.8 C 37 % 16.19 C
1583 26-07-2019 11:50:00 32.9 C 37 % 16.28 C
1584 26-07-2019 11:55:00 33.2 C 37 % 16.54 C
1585 26-07-2019 12:00:00 33.4 C 36 % 16.29 C
1586 26-07-2019 12:05:00 33.6 C 35 % 16.02 C
1587 26-07-2019 12:10:00 33.7 C 37 % 16.98 C
1588 26-07-2019 12:15:00 33.8 C 35 % 16.19 C
1589 26-07-2019 12:20:00 34.1 C 35 % 16.46 C
1590 26-07-2019 12:25:00 34.2 C 36 % 16.99 C
1591 26-07-2019 12:30:00 34.3 C 34 % 16.18 C
1592 26-07-2019 12:35:00 34.5 C 34 % 16.35 C
1593 26-07-2019 12:40:00 34.8 C 34 % 16.61 C
1594 26-07-2019 12:45:00 35.1 C 33 % 16.4 C
1595 26-07-2019 12:50:00 35.3 C 33 % 16.58 C
1596 26-07-2019 12:55:00 35.4 C 32 % 16.18 C
1597 26-07-2019 13:00:00 35.5 C 32 % 16.27 C
1598 26-07-2019 13:05:00 35.6 C 31 % 15.86 C
1599 26-07-2019 13:10:00 35.7 C 31 % 15.94 C
1600 26-07-2019 13:15:00 35.7 C 32 % 16.44 C
Sensor: Nr:Datum:Temp:Feuchte:Taupunkt:
Aussen-T/F 1601 26-07-2019 13:20:00 35.8 C 32 % 16.53 C
1602 26-07-2019 13:25:00 35.8 C 31 % 16.03 C
1603 26-07-2019 13:30:00 35.9 C 30 % 15.6 C
1604 26-07-2019 13:35:00 36.1 C 31 % 16.29 C
1605 26-07-2019 13:40:00 36.2 C 31 % 16.37 C
1606 26-07-2019 13:45:00 36.4 C 31 % 16.54 C
1607 26-07-2019 13:50:00 36.6 C 30 % 16.2 C
1608 26-07-2019 13:55:00 36.8 C 29 % 15.84 C
1609 26-07-2019 14:00:00 36.9 C 29 % 15.93 C
1610 26-07-2019 14:05:00 36.9 C 28 % 15.38 C
1611 26-07-2019 14:10:00 36.8 C 28 % 15.29 C
1612 26-07-2019 14:15:00 36.9 C 28 % 15.38 C
1613 26-07-2019 14:20:00 37.1 C 29 % 16.1 C
1614 26-07-2019 14:25:00 37.4 C 27 % 15.24 C
1615 26-07-2019 14:30:00 37.6 C 26 % 14.82 C
1616 26-07-2019 14:35:00 37.8 C 26 % 14.99 C
1617 26-07-2019 14:40:00 37.8 C 26 % 14.99 C
1618 26-07-2019 14:45:00 37.7 C 24 % 13.67 C
1619 26-07-2019 14:50:00 37.7 C 26 % 14.9 C
1620 26-07-2019 14:55:00 37.7 C 24 % 13.67 C
1621 26-07-2019 15:00:00 38.1 C 25 % 14.63 C
1622 26-07-2019 15:05:00 38.3 C 25 % 14.8 C
1623 26-07-2019 15:10:00 38.6 C 24 % 14.42 C
1624 26-07-2019 15:15:00 38.7 C 25 % 15.13 C
1625 26-07-2019 15:20:00 38.3 C 27 % 16 C
Sensor: Nr:Datum:Temp:Feuchte:Taupunkt:
Aussen-T/F 1626 26-07-2019 15:25:00 37.3 C 30 % 16.8 C
1627 26-07-2019 15:30:00 36.8 C 30 % 16.37 C
1628 26-07-2019 15:35:00 36.3 C 31 % 16.46 C
1629 26-07-2019 15:40:00 35.9 C 31 % 16.11 C
1630 26-07-2019 15:45:00 35.6 C 32 % 16.35 C
1631 26-07-2019 15:50:00 35.7 C 30 % 15.43 C
1632 26-07-2019 15:55:00 35.6 C 30 % 15.34 C
1633 26-07-2019 16:00:00 35.4 C 31 % 15.68 C
1634 26-07-2019 16:05:00 35.3 C 32 % 16.09 C
1635 26-07-2019 16:10:00 35.4 C 32 % 16.18 C
1636 26-07-2019 16:15:00 35.4 C 31 % 15.68 C
1637 26-07-2019 16:20:00 35.5 C 32 % 16.27 C
1638 26-07-2019 16:25:00 35.6 C 37 % 18.65 C
1639 26-07-2019 16:30:00 35.6 C 39 % 19.5 C
1640 26-07-2019 16:35:00 35.6 C 40 % 19.91 C
1641 26-07-2019 16:40:00 35.3 C 32 % 16.09 C
1642 26-07-2019 16:45:00 34.9 C 34 % 16.7 C
1643 26-07-2019 16:50:00 34.8 C 35 % 17.07 C
1644 26-07-2019 16:55:00 34.6 C 33 % 15.97 C
1645 26-07-2019 17:00:00 34.2 C 35 % 16.54 C
1646 26-07-2019 17:05:00 34.1 C 42 % 19.35 C
1647 26-07-2019 17:10:00 33.5 C 39 % 17.64 C
1648 26-07-2019 17:15:00 32.9 C 40 % 17.51 C
1649 26-07-2019 17:20:00 32.6 C 42 % 18.01 C
1650 26-07-2019 17:25:00 32.4 C 44 % 18.57 C
Sensor: Nr:Datum:Temp:Feuchte:Taupunkt:
Aussen-T/F 1651 26-07-2019 17:30:00 32.2 C 45 % 18.75 C
1652 26-07-2019 17:35:00 31.9 C 46 % 18.83 C
1653 26-07-2019 17:40:00 31.8 C 43 % 17.67 C
1654 26-07-2019 17:45:00 31.7 C 44 % 17.94 C
1655 26-07-2019 17:50:00 31.4 C 45 % 18.03 C
1656 26-07-2019 17:55:00 31.3 C 44 % 17.58 C
1657 26-07-2019 18:00:00 31.2 C 45 % 17.85 C
1658 26-07-2019 18:05:00 31.1 C 45 % 17.76 C
1659 26-07-2019 18:10:00 30.9 C 44 % 17.22 C
1660 26-07-2019 18:15:00 30.9 C 44 % 17.22 C
1661 26-07-2019 18:20:00 30.8 C 44 % 17.13 C
1662 26-07-2019 18:25:00 30.7 C 45 % 17.4 C
1663 26-07-2019 18:30:00 30.6 C 45 % 17.31 C
1664 26-07-2019 18:35:00 30.3 C 46 % 17.39 C
1665 26-07-2019 18:40:00 30.1 C 46 % 17.2 C
1666 26-07-2019 18:45:00 29.7 C 46 % 16.84 C
1667 26-07-2019 18:50:00 29.6 C 48 % 17.42 C
1668 26-07-2019 18:55:00 29.4 C 48 % 17.24 C
1669 26-07-2019 19:00:00 29.3 C 49 % 17.48 C
1670 26-07-2019 19:05:00 29.3 C 50 % 17.8 C
1671 26-07-2019 19:10:00 29.2 C 50 % 17.71 C
1672 26-07-2019 19:15:00 29.1 C 50 % 17.61 C
1673 26-07-2019 19:20:00 29.1 C 52 % 18.24 C
1674 26-07-2019 19:25:00 28.9 C 51 % 17.74 C
1675 26-07-2019 19:30:00 28.8 C 53 % 18.26 C
Sensor: Nr:Datum:Temp:Feuchte:Taupunkt:
Aussen-T/F 1676 26-07-2019 19:35:00 28.7 C 53 % 18.17 C
1677 26-07-2019 19:40:00 28.6 C 54 % 18.38 C
1678 26-07-2019 19:45:00 28.4 C 54 % 18.19 C
1679 26-07-2019 19:50:00 28.3 C 54 % 18.1 C
1680 26-07-2019 19:55:00 28.2 C 56 % 18.59 C
1681 26-07-2019 20:00:00 28.1 C 56 % 18.49 C
1682 26-07-2019 20:05:00 28 C 56 % 18.4 C
1683 26-07-2019 20:10:00 27.9 C 57 % 18.59 C
1684 26-07-2019 20:15:00 27.8 C 57 % 18.5 C
1685 26-07-2019 20:20:00 27.7 C 58 % 18.68 C
1686 26-07-2019 20:25:00 27.6 C 57 % 18.31 C
1687 26-07-2019 20:30:00 27.5 C 59 % 18.77 C
1688 26-07-2019 20:35:00 27.4 C 57 % 18.13 C
1689 26-07-2019 20:40:00 27.2 C 59 % 18.49 C
1690 26-07-2019 20:45:00 27.1 C 59 % 18.4 C
1691 26-07-2019 20:50:00 27.1 C 59 % 18.4 C
1692 26-07-2019 20:55:00 26.9 C 59 % 18.21 C
1693 26-07-2019 21:00:00 26.8 C 59 % 18.11 C
1694 26-07-2019 21:05:00 26.7 C 59 % 18.02 C
1695 26-07-2019 21:10:00 26.7 C 59 % 18.02 C
1696 26-07-2019 21:15:00 26.6 C 60 % 18.2 C
1697 26-07-2019 21:20:00 26.4 C 59 % 17.74 C
1698 26-07-2019 21:25:00 26.3 C 59 % 17.65 C
1699 26-07-2019 21:30:00 26.2 C 59 % 17.55 C
1700 26-07-2019 21:35:00 26.2 C 59 % 17.55 C
Sensor: Nr:Datum:Temp:Feuchte:Taupunkt:
Aussen-T/F 1701 26-07-2019 21:40:00 26.1 C 59 % 17.46 C
1702 26-07-2019 21:45:00 26.1 C 60 % 17.73 C
1703 26-07-2019 21:50:00 26 C 60 % 17.63 C
1704 26-07-2019 21:55:00 25.9 C 60 % 17.54 C
1705 26-07-2019 22:00:00 25.9 C 60 % 17.54 C
1706 26-07-2019 22:05:00 25.8 C 61 % 17.71 C
1707 26-07-2019 22:10:00 25.7 C 61 % 17.61 C
1708 26-07-2019 22:15:00 25.7 C 61 % 17.61 C
1709 26-07-2019 22:20:00 25.7 C 62 % 17.87 C
1710 26-07-2019 22:25:00 25.7 C 62 % 17.87 C
1711 26-07-2019 22:30:00 25.6 C 63 % 18.03 C
1712 26-07-2019 22:35:00 25.4 C 63 % 17.84 C
1713 26-07-2019 22:40:00 25.3 C 62 % 17.5 C
1714 26-07-2019 22:45:00 25.2 C 63 % 17.65 C
1715 26-07-2019 22:50:00 25.1 C 63 % 17.56 C
1716 26-07-2019 22:55:00 24.9 C 64 % 17.62 C
1717 26-07-2019 23:00:00 24.8 C 65 % 17.77 C
1718 26-07-2019 23:05:00 24.8 C 65 % 17.77 C
1719 26-07-2019 23:10:00 24.7 C 66 % 17.92 C
1720 26-07-2019 23:15:00 24.6 C 66 % 17.83 C
1721 26-07-2019 23:20:00 24.5 C 67 % 17.97 C
1722 26-07-2019 23:25:00 24.4 C 67 % 17.87 C
1723 26-07-2019 23:30:00 24.3 C 67 % 17.78 C
1724 26-07-2019 23:35:00 24.2 C 67 % 17.68 C
1725 26-07-2019 23:40:00 24.2 C 67 % 17.68 C
Sensor: Nr:Datum:Temp:Feuchte:Taupunkt:
Aussen-T/F 1726 26-07-2019 23:45:00 24.1 C 68 % 17.82 C
1727 26-07-2019 23:50:00 23.9 C 68 % 17.63 C
1728 26-07-2019 23:55:00 23.8 C 68 % 17.54 C
1729 27-07-2019 00:00:00 23.6 C 69 % 17.58 C
1730 27-07-2019 00:05:00 23.4 C 69 % 17.39 C
1731 27-07-2019 00:10:00 23.3 C 69 % 17.29 C
1732 27-07-2019 00:15:00 23.3 C 70 % 17.52 C
1733 27-07-2019 00:20:00 23.2 C 70 % 17.42 C
1734 27-07-2019 00:25:00 23.2 C 70 % 17.42 C
1735 27-07-2019 00:30:00 23.1 C 70 % 17.33 C
1736 27-07-2019 00:35:00 23.1 C 71 % 17.55 C
1737 27-07-2019 00:40:00 23 C 71 % 17.46 C
1738 27-07-2019 00:45:00 22.9 C 71 % 17.36 C
1739 27-07-2019 00:50:00 22.9 C 71 % 17.36 C
1740 27-07-2019 00:55:00 22.8 C 72 % 17.49 C
1741 27-07-2019 01:00:00 22.8 C 72 % 17.49 C
1742 27-07-2019 01:05:00 22.7 C 72 % 17.39 C
1743 27-07-2019 01:10:00 22.7 C 73 % 17.61 C
1744 27-07-2019 01:15:00 22.6 C 73 % 17.51 C
1745 27-07-2019 01:20:00 22.7 C 74 % 17.83 C
1746 27-07-2019 01:25:00 22.7 C 73 % 17.61 C
1747 27-07-2019 01:30:00 22.7 C 73 % 17.61 C
1748 27-07-2019 01:35:00 22.7 C 73 % 17.61 C
1749 27-07-2019 01:40:00 22.7 C 74 % 17.83 C
1750 27-07-2019 01:45:00 22.6 C 74 % 17.73 C
Sensor: Nr:Datum:Temp:Feuchte:Taupunkt:
Aussen-T/F 1751 27-07-2019 01:50:00 22.4 C 74 % 17.54 C
1752 27-07-2019 01:55:00 22.3 C 74 % 17.44 C
1753 27-07-2019 02:00:00 22.3 C 74 % 17.44 C
1754 27-07-2019 02:05:00 22.3 C 73 % 17.23 C
1755 27-07-2019 02:10:00 22.3 C 73 % 17.23 C
1756 27-07-2019 02:15:00 22.3 C 75 % 17.65 C
1757 27-07-2019 02:20:00 22.4 C 75 % 17.75 C
1758 27-07-2019 02:25:00 22.4 C 76 % 17.96 C
1759 27-07-2019 02:30:00 22.4 C 76 % 17.96 C
1760 27-07-2019 02:35:00 22.4 C 76 % 17.96 C
1761 27-07-2019 02:40:00 22.3 C 76 % 17.86 C
1762 27-07-2019 02:45:00 22.3 C 76 % 17.86 C
1763 27-07-2019 02:50:00 22.3 C 76 % 17.86 C
1764 27-07-2019 02:55:00 22.3 C 76 % 17.86 C
1765 27-07-2019 03:00:00 22.3 C 76 % 17.86 C
1766 27-07-2019 03:05:00 22.3 C 76 % 17.86 C
1767 27-07-2019 03:10:00 22.3 C 74 % 17.44 C
1768 27-07-2019 03:15:00 22.4 C 74 % 17.54 C
1769 27-07-2019 03:20:00 22.5 C 73 % 17.42 C
1770 27-07-2019 03:25:00 22.6 C 72 % 17.3 C
1771 27-07-2019 03:30:00 22.6 C 71 % 17.07 C
1772 27-07-2019 03:35:00 22.8 C 69 % 16.82 C
1773 27-07-2019 03:40:00 23.2 C 75 % 18.52 C
1774 27-07-2019 03:45:00 23.1 C 78 % 19.05 C
1775 27-07-2019 03:50:00 22.7 C 79 % 18.87 C
Sensor: Nr:Datum:Temp:Feuchte:Taupunkt:
Aussen-T/F 1776 27-07-2019 03:55:00 22.3 C 80 % 18.68 C
1777 27-07-2019 04:00:00 21.9 C 83 % 18.88 C
1778 27-07-2019 04:05:00 21.7 C 84 % 18.88 C
1779 27-07-2019 04:10:00 21.4 C 85 % 18.77 C
1780 27-07-2019 04:15:00 21.1 C 85 % 18.48 C
1781 27-07-2019 04:20:00 20.9 C 86 % 18.47 C
1782 27-07-2019 04:25:00 20.8 C 87 % 18.56 C
1783 27-07-2019 04:30:00 20.7 C 87 % 18.46 C
1784 27-07-2019 04:35:00 20.6 C 87 % 18.36 C
1785 27-07-2019 04:40:00 20.5 C 88 % 18.44 C
1786 27-07-2019 04:45:00 20.4 C 88 % 18.34 C
1787 27-07-2019 04:50:00 20.4 C 88 % 18.34 C
1788 27-07-2019 04:55:00 20.4 C 89 % 18.53 C
1789 27-07-2019 05:00:00 20.4 C 88 % 18.34 C
1790 27-07-2019 05:05:00 20.4 C 88 % 18.34 C
1791 27-07-2019 05:10:00 20.3 C 89 % 18.43 C
1792 27-07-2019 05:15:00 20.3 C 89 % 18.43 C
1793 27-07-2019 05:20:00 20.3 C 89 % 18.43 C
1794 27-07-2019 05:25:00 20.3 C 89 % 18.43 C
1795 27-07-2019 05:30:00 20.2 C 89 % 18.33 C
1796 27-07-2019 05:35:00 20.3 C 89 % 18.43 C
1797 27-07-2019 05:40:00 20.2 C 89 % 18.33 C
1798 27-07-2019 05:45:00 20.2 C 89 % 18.33 C
1799 27-07-2019 05:50:00 20.2 C 89 % 18.33 C
1800 27-07-2019 05:55:00 20.2 C 88 % 18.15 C
Sensor: Nr:Datum:Temp:Feuchte:Taupunkt:
Aussen-T/F 1801 27-07-2019 06:00:00 20.2 C 88 % 18.15 C
1802 27-07-2019 06:05:00 20.3 C 89 % 18.43 C
1803 27-07-2019 06:10:00 20.3 C 88 % 18.25 C
1804 27-07-2019 06:15:00 20.3 C 89 % 18.43 C
1805 27-07-2019 06:20:00 20.3 C 88 % 18.25 C
1806 27-07-2019 06:25:00 20.4 C 89 % 18.53 C
1807 27-07-2019 06:30:00 20.6 C 89 % 18.72 C
1808 27-07-2019 06:35:00 20.7 C 89 % 18.82 C
1809 27-07-2019 06:40:00 20.7 C 88 % 18.64 C
1810 27-07-2019 06:45:00 20.8 C 88 % 18.74 C
1811 27-07-2019 06:50:00 20.8 C 89 % 18.92 C
1812 27-07-2019 06:55:00 20.9 C 89 % 19.02 C
1813 27-07-2019 07:00:00 20.9 C 89 % 19.02 C
1814 27-07-2019 07:05:00 21 C 89 % 19.12 C
1815 27-07-2019 07:10:00 20.9 C 88 % 18.84 C
1816 27-07-2019 07:15:00 21 C 89 % 19.12 C
1817 27-07-2019 07:20:00 21.1 C 88 % 19.03 C
1818 27-07-2019 07:25:00 21.2 C 88 % 19.13 C
1819 27-07-2019 07:30:00 21.3 C 89 % 19.41 C
1820 27-07-2019 07:35:00 21.4 C 89 % 19.51 C
1821 27-07-2019 07:40:00 21.4 C 88 % 19.33 C
1822 27-07-2019 07:45:00 21.5 C 88 % 19.43 C
1823 27-07-2019 07:50:00 21.6 C 87 % 19.34 C
1824 27-07-2019 07:55:00 21.7 C 86 % 19.25 C
1825 27-07-2019 08:00:00 21.8 C 86 % 19.35 C
Sensor: Nr:Datum:Temp:Feuchte:Taupunkt:
Aussen-T/F 1826 27-07-2019 08:05:00 21.9 C 86 % 19.45 C
1827 27-07-2019 08:10:00 22.1 C 86 % 19.65 C
1828 27-07-2019 08:15:00 22.1 C 84 % 19.27 C
1829 27-07-2019 08:20:00 22.2 C 83 % 19.17 C
1830 27-07-2019 08:25:00 22.3 C 82 % 19.08 C
1831 27-07-2019 08:30:00 22.5 C 81 % 19.08 C
1832 27-07-2019 08:35:00 22.8 C 80 % 19.17 C
1833 27-07-2019 08:40:00 23 C 78 % 18.96 C
1834 27-07-2019 08:45:00 23.2 C 78 % 19.15 C
1835 27-07-2019 08:50:00 23.4 C 77 % 19.14 C
1836 27-07-2019 08:55:00 23.6 C 76 % 19.12 C
1837 27-07-2019 09:00:00 23.8 C 76 % 19.31 C
1838 27-07-2019 09:05:00 24.1 C 76 % 19.6 C
1839 27-07-2019 09:10:00 24.3 C 76 % 19.8 C
1840 27-07-2019 09:15:00 24.4 C 74 % 19.46 C
1841 27-07-2019 09:20:00 24.6 C 73 % 19.44 C
1842 27-07-2019 09:25:00 24.8 C 73 % 19.63 C
1843 27-07-2019 09:30:00 24.9 C 73 % 19.72 C
1844 27-07-2019 09:35:00 25.1 C 73 % 19.92 C
1845 27-07-2019 09:40:00 25.1 C 72 % 19.69 C
1846 27-07-2019 09:45:00 25.2 C 72 % 19.79 C
1847 27-07-2019 09:50:00 25.2 C 72 % 19.79 C
1848 27-07-2019 09:55:00 25.2 C 72 % 19.79 C
1849 27-07-2019 10:00:00 25.2 C 72 % 19.79 C
1850 27-07-2019 10:05:00 25.3 C 71 % 19.66 C
Sensor: Nr:Datum:Temp:Feuchte:Taupunkt:
Aussen-T/F 1851 27-07-2019 10:10:00 25.3 C 71 % 19.66 C
1852 27-07-2019 10:15:00 25.3 C 80 % 21.6 C
1853 27-07-2019 10:20:00 25 C 82 % 21.71 C
1854 27-07-2019 10:25:00 24.7 C 84 % 21.81 C
1855 27-07-2019 10:30:00 24.4 C 85 % 21.71 C
1856 27-07-2019 10:35:00 24.2 C 86 % 21.71 C
1857 27-07-2019 10:40:00 24.1 C 87 % 21.8 C
1858 27-07-2019 10:45:00 24.1 C 88 % 21.99 C
1859 27-07-2019 10:50:00 24.1 C 87 % 21.8 C
1860 27-07-2019 10:55:00 24 C 87 % 21.7 C
1861 27-07-2019 11:00:00 24 C 88 % 21.89 C
1862 27-07-2019 11:05:00 24.1 C 88 % 21.99 C
1863 27-07-2019 11:10:00 24.1 C 88 % 21.99 C
1864 27-07-2019 11:15:00 24.1 C 88 % 21.99 C
1865 27-07-2019 11:20:00 24.2 C 88 % 22.08 C
1866 27-07-2019 11:25:00 24.2 C 88 % 22.08 C
1867 27-07-2019 11:30:00 24.2 C 87 % 21.9 C
1868 27-07-2019 11:35:00 24 C 85 % 21.32 C
1869 27-07-2019 11:40:00 23.9 C 85 % 21.22 C
1870 27-07-2019 11:45:00 23.7 C 85 % 21.03 C
1871 27-07-2019 11:50:00 23.5 C 84 % 20.64 C
1872 27-07-2019 11:55:00 23.3 C 85 % 20.63 C
1873 27-07-2019 12:00:00 23.2 C 85 % 20.54 C
1874 27-07-2019 12:05:00 23.2 C 87 % 20.91 C
1875 27-07-2019 12:10:00 23.2 C 88 % 21.1 C
Sensor: Nr:Datum:Temp:Feuchte:Taupunkt:
Aussen-T/F 1876 27-07-2019 12:15:00 23.2 C 88 % 21.1 C
1877 27-07-2019 12:20:00 23.2 C 86 % 20.73 C
1878 27-07-2019 12:25:00 23.3 C 85 % 20.63 C
1879 27-07-2019 12:30:00 23.5 C 84 % 20.64 C
1880 27-07-2019 12:35:00 23.8 C 81 % 20.34 C
1881 27-07-2019 12:40:00 24.1 C 80 % 20.43 C
1882 27-07-2019 12:45:00 24.4 C 82 % 21.12 C
1883 27-07-2019 12:50:00 24.8 C 78 % 20.7 C
1884 27-07-2019 12:55:00 25.1 C 78 % 20.99 C
1885 27-07-2019 13:00:00 25.3 C 75 % 20.55 C
1886 27-07-2019 13:05:00 25.5 C 76 % 20.95 C
1887 27-07-2019 13:10:00 25.7 C 74 % 20.71 C
1888 27-07-2019 13:15:00 26 C 75 % 21.22 C
1889 27-07-2019 13:20:00 26.2 C 74 % 21.2 C
1890 27-07-2019 13:25:00 26.2 C 74 % 21.2 C
1891 27-07-2019 13:30:00 26.1 C 75 % 21.32 C
1892 27-07-2019 13:35:00 26.2 C 75 % 21.41 C
1893 27-07-2019 13:40:00 26.2 C 74 % 21.2 C
1894 27-07-2019 13:45:00 26.2 C 72 % 20.75 C
1895 27-07-2019 13:50:00 26.2 C 70 % 20.29 C
1896 27-07-2019 13:55:00 26.2 C 72 % 20.75 C
1897 27-07-2019 14:00:00 26.2 C 69 % 20.06 C
1898 27-07-2019 14:05:00 26.1 C 70 % 20.2 C
1899 27-07-2019 14:10:00 25.9 C 70 % 20.01 C
1900 27-07-2019 14:15:00 25.9 C 68 % 19.54 C
Sensor: Nr:Datum:Temp:Feuchte:Taupunkt:
Aussen-T/F 1901 27-07-2019 14:20:00 25.8 C 70 % 19.91 C
1902 27-07-2019 14:25:00 25.7 C 69 % 19.58 C
1903 27-07-2019 14:30:00 25.6 C 71 % 19.95 C
1904 27-07-2019 14:35:00 25.5 C 71 % 19.85 C
1905 27-07-2019 14:40:00 25.5 C 73 % 20.3 C
1906 27-07-2019 14:45:00 25.5 C 73 % 20.3 C
1907 27-07-2019 14:50:00 25.5 C 75 % 20.74 C
1908 27-07-2019 14:55:00 25.5 C 74 % 20.52 C
1909 27-07-2019 15:00:00 25.3 C 74 % 20.33 C
1910 27-07-2019 15:05:00 25.1 C 74 % 20.14 C
1911 27-07-2019 15:10:00 24.8 C 74 % 19.85 C
1912 27-07-2019 15:15:00 24.7 C 75 % 19.97 C
1913 27-07-2019 15:20:00 24.7 C 75 % 19.97 C
1914 27-07-2019 15:25:00 24.8 C 75 % 20.06 C
1915 27-07-2019 15:30:00 24.8 C 74 % 19.85 C
1916 27-07-2019 15:35:00 25 C 74 % 20.04 C
1917 27-07-2019 15:40:00 25.1 C 74 % 20.14 C
1918 27-07-2019 15:45:00 25.2 C 73 % 20.01 C
1919 27-07-2019 15:50:00 25.4 C 73 % 20.21 C
1920 27-07-2019 15:55:00 25.6 C 74 % 20.62 C
1921 27-07-2019 16:00:00 25.8 C 72 % 20.37 C
1922 27-07-2019 16:05:00 26.1 C 70 % 20.2 C
1923 27-07-2019 16:10:00 26.2 C 68 % 19.82 C
1924 27-07-2019 16:15:00 26.2 C 67 % 19.59 C
1925 27-07-2019 16:20:00 26.2 C 68 % 19.82 C
Sensor: Nr:Datum:Temp:Feuchte:Taupunkt:
Aussen-T/F 1926 27-07-2019 16:25:00 26.3 C 68 % 19.92 C
1927 27-07-2019 16:30:00 26.3 C 67 % 19.68 C
1928 27-07-2019 16:35:00 26.2 C 67 % 19.59 C
1929 27-07-2019 16:40:00 25.9 C 68 % 19.54 C
1930 27-07-2019 16:45:00 25.7 C 67 % 19.11 C
1931 27-07-2019 16:50:00 25.5 C 69 % 19.39 C
1932 27-07-2019 16:55:00 25.2 C 71 % 19.56 C
1933 27-07-2019 17:00:00 24.9 C 73 % 19.72 C
1934 27-07-2019 17:05:00 24.6 C 74 % 19.66 C
1935 27-07-2019 17:10:00 24.5 C 76 % 19.99 C
1936 27-07-2019 17:15:00 24.5 C 77 % 20.2 C
1937 27-07-2019 17:20:00 24.5 C 77 % 20.2 C
1938 27-07-2019 17:25:00 24.5 C 77 % 20.2 C
1939 27-07-2019 17:30:00 24.4 C 76 % 19.89 C
1940 27-07-2019 17:35:00 24.4 C 76 % 19.89 C
1941 27-07-2019 17:40:00 24.4 C 77 % 20.1 C
1942 27-07-2019 17:45:00 24.4 C 76 % 19.89 C
1943 27-07-2019 17:50:00 24.4 C 76 % 19.89 C
1944 27-07-2019 17:55:00 24.4 C 76 % 19.89 C
1945 27-07-2019 18:00:00 24.4 C 77 % 20.1 C
1946 27-07-2019 18:05:00 24.4 C 77 % 20.1 C
1947 27-07-2019 18:10:00 24.4 C 76 % 19.89 C
1948 27-07-2019 18:15:00 24.6 C 77 % 20.3 C
1949 27-07-2019 18:20:00 24.8 C 76 % 20.28 C
1950 27-07-2019 18:25:00 25.1 C 75 % 20.35 C
Sensor: Nr:Datum:Temp:Feuchte:Taupunkt:
Aussen-T/F 1951 27-07-2019 18:30:00 25.4 C 75 % 20.64 C
1952 27-07-2019 18:35:00 25.3 C 75 % 20.55 C
1953 27-07-2019 18:40:00 25.3 C 75 % 20.55 C
1954 27-07-2019 18:45:00 25.2 C 75 % 20.45 C
1955 27-07-2019 18:50:00 25.1 C 75 % 20.35 C
1956 27-07-2019 18:55:00 24.9 C 76 % 20.38 C
1957 27-07-2019 19:00:00 24.7 C 77 % 20.39 C
1958 27-07-2019 19:05:00 24.5 C 77 % 20.2 C
1959 27-07-2019 19:10:00 24.3 C 76 % 19.8 C
1960 27-07-2019 19:15:00 24.1 C 77 % 19.81 C
1961 27-07-2019 19:20:00 23.9 C 79 % 20.03 C
1962 27-07-2019 19:25:00 23.8 C 81 % 20.34 C
1963 27-07-2019 19:30:00 23.7 C 82 % 20.44 C
1964 27-07-2019 19:35:00 23.6 C 83 % 20.54 C
1965 27-07-2019 19:40:00 23.4 C 84 % 20.54 C
1966 27-07-2019 19:45:00 23.4 C 84 % 20.54 C
1967 27-07-2019 19:50:00 23.4 C 85 % 20.73 C
1968 27-07-2019 19:55:00 23.3 C 84 % 20.44 C
1969 27-07-2019 20:00:00 23.2 C 84 % 20.34 C
1970 27-07-2019 20:05:00 23.1 C 85 % 20.44 C
1971 27-07-2019 20:10:00 23.1 C 85 % 20.44 C
1972 27-07-2019 20:15:00 23 C 85 % 20.34 C
1973 27-07-2019 20:20:00 23 C 85 % 20.34 C
1974 27-07-2019 20:25:00 22.9 C 85 % 20.24 C
1975 27-07-2019 20:30:00 22.8 C 85 % 20.14 C
Sensor: Nr:Datum:Temp:Feuchte:Taupunkt:
Aussen-T/F 1976 27-07-2019 20:35:00 22.8 C 85 % 20.14 C
1977 27-07-2019 20:40:00 22.8 C 85 % 20.14 C
1978 27-07-2019 20:45:00 22.7 C 85 % 20.05 C
1979 27-07-2019 20:50:00 22.6 C 85 % 19.95 C
1980 27-07-2019 20:55:00 22.6 C 85 % 19.95 C
1981 27-07-2019 21:00:00 22.4 C 85 % 19.75 C
1982 27-07-2019 21:05:00 22.4 C 85 % 19.75 C
1983 27-07-2019 21:10:00 22.3 C 85 % 19.65 C
1984 27-07-2019 21:15:00 22.3 C 85 % 19.65 C
1985 27-07-2019 21:20:00 22.2 C 86 % 19.75 C
1986 27-07-2019 21:25:00 22.1 C 86 % 19.65 C
1987 27-07-2019 21:30:00 22.1 C 86 % 19.65 C
1988 27-07-2019 21:35:00 21.9 C 86 % 19.45 C
1989 27-07-2019 21:40:00 21.9 C 86 % 19.45 C
1990 27-07-2019 21:45:00 21.8 C 86 % 19.35 C
1991 27-07-2019 21:50:00 21.8 C 86 % 19.35 C
1992 27-07-2019 21:55:00 21.7 C 86 % 19.25 C
1993 27-07-2019 22:00:00 21.7 C 86 % 19.25 C
1994 27-07-2019 22:05:00 21.6 C 87 % 19.34 C
1995 27-07-2019 22:10:00 21.6 C 87 % 19.34 C
1996 27-07-2019 22:15:00 21.6 C 87 % 19.34 C
1997 27-07-2019 22:20:00 21.5 C 87 % 19.24 C
1998 27-07-2019 22:25:00 21.4 C 87 % 19.15 C
1999 27-07-2019 22:30:00 21.4 C 87 % 19.15 C
2000 27-07-2019 22:35:00 21.4 C 87 % 19.15 C
Sensor: Nr:Datum:Temp:Feuchte:Taupunkt:
Aussen-T/F 2001 27-07-2019 22:40:00 21.3 C 87 % 19.05 C
2002 27-07-2019 22:45:00 21.3 C 88 % 19.23 C
2003 27-07-2019 22:50:00 21.3 C 88 % 19.23 C
2004 27-07-2019 22:55:00 21.3 C 88 % 19.23 C
2005 27-07-2019 23:00:00 21.3 C 88 % 19.23 C
2006 27-07-2019 23:05:00 21.2 C 88 % 19.13 C
2007 27-07-2019 23:10:00 21.2 C 88 % 19.13 C
2008 27-07-2019 23:15:00 21.2 C 89 % 19.31 C
2009 27-07-2019 23:20:00 21.2 C 89 % 19.31 C
2010 27-07-2019 23:25:00 21.2 C 89 % 19.31 C
2011 27-07-2019 23:30:00 21.1 C 89 % 19.22 C
2012 27-07-2019 23:35:00 21.1 C 89 % 19.22 C
2013 27-07-2019 23:40:00 21.1 C 89 % 19.22 C
2014 27-07-2019 23:45:00 21.1 C 89 % 19.22 C
2015 27-07-2019 23:50:00 21 C 89 % 19.12 C
2016 27-07-2019 23:55:00 21 C 89 % 19.12 C
2017 28-07-2019 00:00:00 20.9 C 89 % 19.02 C
2018 28-07-2019 00:05:00 20.9 C 90 % 19.2 C
2019 28-07-2019 00:10:00 20.9 C 90 % 19.2 C
2020 28-07-2019 00:15:00 20.9 C 90 % 19.2 C
2021 28-07-2019 00:20:00 20.8 C 90 % 19.1 C
2022 28-07-2019 00:25:00 20.8 C 90 % 19.1 C
2023 28-07-2019 00:30:00 20.8 C 90 % 19.1 C
2024 28-07-2019 00:35:00 20.8 C 90 % 19.1 C
2025 28-07-2019 00:40:00 20.8 C 90 % 19.1 C
Sensor: Nr:Datum:Temp:Feuchte:Taupunkt:
Aussen-T/F 2026 28-07-2019 00:45:00 20.8 C 90 % 19.1 C
2027 28-07-2019 00:50:00 20.8 C 90 % 19.1 C
2028 28-07-2019 00:55:00 20.8 C 90 % 19.1 C
2029 28-07-2019 01:00:00 20.8 C 90 % 19.1 C
2030 28-07-2019 01:05:00 20.7 C 90 % 19 C
2031 28-07-2019 01:10:00 20.7 C 90 % 19 C
2032 28-07-2019 01:15:00 20.7 C 90 % 19 C
2033 28-07-2019 01:20:00 20.7 C 90 % 19 C
2034 28-07-2019 01:25:00 20.7 C 90 % 19 C
2035 28-07-2019 01:30:00 20.7 C 90 % 19 C
2036 28-07-2019 01:35:00 20.7 C 90 % 19 C
2037 28-07-2019 01:40:00 20.7 C 90 % 19 C
2038 28-07-2019 01:45:00 20.7 C 90 % 19 C
2039 28-07-2019 01:50:00 20.7 C 90 % 19 C
2040 28-07-2019 01:55:00 20.7 C 90 % 19 C
2041 28-07-2019 02:00:00 20.7 C 90 % 19 C
2042 28-07-2019 02:05:00 20.7 C 90 % 19 C
2043 28-07-2019 02:10:00 20.7 C 90 % 19 C
2044 28-07-2019 02:15:00 20.7 C 90 % 19 C
2045 28-07-2019 02:20:00 20.7 C 90 % 19 C
2046 28-07-2019 02:25:00 20.7 C 90 % 19 C
2047 28-07-2019 02:30:00 20.7 C 90 % 19 C
2048 28-07-2019 02:35:00 20.7 C 90 % 19 C
2049 28-07-2019 02:40:00 20.7 C 90 % 19 C
2050 28-07-2019 02:45:00 20.7 C 90 % 19 C
Sensor: Nr:Datum:Temp:Feuchte:Taupunkt:
Aussen-T/F 2051 28-07-2019 02:50:00 20.7 C 90 % 19 C
2052 28-07-2019 02:55:00 20.7 C 90 % 19 C
2053 28-07-2019 03:00:00 20.7 C 90 % 19 C
2054 28-07-2019 03:05:00 20.7 C 90 % 19 C
2055 28-07-2019 03:10:00 20.7 C 90 % 19 C
2056 28-07-2019 03:15:00 20.7 C 90 % 19 C
2057 28-07-2019 03:20:00 20.7 C 90 % 19 C
2058 28-07-2019 03:25:00 20.7 C 90 % 19 C
2059 28-07-2019 03:30:00 20.7 C 90 % 19 C
2060 28-07-2019 03:35:00 20.7 C 90 % 19 C
2061 28-07-2019 03:40:00 20.7 C 90 % 19 C
2062 28-07-2019 03:45:00 20.7 C 90 % 19 C
2063 28-07-2019 03:50:00 20.6 C 90 % 18.9 C
2064 28-07-2019 03:55:00 20.6 C 90 % 18.9 C
2065 28-07-2019 04:00:00 20.7 C 90 % 19 C
2066 28-07-2019 04:05:00 20.6 C 90 % 18.9 C
2067 28-07-2019 04:10:00 20.6 C 91 % 19.08 C
2068 28-07-2019 04:15:00 20.6 C 91 % 19.08 C
2069 28-07-2019 04:20:00 20.6 C 91 % 19.08 C
2070 28-07-2019 04:25:00 20.6 C 91 % 19.08 C
2071 28-07-2019 04:30:00 20.6 C 91 % 19.08 C
2072 28-07-2019 04:35:00 20.6 C 91 % 19.08 C
2073 28-07-2019 04:40:00 20.6 C 91 % 19.08 C
2074 28-07-2019 04:45:00 20.6 C 91 % 19.08 C
2075 28-07-2019 04:50:00 20.6 C 91 % 19.08 C
Sensor: Nr:Datum:Temp:Feuchte:Taupunkt:
Aussen-T/F 2076 28-07-2019 04:55:00 20.6 C 91 % 19.08 C
2077 28-07-2019 05:00:00 20.6 C 91 % 19.08 C
2078 28-07-2019 05:05:00 20.6 C 91 % 19.08 C
2079 28-07-2019 05:10:00 20.6 C 91 % 19.08 C
2080 28-07-2019 05:15:00 20.6 C 91 % 19.08 C
2081 28-07-2019 05:20:00 20.6 C 91 % 19.08 C
2082 28-07-2019 05:25:00 20.6 C 91 % 19.08 C
2083 28-07-2019 05:30:00 20.5 C 91 % 18.98 C
2084 28-07-2019 05:35:00 20.5 C 91 % 18.98 C
2085 28-07-2019 05:40:00 20.5 C 91 % 18.98 C
2086 28-07-2019 05:45:00 20.5 C 91 % 18.98 C
2087 28-07-2019 05:50:00 20.5 C 91 % 18.98 C
2088 28-07-2019 05:55:00 20.5 C 91 % 18.98 C
2089 28-07-2019 06:00:00 20.5 C 91 % 18.98 C
2090 28-07-2019 06:05:00 20.5 C 91 % 18.98 C
2091 28-07-2019 06:10:00 20.5 C 91 % 18.98 C
2092 28-07-2019 06:15:00 20.5 C 91 % 18.98 C
2093 28-07-2019 06:20:00 20.5 C 91 % 18.98 C
2094 28-07-2019 06:25:00 20.5 C 91 % 18.98 C
2095 28-07-2019 06:30:00 20.5 C 91 % 18.98 C
2096 28-07-2019 06:35:00 20.6 C 91 % 19.08 C
2097 28-07-2019 06:40:00 20.6 C 91 % 19.08 C
2098 28-07-2019 06:45:00 20.6 C 91 % 19.08 C
2099 28-07-2019 06:50:00 20.6 C 91 % 19.08 C
2100 28-07-2019 06:55:00 20.6 C 91 % 19.08 C
Sensor: Nr:Datum:Temp:Feuchte:Taupunkt:
Aussen-T/F 2101 28-07-2019 07:00:00 20.6 C 91 % 19.08 C
2102 28-07-2019 07:05:00 20.7 C 91 % 19.18 C
2103 28-07-2019 07:10:00 20.7 C 91 % 19.18 C
2104 28-07-2019 07:15:00 20.7 C 90 % 19 C
2105 28-07-2019 07:20:00 20.7 C 90 % 19 C
2106 28-07-2019 07:25:00 20.7 C 90 % 19 C
2107 28-07-2019 07:30:00 20.7 C 90 % 19 C
2108 28-07-2019 07:35:00 20.7 C 90 % 19 C
2109 28-07-2019 07:40:00 20.7 C 90 % 19 C
2110 28-07-2019 07:45:00 20.7 C 89 % 18.82 C
2111 28-07-2019 07:50:00 20.7 C 89 % 18.82 C
2112 28-07-2019 07:55:00 20.7 C 89 % 18.82 C
2113 28-07-2019 08:00:00 20.7 C 89 % 18.82 C
2114 28-07-2019 08:05:00 20.7 C 89 % 18.82 C
2115 28-07-2019 08:10:00 20.8 C 89 % 18.92 C
2116 28-07-2019 08:15:00 20.8 C 89 % 18.92 C
2117 28-07-2019 08:20:00 20.7 C 89 % 18.82 C
2118 28-07-2019 08:25:00 20.7 C 89 % 18.82 C
2119 28-07-2019 08:30:00 20.7 C 89 % 18.82 C
2120 28-07-2019 08:35:00 20.7 C 89 % 18.82 C
2121 28-07-2019 08:40:00 20.7 C 89 % 18.82 C
2122 28-07-2019 08:45:00 20.7 C 89 % 18.82 C
2123 28-07-2019 08:50:00 20.7 C 89 % 18.82 C
2124 28-07-2019 08:55:00 20.7 C 90 % 19 C
2125 28-07-2019 09:00:00 20.6 C 90 % 18.9 C
Sensor: Nr:Datum:Temp:Feuchte:Taupunkt:
Aussen-T/F 2126 28-07-2019 09:05:00 20.6 C 90 % 18.9 C
2127 28-07-2019 09:10:00 20.6 C 90 % 18.9 C
2128 28-07-2019 09:15:00 20.6 C 90 % 18.9 C
2129 28-07-2019 09:20:00 20.5 C 90 % 18.8 C
2130 28-07-2019 09:25:00 20.4 C 90 % 18.7 C
2131 28-07-2019 09:30:00 20.4 C 90 % 18.7 C
2132 28-07-2019 09:35:00 20.3 C 90 % 18.61 C
2133 28-07-2019 09:40:00 20.3 C 91 % 18.78 C
2134 28-07-2019 09:45:00 20.3 C 91 % 18.78 C
2135 28-07-2019 09:50:00 20.3 C 91 % 18.78 C
2136 28-07-2019 09:55:00 20.2 C 91 % 18.68 C
2137 28-07-2019 10:00:00 20.2 C 91 % 18.68 C
2138 28-07-2019 10:05:00 20.2 C 91 % 18.68 C
2139 28-07-2019 10:10:00 20.2 C 91 % 18.68 C
2140 28-07-2019 10:15:00 20.2 C 91 % 18.68 C
2141 28-07-2019 10:20:00 20.1 C 91 % 18.58 C
2142 28-07-2019 10:25:00 20.1 C 92 % 18.76 C
2143 28-07-2019 10:30:00 19.9 C 92 % 18.56 C
2144 28-07-2019 10:35:00 19.9 C 92 % 18.56 C
2145 28-07-2019 10:40:00 19.9 C 92 % 18.56 C
2146 28-07-2019 10:45:00 19.9 C 93 % 18.73 C
2147 28-07-2019 10:50:00 19.8 C 93 % 18.63 C
2148 28-07-2019 10:55:00 19.9 C 93 % 18.73 C
2149 28-07-2019 11:00:00 19.8 C 93 % 18.63 C
2150 28-07-2019 11:05:00 19.8 C 93 % 18.63 C
Sensor: Nr:Datum:Temp:Feuchte:Taupunkt:
Aussen-T/F 2151 28-07-2019 11:10:00 19.8 C 93 % 18.63 C
2152 28-07-2019 11:15:00 19.8 C 93 % 18.63 C
2153 28-07-2019 11:20:00 19.9 C 93 % 18.73 C
2154 28-07-2019 11:25:00 19.9 C 93 % 18.73 C
2155 28-07-2019 11:30:00 20.1 C 92 % 18.76 C
2156 28-07-2019 11:35:00 20.2 C 92 % 18.86 C
2157 28-07-2019 11:40:00 20.3 C 91 % 18.78 C
2158 28-07-2019 11:45:00 20.4 C 90 % 18.7 C
2159 28-07-2019 11:50:00 20.4 C 90 % 18.7 C
2160 28-07-2019 11:55:00 20.6 C 89 % 18.72 C
2161 28-07-2019 12:00:00 20.6 C 89 % 18.72 C
2162 28-07-2019 12:05:00 20.5 C 89 % 18.62 C
2163 28-07-2019 12:10:00 20.5 C 89 % 18.62 C
2164 28-07-2019 12:15:00 20.5 C 88 % 18.44 C
2165 28-07-2019 12:20:00 20.5 C 88 % 18.44 C
2166 28-07-2019 12:25:00 20.5 C 88 % 18.44 C
2167 28-07-2019 12:30:00 20.4 C 87 % 18.16 C
2168 28-07-2019 12:35:00 20.5 C 87 % 18.26 C
2169 28-07-2019 12:40:00 20.6 C 88 % 18.54 C
2170 28-07-2019 12:45:00 20.5 C 87 % 18.26 C
2171 28-07-2019 12:50:00 20.5 C 87 % 18.26 C
2172 28-07-2019 12:55:00 20.5 C 87 % 18.26 C
2173 28-07-2019 13:00:00 20.5 C 87 % 18.26 C
2174 28-07-2019 13:05:00 20.6 C 87 % 18.36 C
2175 28-07-2019 13:10:00 20.5 C 86 % 18.08 C
Sensor: Nr:Datum:Temp:Feuchte:Taupunkt:
Aussen-T/F 2176 28-07-2019 13:15:00 20.5 C 86 % 18.08 C
2177 28-07-2019 13:20:00 20.4 C 86 % 17.98 C
2178 28-07-2019 13:25:00 20.4 C 87 % 18.16 C
2179 28-07-2019 13:30:00 20.4 C 87 % 18.16 C
2180 28-07-2019 13:35:00 20.3 C 87 % 18.06 C
2181 28-07-2019 13:40:00 20.2 C 88 % 18.15 C
2182 28-07-2019 13:45:00 20.1 C 89 % 18.23 C
2183 28-07-2019 13:50:00 19.9 C 89 % 18.03 C
2184 28-07-2019 13:55:00 19.9 C 89 % 18.03 C
2185 28-07-2019 14:00:00 19.9 C 89 % 18.03 C
2186 28-07-2019 14:05:00 19.9 C 89 % 18.03 C
2187 28-07-2019 14:10:00 19.9 C 90 % 18.21 C
2188 28-07-2019 14:15:00 19.9 C 90 % 18.21 C
2189 28-07-2019 14:20:00 19.9 C 90 % 18.21 C
2190 28-07-2019 14:25:00 20 C 89 % 18.13 C
2191 28-07-2019 14:30:00 20.1 C 89 % 18.23 C
2192 28-07-2019 14:35:00 20.1 C 89 % 18.23 C
2193 28-07-2019 14:40:00 20.1 C 89 % 18.23 C
2194 28-07-2019 14:45:00 20.1 C 89 % 18.23 C
2195 28-07-2019 14:50:00 20 C 89 % 18.13 C
2196 28-07-2019 14:55:00 19.9 C 89 % 18.03 C
2197 28-07-2019 15:00:00 20 C 89 % 18.13 C
2198 28-07-2019 15:05:00 19.9 C 89 % 18.03 C
2199 28-07-2019 15:10:00 19.9 C 88 % 17.85 C
2200 28-07-2019 15:15:00 19.9 C 88 % 17.85 C
Sensor: Nr:Datum:Temp:Feuchte:Taupunkt:
Aussen-T/F 2201 28-07-2019 15:20:00 19.9 C 89 % 18.03 C
2202 28-07-2019 15:25:00 19.9 C 88 % 17.85 C
2203 28-07-2019 15:30:00 19.9 C 88 % 17.85 C
2204 28-07-2019 15:35:00 19.9 C 88 % 17.85 C
2205 28-07-2019 15:40:00 19.9 C 88 % 17.85 C
2206 28-07-2019 15:45:00 19.9 C 88 % 17.85 C
2207 28-07-2019 15:50:00 19.9 C 88 % 17.85 C
2208 28-07-2019 15:55:00 19.9 C 87 % 17.67 C
2209 28-07-2019 16:00:00 19.9 C 88 % 17.85 C
2210 28-07-2019 16:05:00 19.9 C 87 % 17.67 C
2211 28-07-2019 16:10:00 19.9 C 87 % 17.67 C
2212 28-07-2019 16:15:00 19.9 C 87 % 17.67 C
2213 28-07-2019 16:20:00 19.8 C 87 % 17.57 C
2214 28-07-2019 16:25:00 19.8 C 88 % 17.75 C
2215 28-07-2019 16:30:00 19.8 C 88 % 17.75 C
2216 28-07-2019 16:35:00 19.8 C 88 % 17.75 C
2217 28-07-2019 16:40:00 19.8 C 88 % 17.75 C
2218 28-07-2019 16:45:00 19.7 C 88 % 17.66 C
2219 28-07-2019 16:50:00 19.7 C 88 % 17.66 C
2220 28-07-2019 16:55:00 19.8 C 88 % 17.75 C
2221 28-07-2019 17:00:00 19.7 C 88 % 17.66 C
2222 28-07-2019 17:05:00 19.8 C 89 % 17.93 C
2223 28-07-2019 17:10:00 19.7 C 89 % 17.84 C
2224 28-07-2019 17:15:00 19.6 C 89 % 17.74 C
2225 28-07-2019 17:20:00 19.4 C 89 % 17.54 C
Sensor: Nr:Datum:Temp:Feuchte:Taupunkt:
Aussen-T/F 2226 28-07-2019 17:25:00 19.4 C 90 % 17.72 C
2227 28-07-2019 17:30:00 19.4 C 90 % 17.72 C
2228 28-07-2019 17:35:00 19.3 C 90 % 17.62 C
2229 28-07-2019 17:40:00 19.3 C 90 % 17.62 C
2230 28-07-2019 17:45:00 19.3 C 91 % 17.79 C
2231 28-07-2019 17:50:00 19.3 C 91 % 17.79 C
2232 28-07-2019 17:55:00 19.3 C 92 % 17.97 C
2233 28-07-2019 18:00:00 19.2 C 91 % 17.69 C
2234 28-07-2019 18:05:00 19.2 C 91 % 17.69 C
2235 28-07-2019 18:10:00 19.2 C 91 % 17.69 C
2236 28-07-2019 18:15:00 19.3 C 91 % 17.79 C
2237 28-07-2019 18:20:00 19.2 C 90 % 17.52 C
2238 28-07-2019 18:25:00 19.2 C 90 % 17.52 C
2239 28-07-2019 18:30:00 19.2 C 90 % 17.52 C
2240 28-07-2019 18:35:00 19.2 C 90 % 17.52 C
2241 28-07-2019 18:40:00 19.1 C 90 % 17.42 C
2242 28-07-2019 18:45:00 19.1 C 90 % 17.42 C
2243 28-07-2019 18:50:00 19.1 C 90 % 17.42 C
2244 28-07-2019 18:55:00 19.1 C 91 % 17.6 C
2245 28-07-2019 19:00:00 19.1 C 91 % 17.6 C
2246 28-07-2019 19:05:00 19.1 C 91 % 17.6 C
2247 28-07-2019 19:10:00 19 C 91 % 17.5 C
2248 28-07-2019 19:15:00 18.9 C 91 % 17.4 C
2249 28-07-2019 19:20:00 18.9 C 91 % 17.4 C
2250 28-07-2019 19:25:00 18.9 C 92 % 17.57 C
Sensor: Nr:Datum:Temp:Feuchte:Taupunkt:
Aussen-T/F 2251 28-07-2019 19:30:00 18.9 C 92 % 17.57 C
2252 28-07-2019 19:35:00 18.8 C 92 % 17.47 C
2253 28-07-2019 19:40:00 18.8 C 92 % 17.47 C
2254 28-07-2019 19:45:00 18.7 C 92 % 17.37 C
2255 28-07-2019 19:50:00 18.7 C 92 % 17.37 C
2256 28-07-2019 19:55:00 18.7 C 92 % 17.37 C
2257 28-07-2019 20:00:00 18.7 C 92 % 17.37 C
2258 28-07-2019 20:05:00 18.7 C 92 % 17.37 C
2259 28-07-2019 20:10:00 18.6 C 92 % 17.27 C
2260 28-07-2019 20:15:00 18.6 C 93 % 17.45 C
2261 28-07-2019 20:20:00 18.6 C 93 % 17.45 C
2262 28-07-2019 20:25:00 18.6 C 93 % 17.45 C
2263 28-07-2019 20:30:00 18.5 C 93 % 17.35 C
2264 28-07-2019 20:35:00 18.4 C 93 % 17.25 C
2265 28-07-2019 20:40:00 18.4 C 93 % 17.25 C
2266 28-07-2019 20:45:00 18.3 C 93 % 17.15 C
2267 28-07-2019 20:50:00 18.3 C 93 % 17.15 C
2268 28-07-2019 20:55:00 18.3 C 93 % 17.15 C
2269 28-07-2019 21:00:00 18.2 C 93 % 17.05 C
2270 28-07-2019 21:05:00 18.2 C 93 % 17.05 C
2271 28-07-2019 21:10:00 18.2 C 94 % 17.22 C
2272 28-07-2019 21:15:00 18.2 C 94 % 17.22 C
2273 28-07-2019 21:20:00 18.2 C 94 % 17.22 C
2274 28-07-2019 21:25:00 18.2 C 94 % 17.22 C
2275 28-07-2019 21:30:00 18.2 C 94 % 17.22 C
Sensor: Nr:Datum:Temp:Feuchte:Taupunkt:
Aussen-T/F 2276 28-07-2019 21:35:00 18.2 C 94 % 17.22 C
2277 28-07-2019 21:40:00 18.2 C 94 % 17.22 C
2278 28-07-2019 21:45:00 18.1 C 94 % 17.12 C
2279 28-07-2019 21:50:00 18.1 C 94 % 17.12 C
2280 28-07-2019 21:55:00 18.1 C 94 % 17.12 C
2281 28-07-2019 22:00:00 18.1 C 94 % 17.12 C
2282 28-07-2019 22:05:00 18.1 C 94 % 17.12 C
2283 28-07-2019 22:10:00 18 C 94 % 17.02 C
2284 28-07-2019 22:15:00 17.9 C 95 % 17.09 C
2285 28-07-2019 22:20:00 17.9 C 95 % 17.09 C
2286 28-07-2019 22:25:00 17.9 C 95 % 17.09 C
2287 28-07-2019 22:30:00 17.9 C 95 % 17.09 C
2288 28-07-2019 22:35:00 17.9 C 95 % 17.09 C
2289 28-07-2019 22:40:00 17.8 C 95 % 16.99 C
2290 28-07-2019 22:45:00 17.8 C 95 % 16.99 C
2291 28-07-2019 22:50:00 17.8 C 95 % 16.99 C
2292 28-07-2019 22:55:00 17.8 C 95 % 16.99 C
2293 28-07-2019 23:00:00 17.7 C 95 % 16.89 C
2294 28-07-2019 23:05:00 17.7 C 95 % 16.89 C
2295 28-07-2019 23:10:00 17.7 C 95 % 16.89 C
2296 28-07-2019 23:15:00 17.7 C 95 % 16.89 C
2297 28-07-2019 23:20:00 17.7 C 95 % 16.89 C
2298 28-07-2019 23:25:00 17.6 C 95 % 16.79 C
2299 28-07-2019 23:30:00 17.6 C 95 % 16.79 C
2300 28-07-2019 23:35:00 17.6 C 95 % 16.79 C
Sensor: Nr:Datum:Temp:Feuchte:Taupunkt:
Aussen-T/F 2301 28-07-2019 23:40:00 17.5 C 95 % 16.69 C
2302 28-07-2019 23:45:00 17.5 C 95 % 16.69 C
2303 28-07-2019 23:50:00 17.4 C 95 % 16.59 C
2304 28-07-2019 23:55:00 17.5 C 95 % 16.69 C
2305 29-07-2019 00:00:00 17.4 C 95 % 16.59 C
2306 29-07-2019 00:05:00 17.4 C 95 % 16.59 C
2307 29-07-2019 00:10:00 17.4 C 95 % 16.59 C
2308 29-07-2019 00:15:00 17.4 C 95 % 16.59 C
2309 29-07-2019 00:20:00 17.4 C 95 % 16.59 C
2310 29-07-2019 00:25:00 17.4 C 95 % 16.59 C
2311 29-07-2019 00:30:00 17.3 C 95 % 16.49 C
2312 29-07-2019 00:35:00 17.3 C 95 % 16.49 C
2313 29-07-2019 00:40:00 17.3 C 95 % 16.49 C
2314 29-07-2019 00:45:00 17.2 C 95 % 16.39 C
2315 29-07-2019 00:50:00 17.2 C 95 % 16.39 C
2316 29-07-2019 00:55:00 17.2 C 95 % 16.39 C
2317 29-07-2019 01:00:00 17.1 C 95 % 16.29 C
2318 29-07-2019 01:05:00 17.2 C 95 % 16.39 C
2319 29-07-2019 01:10:00 17.1 C 95 % 16.29 C
2320 29-07-2019 01:15:00 17.1 C 95 % 16.29 C
2321 29-07-2019 01:20:00 17.1 C 95 % 16.29 C
2322 29-07-2019 01:25:00 17.1 C 95 % 16.29 C
2323 29-07-2019 01:30:00 17.1 C 95 % 16.29 C
2324 29-07-2019 01:35:00 17.1 C 95 % 16.29 C
2325 29-07-2019 01:40:00 17.1 C 95 % 16.29 C
Sensor: Nr:Datum:Temp:Feuchte:Taupunkt:
Aussen-T/F 2326 29-07-2019 01:45:00 17.1 C 95 % 16.29 C
2327 29-07-2019 01:50:00 17.1 C 95 % 16.29 C
2328 29-07-2019 01:55:00 17.1 C 95 % 16.29 C
2329 29-07-2019 02:00:00 17.1 C 95 % 16.29 C
2330 29-07-2019 02:05:00 17 C 95 % 16.19 C
2331 29-07-2019 02:10:00 17 C 95 % 16.19 C
2332 29-07-2019 02:15:00 17 C 96 % 16.36 C
2333 29-07-2019 02:20:00 17 C 96 % 16.36 C
2334 29-07-2019 02:25:00 17 C 96 % 16.36 C
2335 29-07-2019 02:30:00 17 C 96 % 16.36 C
2336 29-07-2019 02:35:00 17 C 96 % 16.36 C
2337 29-07-2019 02:40:00 16.9 C 96 % 16.26 C
2338 29-07-2019 02:45:00 16.9 C 96 % 16.26 C
2339 29-07-2019 02:50:00 16.9 C 96 % 16.26 C
2340 29-07-2019 02:55:00 16.9 C 96 % 16.26 C
2341 29-07-2019 03:00:00 16.9 C 96 % 16.26 C
2342 29-07-2019 03:05:00 16.9 C 96 % 16.26 C
2343 29-07-2019 03:10:00 16.9 C 96 % 16.26 C
2344 29-07-2019 03:15:00 16.9 C 96 % 16.26 C
2345 29-07-2019 03:20:00 16.9 C 96 % 16.26 C
2346 29-07-2019 03:25:00 16.8 C 96 % 16.16 C
2347 29-07-2019 03:30:00 16.8 C 96 % 16.16 C
2348 29-07-2019 03:35:00 16.8 C 96 % 16.16 C
2349 29-07-2019 03:40:00 16.8 C 96 % 16.16 C
2350 29-07-2019 03:45:00 16.8 C 96 % 16.16 C
Sensor: Nr:Datum:Temp:Feuchte:Taupunkt:
Aussen-T/F 2351 29-07-2019 03:50:00 16.8 C 96 % 16.16 C
2352 29-07-2019 03:55:00 16.8 C 96 % 16.16 C
2353 29-07-2019 04:00:00 16.9 C 96 % 16.26 C
2354 29-07-2019 04:05:00 16.8 C 96 % 16.16 C
2355 29-07-2019 04:10:00 16.8 C 96 % 16.16 C
2356 29-07-2019 04:15:00 16.8 C 96 % 16.16 C
2357 29-07-2019 04:20:00 16.8 C 96 % 16.16 C
2358 29-07-2019 04:25:00 16.8 C 96 % 16.16 C
2359 29-07-2019 04:30:00 16.8 C 96 % 16.16 C
2360 29-07-2019 04:35:00 16.8 C 96 % 16.16 C
2361 29-07-2019 04:40:00 16.8 C 96 % 16.16 C
2362 29-07-2019 04:45:00 16.8 C 96 % 16.16 C
2363 29-07-2019 04:50:00 16.8 C 96 % 16.16 C
2364 29-07-2019 04:55:00 16.8 C 96 % 16.16 C
2365 29-07-2019 05:00:00 16.8 C 96 % 16.16 C
2366 29-07-2019 05:05:00 16.8 C 96 % 16.16 C
2367 29-07-2019 05:10:00 16.8 C 96 % 16.16 C
2368 29-07-2019 05:15:00 16.8 C 96 % 16.16 C
2369 29-07-2019 05:20:00 16.8 C 96 % 16.16 C
2370 29-07-2019 05:25:00 16.7 C 96 % 16.06 C
2371 29-07-2019 05:30:00 16.7 C 96 % 16.06 C
2372 29-07-2019 05:35:00 16.7 C 96 % 16.06 C
2373 29-07-2019 05:40:00 16.7 C 96 % 16.06 C
2374 29-07-2019 05:45:00 16.7 C 96 % 16.06 C
2375 29-07-2019 05:50:00 16.7 C 96 % 16.06 C
Sensor: Nr:Datum:Temp:Feuchte:Taupunkt:
Aussen-T/F 2376 29-07-2019 05:55:00 16.7 C 96 % 16.06 C
2377 29-07-2019 06:00:00 16.7 C 96 % 16.06 C
2378 29-07-2019 06:05:00 16.7 C 96 % 16.06 C
2379 29-07-2019 06:10:00 16.7 C 96 % 16.06 C
2380 29-07-2019 06:15:00 16.7 C 96 % 16.06 C
2381 29-07-2019 06:20:00 16.7 C 96 % 16.06 C
2382 29-07-2019 06:25:00 16.7 C 96 % 16.06 C
2383 29-07-2019 06:30:00 16.7 C 96 % 16.06 C
2384 29-07-2019 06:35:00 16.7 C 96 % 16.06 C
2385 29-07-2019 06:40:00 16.7 C 96 % 16.06 C
2386 29-07-2019 06:45:00 16.8 C 96 % 16.16 C
2387 29-07-2019 06:50:00 16.8 C 96 % 16.16 C
2388 29-07-2019 06:55:00 16.8 C 96 % 16.16 C
2389 29-07-2019 07:00:00 16.9 C 96 % 16.26 C
2390 29-07-2019 07:05:00 16.9 C 96 % 16.26 C
2391 29-07-2019 07:10:00 16.9 C 96 % 16.26 C
2392 29-07-2019 07:15:00 17 C 96 % 16.36 C
2393 29-07-2019 07:20:00 17.1 C 96 % 16.46 C
2394 29-07-2019 07:25:00 17.1 C 96 % 16.46 C
2395 29-07-2019 07:30:00 16.9 C 96 % 16.26 C
2396 29-07-2019 07:35:00 16.9 C 96 % 16.26 C
2397 29-07-2019 07:40:00 17 C 96 % 16.36 C
2398 29-07-2019 07:45:00 17 C 95 % 16.19 C
2399 29-07-2019 07:50:00 17.1 C 95 % 16.29 C
2400 29-07-2019 07:55:00 17.1 C 95 % 16.29 C
Sensor: Nr:Datum:Temp:Feuchte:Taupunkt:
Aussen-T/F 2401 29-07-2019 08:00:00 17.2 C 95 % 16.39 C
2402 29-07-2019 08:05:00 17.2 C 94 % 16.23 C
2403 29-07-2019 08:10:00 17.3 C 94 % 16.33 C
2404 29-07-2019 08:15:00 17.3 C 93 % 16.16 C
2405 29-07-2019 08:20:00 17.4 C 94 % 16.42 C
2406 29-07-2019 08:25:00 17.4 C 93 % 16.26 C
2407 29-07-2019 08:30:00 17.4 C 92 % 16.09 C
2408 29-07-2019 08:35:00 17.6 C 92 % 16.28 C
2409 29-07-2019 08:40:00 17.6 C 92 % 16.28 C
2410 29-07-2019 08:45:00 17.6 C 91 % 16.11 C
2411 29-07-2019 08:50:00 17.7 C 90 % 16.04 C
2412 29-07-2019 08:55:00 17.9 C 91 % 16.41 C
2413 29-07-2019 09:00:00 18 C 90 % 16.34 C
2414 29-07-2019 09:05:00 18.2 C 90 % 16.53 C
2415 29-07-2019 09:10:00 18.2 C 88 % 16.18 C
2416 29-07-2019 09:15:00 18.3 C 88 % 16.28 C
2417 29-07-2019 09:20:00 18.3 C 88 % 16.28 C
2418 29-07-2019 09:25:00 18.4 C 87 % 16.2 C
2419 29-07-2019 09:30:00 18.6 C 86 % 16.21 C
2420 29-07-2019 09:35:00 18.7 C 86 % 16.31 C
2421 29-07-2019 09:40:00 18.8 C 84 % 16.04 C
2422 29-07-2019 09:45:00 18.8 C 83 % 15.85 C
2423 29-07-2019 09:50:00 18.8 C 83 % 15.85 C
2424 29-07-2019 09:55:00 18.8 C 83 % 15.85 C
2425 29-07-2019 10:00:00 18.8 C 82 % 15.66 C
Sensor: Nr:Datum:Temp:Feuchte:Taupunkt:
Aussen-T/F 2426 29-07-2019 10:05:00 18.8 C 83 % 15.85 C
2427 29-07-2019 10:10:00 18.9 C 83 % 15.95 C
2428 29-07-2019 10:15:00 19.1 C 81 % 15.76 C
2429 29-07-2019 10:20:00 19.3 C 80 % 15.76 C
2430 29-07-2019 10:25:00 19.4 C 79 % 15.66 C
2431 29-07-2019 10:30:00 19.5 C 79 % 15.76 C
2432 29-07-2019 10:35:00 19.7 C 79 % 15.96 C
2433 29-07-2019 10:40:00 19.7 C 77 % 15.56 C
2434 29-07-2019 10:45:00 19.8 C 78 % 15.85 C
2435 29-07-2019 10:50:00 19.8 C 76 % 15.45 C
2436 29-07-2019 10:55:00 19.9 C 75 % 15.34 C
2437 29-07-2019 11:00:00 19.9 C 75 % 15.34 C
2438 29-07-2019 11:05:00 20 C 76 % 15.64 C
2439 29-07-2019 11:10:00 20 C 75 % 15.43 C
2440 29-07-2019 11:15:00 20.1 C 75 % 15.53 C
2441 29-07-2019 11:20:00 20.2 C 75 % 15.63 C
2442 29-07-2019 11:25:00 20.3 C 76 % 15.93 C
2443 29-07-2019 11:30:00 20.4 C 74 % 15.61 C
2444 29-07-2019 11:35:00 20.6 C 73 % 15.59 C
2445 29-07-2019 11:40:00 20.8 C 72 % 15.57 C
2446 29-07-2019 11:45:00 21 C 72 % 15.76 C
2447 29-07-2019 11:50:00 21.2 C 72 % 15.95 C
2448 29-07-2019 11:55:00 21.2 C 70 % 15.51 C
2449 29-07-2019 12:00:00 21.4 C 68 % 15.25 C
2450 29-07-2019 12:05:00 21.5 C 67 % 15.12 C
Sensor: Nr:Datum:Temp:Feuchte:Taupunkt:
Aussen-T/F 2451 29-07-2019 12:10:00 21.6 C 69 % 15.67 C
2452 29-07-2019 12:15:00 21.6 C 68 % 15.44 C
2453 29-07-2019 12:20:00 21.8 C 68 % 15.63 C
2454 29-07-2019 12:25:00 21.9 C 66 % 15.26 C
2455 29-07-2019 12:30:00 22.1 C 66 % 15.45 C
2456 29-07-2019 12:35:00 22.1 C 65 % 15.21 C
2457 29-07-2019 12:40:00 22.2 C 66 % 15.55 C
2458 29-07-2019 12:45:00 22.3 C 65 % 15.4 C
2459 29-07-2019 12:50:00 22.4 C 65 % 15.5 C
2460 29-07-2019 12:55:00 22.5 C 64 % 15.35 C
2461 29-07-2019 13:00:00 22.6 C 65 % 15.69 C
2462 29-07-2019 13:05:00 22.7 C 63 % 15.3 C
2463 29-07-2019 13:10:00 22.8 C 64 % 15.64 C
2464 29-07-2019 13:15:00 23 C 61 % 15.08 C
2465 29-07-2019 13:20:00 23.2 C 61 % 15.26 C
2466 29-07-2019 13:25:00 23.3 C 62 % 15.61 C
2467 29-07-2019 13:30:00 23.5 C 61 % 15.55 C
2468 29-07-2019 13:35:00 23.6 C 62 % 15.89 C
2469 29-07-2019 13:40:00 23.5 C 62 % 15.8 C
2470 29-07-2019 13:45:00 23.5 C 62 % 15.8 C
2471 29-07-2019 13:50:00 23.6 C 61 % 15.64 C
2472 29-07-2019 13:55:00 23.7 C 60 % 15.48 C
2473 29-07-2019 14:00:00 23.7 C 60 % 15.48 C
2474 29-07-2019 14:05:00 23.8 C 60 % 15.57 C
2475 29-07-2019 14:10:00 23.9 C 61 % 15.92 C
Sensor: Nr:Datum:Temp:Feuchte:Taupunkt:
Aussen-T/F 2476 29-07-2019 14:15:00 24.2 C 59 % 15.68 C
2477 29-07-2019 14:20:00 24.4 C 58 % 15.6 C
2478 29-07-2019 14:25:00 24.5 C 58 % 15.7 C
2479 29-07-2019 14:30:00 24.7 C 56 % 15.33 C
2480 29-07-2019 14:35:00 24.7 C 57 % 15.61 C
2481 29-07-2019 14:40:00 24.7 C 57 % 15.61 C
2482 29-07-2019 14:45:00 24.8 C 54 % 14.86 C
2483 29-07-2019 14:50:00 24.8 C 55 % 15.15 C
2484 29-07-2019 14:55:00 24.8 C 55 % 15.15 C
2485 29-07-2019 15:00:00 24.8 C 54 % 14.86 C
2486 29-07-2019 15:05:00 24.9 C 54 % 14.95 C
2487 29-07-2019 15:10:00 25.1 C 54 % 15.14 C
2488 29-07-2019 15:15:00 25.4 C 53 % 15.13 C
2489 29-07-2019 15:20:00 25.6 C 52 % 15.02 C
2490 29-07-2019 15:25:00 25.7 C 51 % 14.81 C
2491 29-07-2019 15:30:00 25.9 C 51 % 14.99 C
2492 29-07-2019 15:35:00 26.1 C 51 % 15.17 C
2493 29-07-2019 15:40:00 26.1 C 50 % 14.87 C
2494 29-07-2019 15:45:00 26.4 C 50 % 15.14 C
2495 29-07-2019 15:50:00 26.8 C 49 % 15.19 C
2496 29-07-2019 15:55:00 27.2 C 48 % 15.24 C
2497 29-07-2019 16:00:00 27.3 C 47 % 15 C
2498 29-07-2019 16:05:00 27.4 C 47 % 15.09 C
2499 29-07-2019 16:10:00 27.6 C 46 % 14.94 C
2500 29-07-2019 16:15:00 27.3 C 47 % 15 C
Sensor: Nr:Datum:Temp:Feuchte:Taupunkt:
Aussen-T/F 2501 29-07-2019 16:20:00 27.2 C 47 % 14.91 C
2502 29-07-2019 16:25:00 27.2 C 46 % 14.58 C
2503 29-07-2019 16:30:00 27.3 C 47 % 15 C
2504 29-07-2019 16:35:00 27.7 C 45 % 14.69 C
2505 29-07-2019 16:40:00 27.9 C 45 % 14.87 C
2506 29-07-2019 16:45:00 28.2 C 44 % 14.79 C
2507 29-07-2019 16:50:00 28.2 C 44 % 14.79 C
2508 29-07-2019 16:55:00 27.9 C 44 % 14.52 C
2509 29-07-2019 17:00:00 27.9 C 45 % 14.87 C
2510 29-07-2019 17:05:00 28 C 45 % 14.96 C
2511 29-07-2019 17:10:00 28.3 C 44 % 14.88 C
2512 29-07-2019 17:15:00 28.4 C 43 % 14.62 C
2513 29-07-2019 17:20:00 28.3 C 42 % 14.16 C
2514 29-07-2019 17:25:00 28.4 C 43 % 14.62 C
2515 29-07-2019 17:30:00 28.4 C 42 % 14.25 C
2516 29-07-2019 17:35:00 28.4 C 43 % 14.62 C
2517 29-07-2019 17:40:00 28.6 C 43 % 14.8 C
2518 29-07-2019 17:45:00 28.3 C 43 % 14.53 C
2519 29-07-2019 17:50:00 28.1 C 43 % 14.35 C
2520 29-07-2019 17:55:00 27.7 C 43 % 13.99 C
2521 29-07-2019 18:00:00 27.4 C 44 % 14.07 C
2522 29-07-2019 18:05:00 27.2 C 44 % 13.89 C
2523 29-07-2019 18:10:00 27.1 C 45 % 14.15 C
2524 29-07-2019 18:15:00 27.3 C 45 % 14.33 C
2525 29-07-2019 18:20:00 27.4 C 44 % 14.07 C
Sensor: Nr:Datum:Temp:Feuchte:Taupunkt:
Aussen-T/F 2526 29-07-2019 18:25:00 27.4 C 44 % 14.07 C
2527 29-07-2019 18:30:00 27.4 C 44 % 14.07 C
2528 29-07-2019 18:35:00 27.7 C 44 % 14.34 C
2529 29-07-2019 18:40:00 28 C 43 % 14.26 C
2530 29-07-2019 18:45:00 28.3 C 42 % 14.16 C
2531 29-07-2019 18:50:00 28.6 C 42 % 14.43 C
2532 29-07-2019 18:55:00 28.7 C 41 % 14.15 C
2533 29-07-2019 19:00:00 28.8 C 41 % 14.24 C
2534 29-07-2019 19:05:00 28.9 C 42 % 14.7 C
2535 29-07-2019 19:10:00 28.9 C 41 % 14.33 C
2536 29-07-2019 19:15:00 28.8 C 41 % 14.24 C
2537 29-07-2019 19:20:00 28.6 C 42 % 14.43 C
2538 29-07-2019 19:25:00 28.1 C 43 % 14.35 C
2539 29-07-2019 19:30:00 27.9 C 44 % 14.52 C
2540 29-07-2019 19:35:00 27.7 C 44 % 14.34 C
2541 29-07-2019 19:40:00 27.6 C 45 % 14.6 C
2542 29-07-2019 19:45:00 27.4 C 46 % 14.76 C
2543 29-07-2019 19:50:00 27.3 C 45 % 14.33 C
2544 29-07-2019 19:55:00 27.2 C 46 % 14.58 C
2545 29-07-2019 20:00:00 27.1 C 46 % 14.49 C
2546 29-07-2019 20:05:00 27 C 47 % 14.73 C
2547 29-07-2019 20:10:00 26.8 C 47 % 14.55 C
2548 29-07-2019 20:15:00 26.6 C 48 % 14.69 C
2549 29-07-2019 20:20:00 26.4 C 49 % 14.83 C
2550 29-07-2019 20:25:00 26.3 C 49 % 14.74 C
Sensor: Nr:Datum:Temp:Feuchte:Taupunkt:
Aussen-T/F 2551 29-07-2019 20:30:00 26.3 C 50 % 15.05 C
2552 29-07-2019 20:35:00 26.2 C 50 % 14.96 C
2553 29-07-2019 20:40:00 26 C 50 % 14.77 C
2554 29-07-2019 20:45:00 25.9 C 51 % 14.99 C
2555 29-07-2019 20:50:00 25.8 C 51 % 14.9 C
2556 29-07-2019 20:55:00 25.6 C 52 % 15.02 C
2557 29-07-2019 21:00:00 25.3 C 55 % 15.61 C
2558 29-07-2019 21:05:00 24.9 C 56 % 15.52 C
2559 29-07-2019 21:10:00 24.5 C 59 % 15.96 C
2560 29-07-2019 21:15:00 24 C 59 % 15.5 C
2561 29-07-2019 21:20:00 23.5 C 60 % 15.29 C
2562 29-07-2019 21:25:00 23 C 61 % 15.08 C
2563 29-07-2019 21:30:00 22.6 C 63 % 15.2 C
2564 29-07-2019 21:35:00 22.2 C 64 % 15.07 C
2565 29-07-2019 21:40:00 21.9 C 65 % 15.02 C
2566 29-07-2019 21:45:00 21.8 C 66 % 15.17 C
2567 29-07-2019 21:50:00 21.6 C 66 % 14.98 C
2568 29-07-2019 21:55:00 21.4 C 66 % 14.79 C
2569 29-07-2019 22:00:00 21.3 C 67 % 14.93 C
2570 29-07-2019 22:05:00 21.2 C 68 % 15.06 C
2571 29-07-2019 22:10:00 21.1 C 68 % 14.97 C
2572 29-07-2019 22:15:00 21 C 68 % 14.87 C
2573 29-07-2019 22:20:00 20.9 C 68 % 14.77 C
2574 29-07-2019 22:25:00 20.8 C 69 % 14.91 C
2575 29-07-2019 22:30:00 20.8 C 70 % 15.13 C
Sensor: Nr:Datum:Temp:Feuchte:Taupunkt:
Aussen-T/F 2576 29-07-2019 22:35:00 20.7 C 71 % 15.25 C
2577 29-07-2019 22:40:00 20.6 C 71 % 15.16 C
2578 29-07-2019 22:45:00 20.4 C 71 % 14.97 C
2579 29-07-2019 22:50:00 20.2 C 72 % 14.99 C
2580 29-07-2019 22:55:00 20.1 C 73 % 15.11 C
2581 29-07-2019 23:00:00 20 C 73 % 15.01 C
2582 29-07-2019 23:05:00 19.9 C 73 % 14.92 C
2583 29-07-2019 23:10:00 19.8 C 74 % 15.03 C
2584 29-07-2019 23:15:00 19.7 C 75 % 15.15 C
2585 29-07-2019 23:20:00 19.6 C 75 % 15.05 C
2586 29-07-2019 23:25:00 19.4 C 75 % 14.86 C
2587 29-07-2019 23:30:00 19.3 C 76 % 14.97 C
2588 29-07-2019 23:35:00 19.1 C 76 % 14.77 C
2589 29-07-2019 23:40:00 19 C 77 % 14.88 C
2590 29-07-2019 23:45:00 18.8 C 77 % 14.68 C
2591 29-07-2019 23:50:00 18.8 C 78 % 14.88 C
2592 29-07-2019 23:55:00 18.7 C 78 % 14.79 C
2593 30-07-2019 00:00:00 18.5 C 79 % 14.79 C
2594 30-07-2019 00:05:00 18.3 C 79 % 14.6 C
2595 30-07-2019 00:10:00 18.2 C 80 % 14.69 C
2596 30-07-2019 00:15:00 18.1 C 80 % 14.6 C
2597 30-07-2019 00:20:00 18 C 81 % 14.69 C
2598 30-07-2019 00:25:00 17.9 C 81 % 14.59 C
2599 30-07-2019 00:30:00 17.8 C 81 % 14.5 C
2600 30-07-2019 00:35:00 17.8 C 82 % 14.69 C
Sensor: Nr:Datum:Temp:Feuchte:Taupunkt:
Aussen-T/F 2601 30-07-2019 00:40:00 17.7 C 82 % 14.59 C
2602 30-07-2019 00:45:00 17.7 C 82 % 14.59 C
2603 30-07-2019 00:50:00 17.7 C 83 % 14.78 C
2604 30-07-2019 00:55:00 17.7 C 83 % 14.78 C
2605 30-07-2019 01:00:00 17.7 C 83 % 14.78 C
2606 30-07-2019 01:05:00 17.7 C 84 % 14.96 C
2607 30-07-2019 01:10:00 17.7 C 83 % 14.78 C
2608 30-07-2019 01:15:00 17.7 C 83 % 14.78 C
2609 30-07-2019 01:20:00 17.6 C 83 % 14.68 C
2610 30-07-2019 01:25:00 17.5 C 83 % 14.58 C
2611 30-07-2019 01:30:00 17.4 C 83 % 14.48 C
2612 30-07-2019 01:35:00 17.3 C 84 % 14.57 C
2613 30-07-2019 01:40:00 17.2 C 84 % 14.47 C
2614 30-07-2019 01:45:00 17.2 C 84 % 14.47 C
2615 30-07-2019 01:50:00 17.1 C 84 % 14.38 C
2616 30-07-2019 01:55:00 17 C 84 % 14.28 C
2617 30-07-2019 02:00:00 16.9 C 84 % 14.18 C
2618 30-07-2019 02:05:00 16.9 C 85 % 14.36 C
2619 30-07-2019 02:10:00 16.8 C 85 % 14.26 C
2620 30-07-2019 02:15:00 16.8 C 85 % 14.26 C
2621 30-07-2019 02:20:00 16.7 C 85 % 14.17 C
2622 30-07-2019 02:25:00 16.6 C 85 % 14.07 C
2623 30-07-2019 02:30:00 16.6 C 86 % 14.25 C
2624 30-07-2019 02:35:00 16.5 C 86 % 14.15 C
2625 30-07-2019 02:40:00 16.4 C 86 % 14.05 C
Sensor: Nr:Datum:Temp:Feuchte:Taupunkt:
Aussen-T/F 2626 30-07-2019 02:45:00 16.4 C 86 % 14.05 C
2627 30-07-2019 02:50:00 16.3 C 86 % 13.95 C
2628 30-07-2019 02:55:00 16.3 C 87 % 14.13 C
2629 30-07-2019 03:00:00 16.2 C 87 % 14.03 C
2630 30-07-2019 03:05:00 16.1 C 87 % 13.94 C
2631 30-07-2019 03:10:00 16 C 87 % 13.84 C
2632 30-07-2019 03:15:00 15.9 C 88 % 13.92 C
2633 30-07-2019 03:20:00 15.9 C 88 % 13.92 C
2634 30-07-2019 03:25:00 15.9 C 88 % 13.92 C
2635 30-07-2019 03:30:00 15.9 C 88 % 13.92 C
2636 30-07-2019 03:35:00 15.8 C 89 % 13.99 C
2637 30-07-2019 03:40:00 15.8 C 89 % 13.99 C
2638 30-07-2019 03:45:00 15.7 C 89 % 13.89 C
2639 30-07-2019 03:50:00 15.7 C 89 % 13.89 C
2640 30-07-2019 03:55:00 15.6 C 89 % 13.79 C
2641 30-07-2019 04:00:00 15.6 C 89 % 13.79 C
2642 30-07-2019 04:05:00 15.6 C 89 % 13.79 C
2643 30-07-2019 04:10:00 15.5 C 90 % 13.87 C
2644 30-07-2019 04:15:00 15.5 C 90 % 13.87 C
2645 30-07-2019 04:20:00 15.4 C 90 % 13.77 C
2646 30-07-2019 04:25:00 15.4 C 90 % 13.77 C
2647 30-07-2019 04:30:00 15.4 C 90 % 13.77 C
2648 30-07-2019 04:35:00 15.3 C 90 % 13.67 C
2649 30-07-2019 04:40:00 15.3 C 90 % 13.67 C
2650 30-07-2019 04:45:00 15.3 C 91 % 13.84 C
Sensor: Nr:Datum:Temp:Feuchte:Taupunkt:
Aussen-T/F 2651 30-07-2019 04:50:00 15.3 C 91 % 13.84 C
2652 30-07-2019 04:55:00 15.2 C 91 % 13.74 C
2653 30-07-2019 05:00:00 15.2 C 91 % 13.74 C
2654 30-07-2019 05:05:00 15.1 C 91 % 13.64 C
2655 30-07-2019 05:10:00 15.1 C 91 % 13.64 C
2656 30-07-2019 05:15:00 15.1 C 91 % 13.64 C
2657 30-07-2019 05:20:00 15.1 C 91 % 13.64 C
2658 30-07-2019 05:25:00 15.1 C 91 % 13.64 C
2659 30-07-2019 05:30:00 15.1 C 92 % 13.81 C
2660 30-07-2019 05:35:00 15 C 92 % 13.71 C
2661 30-07-2019 05:40:00 15 C 92 % 13.71 C
2662 30-07-2019 05:45:00 14.9 C 92 % 13.61 C
2663 30-07-2019 05:50:00 14.9 C 92 % 13.61 C
2664 30-07-2019 05:55:00 14.8 C 92 % 13.51 C
2665 30-07-2019 06:00:00 14.8 C 92 % 13.51 C
2666 30-07-2019 06:05:00 14.8 C 92 % 13.51 C
2667 30-07-2019 06:10:00 14.7 C 93 % 13.58 C
2668 30-07-2019 06:15:00 14.7 C 93 % 13.58 C
2669 30-07-2019 06:20:00 14.7 C 93 % 13.58 C
2670 30-07-2019 06:25:00 14.7 C 93 % 13.58 C
2671 30-07-2019 06:30:00 14.7 C 93 % 13.58 C
2672 30-07-2019 06:35:00 14.7 C 93 % 13.58 C
2673 30-07-2019 06:40:00 14.8 C 93 % 13.68 C
2674 30-07-2019 06:45:00 14.7 C 93 % 13.58 C
2675 30-07-2019 06:50:00 14.7 C 93 % 13.58 C
Sensor: Nr:Datum:Temp:Feuchte:Taupunkt:
Aussen-T/F 2676 30-07-2019 06:55:00 14.7 C 93 % 13.58 C
2677 30-07-2019 07:00:00 14.7 C 93 % 13.58 C
2678 30-07-2019 07:05:00 14.7 C 93 % 13.58 C
2679 30-07-2019 07:10:00 14.8 C 94 % 13.84 C
2680 30-07-2019 07:15:00 14.8 C 94 % 13.84 C
2681 30-07-2019 07:20:00 14.8 C 94 % 13.84 C
2682 30-07-2019 07:25:00 14.9 C 94 % 13.94 C
2683 30-07-2019 07:30:00 15 C 94 % 14.04 C
2684 30-07-2019 07:35:00 15 C 94 % 14.04 C
2685 30-07-2019 07:40:00 15.1 C 94 % 14.14 C
2686 30-07-2019 07:45:00 15.1 C 94 % 14.14 C
2687 30-07-2019 07:50:00 15.1 C 94 % 14.14 C
2688 30-07-2019 07:55:00 15.2 C 94 % 14.24 C
2689 30-07-2019 08:00:00 15.3 C 94 % 14.34 C
2690 30-07-2019 08:05:00 15.6 C 94 % 14.64 C
2691 30-07-2019 08:10:00 15.7 C 94 % 14.74 C
2692 30-07-2019 08:15:00 15.7 C 94 % 14.74 C
2693 30-07-2019 08:20:00 15.7 C 94 % 14.74 C
2694 30-07-2019 08:25:00 15.8 C 94 % 14.84 C
2695 30-07-2019 08:30:00 15.9 C 94 % 14.94 C
2696 30-07-2019 08:35:00 15.9 C 94 % 14.94 C
2697 30-07-2019 08:40:00 16.1 C 94 % 15.13 C
2698 30-07-2019 08:45:00 16.2 C 94 % 15.23 C
2699 30-07-2019 08:50:00 16.3 C 94 % 15.33 C
2700 30-07-2019 08:55:00 16.4 C 93 % 15.27 C
Sensor: Nr:Datum:Temp:Feuchte:Taupunkt:
Aussen-T/F 2701 30-07-2019 09:00:00 16.6 C 93 % 15.46 C
2702 30-07-2019 09:05:00 16.7 C 93 % 15.56 C
2703 30-07-2019 09:10:00 16.8 C 93 % 15.66 C
2704 30-07-2019 09:15:00 16.9 C 93 % 15.76 C
2705 30-07-2019 09:20:00 17.1 C 93 % 15.96 C
2706 30-07-2019 09:25:00 17.2 C 92 % 15.89 C
2707 30-07-2019 09:30:00 17.4 C 92 % 16.09 C
2708 30-07-2019 09:35:00 17.7 C 92 % 16.38 C
2709 30-07-2019 09:40:00 17.8 C 91 % 16.31 C
2710 30-07-2019 09:45:00 18 C 91 % 16.51 C
2711 30-07-2019 09:50:00 18.2 C 90 % 16.53 C
2712 30-07-2019 09:55:00 18.4 C 89 % 16.55 C
2713 30-07-2019 10:00:00 18.6 C 89 % 16.75 C
2714 30-07-2019 10:05:00 18.8 C 88 % 16.77 C
2715 30-07-2019 10:10:00 19.2 C 87 % 16.98 C
2716 30-07-2019 10:15:00 19.4 C 86 % 17 C
2717 30-07-2019 10:20:00 19.7 C 84 % 16.92 C
2718 30-07-2019 10:25:00 20.1 C 83 % 17.12 C
2719 30-07-2019 10:30:00 20.3 C 82 % 17.13 C
2720 30-07-2019 10:35:00 20.7 C 81 % 17.32 C
2721 30-07-2019 10:40:00 21.1 C 79 % 17.32 C
2722 30-07-2019 10:45:00 21.4 C 79 % 17.61 C
2723 30-07-2019 10:50:00 21.8 C 75 % 17.17 C
2724 30-07-2019 10:55:00 22.2 C 74 % 17.34 C
2725 30-07-2019 11:00:00 22.6 C 72 % 17.3 C
Sensor: Nr:Datum:Temp:Feuchte:Taupunkt:
Aussen-T/F 2726 30-07-2019 11:05:00 22.9 C 70 % 17.14 C
2727 30-07-2019 11:10:00 23.4 C 63 % 15.96 C
2728 30-07-2019 11:15:00 24.3 C 61 % 16.3 C
2729 30-07-2019 11:20:00 24.7 C 58 % 15.88 C
2730 30-07-2019 11:25:00 25.3 C 55 % 15.61 C
2731 30-07-2019 11:30:00 25.7 C 54 % 15.7 C
2732 30-07-2019 11:35:00 26.1 C 53 % 15.77 C
2733 30-07-2019 11:40:00 26.2 C 53 % 15.87 C
2734 30-07-2019 11:45:00 26.1 C 52 % 15.48 C
2735 30-07-2019 11:50:00 26.1 C 52 % 15.48 C
2736 30-07-2019 11:55:00 26.2 C 52 % 15.57 C
2737 30-07-2019 12:00:00 26.3 C 51 % 15.36 C
2738 30-07-2019 12:05:00 26.5 C 49 % 14.92 C
2739 30-07-2019 12:10:00 26.6 C 49 % 15.01 C
2740 30-07-2019 12:15:00 26.8 C 46 % 14.21 C
2741 30-07-2019 12:20:00 26.9 C 48 % 14.96 C
2742 30-07-2019 12:25:00 27.1 C 45 % 14.15 C
2743 30-07-2019 12:30:00 27.2 C 44 % 13.89 C
2744 30-07-2019 12:35:00 27.2 C 43 % 13.54 C
2745 30-07-2019 12:40:00 27.2 C 44 % 13.89 C
2746 30-07-2019 12:45:00 27.3 C 42 % 13.27 C
2747 30-07-2019 12:50:00 27.5 C 44 % 14.16 C
2748 30-07-2019 12:55:00 27.7 C 41 % 13.25 C
2749 30-07-2019 13:00:00 27.7 C 43 % 13.99 C
2750 30-07-2019 13:05:00 27.7 C 41 % 13.25 C
Sensor: Nr:Datum:Temp:Feuchte:Taupunkt:
Aussen-T/F 2751 30-07-2019 13:10:00 27.9 C 42 % 13.8 C
2752 30-07-2019 13:15:00 28.1 C 40 % 13.23 C
2753 30-07-2019 13:20:00 28.1 C 39 % 12.85 C
2754 30-07-2019 13:25:00 28.1 C 39 % 12.85 C
2755 30-07-2019 13:30:00 28.3 C 39 % 13.02 C
2756 30-07-2019 13:35:00 28.4 C 39 % 13.11 C
2757 30-07-2019 13:40:00 28.5 C 39 % 13.2 C
2758 30-07-2019 13:45:00 28.6 C 39 % 13.29 C
2759 30-07-2019 13:50:00 28.7 C 36 % 12.16 C
2760 30-07-2019 13:55:00 28.8 C 35 % 11.82 C
2761 30-07-2019 14:00:00 28.8 C 36 % 12.25 C
2762 30-07-2019 14:05:00 28.9 C 36 % 12.33 C
2763 30-07-2019 14:10:00 29.1 C 37 % 12.93 C
2764 30-07-2019 14:15:00 29.2 C 39 % 13.82 C
2765 30-07-2019 14:20:00 29.3 C 37 % 13.1 C
2766 30-07-2019 14:25:00 29.3 C 39 % 13.91 C
2767 30-07-2019 14:30:00 29.6 C 39 % 14.18 C
2768 30-07-2019 14:35:00 29.8 C 37 % 13.54 C
2769 30-07-2019 14:40:00 29.9 C 39 % 14.44 C
2770 30-07-2019 14:45:00 29.9 C 37 % 13.63 C
2771 30-07-2019 14:50:00 30 C 39 % 14.53 C
2772 30-07-2019 14:55:00 30.1 C 37 % 13.81 C
2773 30-07-2019 15:00:00 30.1 C 38 % 14.22 C
2774 30-07-2019 15:05:00 30.3 C 38 % 14.4 C
2775 30-07-2019 15:10:00 30.4 C 36 % 13.65 C
Sensor: Nr:Datum:Temp:Feuchte:Taupunkt:
Aussen-T/F 2776 30-07-2019 15:15:00 30.4 C 37 % 14.07 C
2777 30-07-2019 15:20:00 30.5 C 36 % 13.74 C
2778 30-07-2019 15:25:00 30.5 C 37 % 14.16 C
2779 30-07-2019 15:30:00 30.8 C 36 % 14 C
2780 30-07-2019 15:35:00 31 C 35 % 13.75 C
2781 30-07-2019 15:40:00 31.3 C 34 % 13.56 C
2782 30-07-2019 15:45:00 30.9 C 35 % 13.66 C
2783 30-07-2019 15:50:00 31 C 36 % 14.18 C
2784 30-07-2019 15:55:00 31.1 C 35 % 13.83 C
2785 30-07-2019 16:00:00 31.2 C 33 % 13.02 C
2786 30-07-2019 16:05:00 31.3 C 34 % 13.56 C
2787 30-07-2019 16:10:00 31.6 C 33 % 13.36 C
2788 30-07-2019 16:15:00 32 C 32 % 13.24 C
2789 30-07-2019 16:20:00 31.9 C 31 % 12.67 C
2790 30-07-2019 16:25:00 31.3 C 34 % 13.56 C
2791 30-07-2019 16:30:00 31.3 C 35 % 14.01 C
2792 30-07-2019 16:35:00 31.6 C 35 % 14.27 C
2793 30-07-2019 16:40:00 31.1 C 35 % 13.83 C
2794 30-07-2019 16:45:00 30.7 C 36 % 13.92 C
2795 30-07-2019 16:50:00 30.4 C 36 % 13.65 C
2796 30-07-2019 16:55:00 30.1 C 37 % 13.81 C
2797 30-07-2019 17:00:00 29.8 C 38 % 13.95 C
2798 30-07-2019 17:05:00 29.9 C 38 % 14.04 C
2799 30-07-2019 17:10:00 30.5 C 37 % 14.16 C
2800 30-07-2019 17:15:00 30.6 C 37 % 14.25 C
Sensor: Nr:Datum:Temp:Feuchte:Taupunkt:
Aussen-T/F 2801 30-07-2019 17:20:00 30.3 C 37 % 13.99 C
2802 30-07-2019 17:25:00 29.7 C 38 % 13.87 C
2803 30-07-2019 17:30:00 29.1 C 39 % 13.73 C
2804 30-07-2019 17:35:00 28.8 C 39 % 13.47 C
2805 30-07-2019 17:40:00 28.6 C 40 % 13.68 C
2806 30-07-2019 17:45:00 28.4 C 38 % 12.72 C
2807 30-07-2019 17:50:00 28.2 C 36 % 11.72 C
2808 30-07-2019 17:55:00 27.8 C 37 % 11.78 C
2809 30-07-2019 18:00:00 27.4 C 37 % 11.43 C
2810 30-07-2019 18:05:00 27.2 C 38 % 11.65 C
2811 30-07-2019 18:10:00 27.1 C 39 % 11.96 C
2812 30-07-2019 18:15:00 26.9 C 39 % 11.78 C
2813 30-07-2019 18:20:00 26.8 C 40 % 12.07 C
2814 30-07-2019 18:25:00 26.7 C 40 % 11.99 C
2815 30-07-2019 18:30:00 26.6 C 41 % 12.27 C
2816 30-07-2019 18:35:00 26.4 C 42 % 12.46 C
2817 30-07-2019 18:40:00 26.3 C 42 % 12.37 C
2818 30-07-2019 18:45:00 26.2 C 43 % 12.64 C
2819 30-07-2019 18:50:00 26 C 44 % 12.81 C
2820 30-07-2019 18:55:00 25.9 C 44 % 12.72 C
2821 30-07-2019 19:00:00 25.8 C 45 % 12.97 C
2822 30-07-2019 19:05:00 25.7 C 45 % 12.88 C
2823 30-07-2019 19:10:00 25.6 C 45 % 12.79 C
2824 30-07-2019 19:15:00 25.6 C 45 % 12.79 C
2825 30-07-2019 19:20:00 25.5 C 46 % 13.03 C
Sensor: Nr:Datum:Temp:Feuchte:Taupunkt:
Aussen-T/F 2826 30-07-2019 19:25:00 24.9 C 53 % 14.66 C
2827 30-07-2019 19:30:00 23.8 C 56 % 14.5 C
2828 30-07-2019 19:35:00 23.4 C 56 % 14.13 C
2829 30-07-2019 19:40:00 23.4 C 55 % 13.85 C
2830 30-07-2019 19:45:00 23.6 C 56 % 14.31 C
2831 30-07-2019 19:50:00 23.7 C 56 % 14.4 C
2832 30-07-2019 19:55:00 23.7 C 55 % 14.13 C
2833 30-07-2019 20:00:00 23.7 C 56 % 14.4 C
2834 30-07-2019 20:05:00 23.8 C 56 % 14.5 C
2835 30-07-2019 20:10:00 23.9 C 55 % 14.31 C
2836 30-07-2019 20:15:00 23.9 C 55 % 14.31 C
2837 30-07-2019 20:20:00 24 C 55 % 14.41 C
2838 30-07-2019 20:25:00 24 C 55 % 14.41 C
2839 30-07-2019 20:30:00 24.1 C 55 % 14.5 C
2840 30-07-2019 20:35:00 24.2 C 55 % 14.59 C
2841 30-07-2019 20:40:00 24.3 C 55 % 14.68 C
2842 30-07-2019 20:45:00 24.4 C 55 % 14.78 C
2843 30-07-2019 20:50:00 24.4 C 55 % 14.78 C
2844 30-07-2019 20:55:00 24.4 C 55 % 14.78 C
2845 30-07-2019 21:00:00 24.3 C 55 % 14.68 C
2846 30-07-2019 21:05:00 24.3 C 54 % 14.4 C
2847 30-07-2019 21:10:00 24.2 C 54 % 14.31 C
2848 30-07-2019 21:15:00 24.1 C 55 % 14.5 C
2849 30-07-2019 21:20:00 23.9 C 56 % 14.59 C
2850 30-07-2019 21:25:00 23.8 C 57 % 14.77 C
Sensor: Nr:Datum:Temp:Feuchte:Taupunkt:
Aussen-T/F 2851 30-07-2019 21:30:00 23.6 C 57 % 14.59 C
2852 30-07-2019 21:35:00 23.4 C 58 % 14.67 C
2853 30-07-2019 21:40:00 23.3 C 58 % 14.58 C
2854 30-07-2019 21:45:00 23.2 C 59 % 14.75 C
2855 30-07-2019 21:50:00 23.1 C 59 % 14.65 C
2856 30-07-2019 21:55:00 22.9 C 59 % 14.47 C
2857 30-07-2019 22:00:00 22.7 C 60 % 14.54 C
2858 30-07-2019 22:05:00 22.6 C 60 % 14.44 C
2859 30-07-2019 22:10:00 22.5 C 61 % 14.61 C
2860 30-07-2019 22:15:00 22.4 C 62 % 14.76 C
2861 30-07-2019 22:20:00 22.3 C 62 % 14.67 C
2862 30-07-2019 22:25:00 22.2 C 63 % 14.82 C
2863 30-07-2019 22:30:00 22.1 C 63 % 14.73 C
2864 30-07-2019 22:35:00 22.1 C 63 % 14.73 C
2865 30-07-2019 22:40:00 22 C 63 % 14.63 C
2866 30-07-2019 22:45:00 21.9 C 64 % 14.78 C
2867 30-07-2019 22:50:00 21.9 C 66 % 15.26 C
2868 30-07-2019 22:55:00 21.8 C 66 % 15.17 C
2869 30-07-2019 23:00:00 21.7 C 66 % 15.07 C
2870 30-07-2019 23:05:00 21.6 C 66 % 14.98 C
2871 30-07-2019 23:10:00 21.5 C 67 % 15.12 C
2872 30-07-2019 23:15:00 21.4 C 67 % 15.02 C
2873 30-07-2019 23:20:00 21.3 C 68 % 15.16 C
2874 30-07-2019 23:25:00 21.2 C 69 % 15.29 C
2875 30-07-2019 23:30:00 21.1 C 69 % 15.19 C
Sensor: Nr:Datum:Temp:Feuchte:Taupunkt:
Aussen-T/F 2876 30-07-2019 23:35:00 21 C 69 % 15.1 C
2877 30-07-2019 23:40:00 20.9 C 68 % 14.77 C
2878 30-07-2019 23:45:00 20.8 C 69 % 14.91 C
2879 30-07-2019 23:50:00 20.8 C 69 % 14.91 C
2880 30-07-2019 23:55:00 20.8 C 69 % 14.91 C
2881 31-07-2019 00:00:00 20.7 C 69 % 14.81 C
2882 31-07-2019 00:05:00 20.7 C 69 % 14.81 C
2883 31-07-2019 00:10:00 20.7 C 69 % 14.81 C
2884 31-07-2019 00:15:00 20.6 C 69 % 14.71 C
2885 31-07-2019 00:20:00 20.6 C 70 % 14.94 C
2886 31-07-2019 00:25:00 20.6 C 70 % 14.94 C
2887 31-07-2019 00:30:00 20.6 C 69 % 14.71 C
2888 31-07-2019 00:35:00 20.5 C 70 % 14.84 C
2889 31-07-2019 00:40:00 20.4 C 70 % 14.75 C
2890 31-07-2019 00:45:00 20.4 C 71 % 14.97 C
2891 31-07-2019 00:50:00 20.4 C 71 % 14.97 C
2892 31-07-2019 00:55:00 20.4 C 71 % 14.97 C
2893 31-07-2019 01:00:00 20.3 C 71 % 14.87 C
2894 31-07-2019 01:05:00 20.3 C 71 % 14.87 C
2895 31-07-2019 01:10:00 20.3 C 71 % 14.87 C
2896 31-07-2019 01:15:00 20.3 C 71 % 14.87 C
2897 31-07-2019 01:20:00 20.3 C 71 % 14.87 C
2898 31-07-2019 01:25:00 20.3 C 71 % 14.87 C
2899 31-07-2019 01:30:00 20.3 C 71 % 14.87 C
2900 31-07-2019 01:35:00 20.3 C 71 % 14.87 C
Sensor: Nr:Datum:Temp:Feuchte:Taupunkt:
Aussen-T/F 2901 31-07-2019 01:40:00 20.4 C 71 % 14.97 C
2902 31-07-2019 01:45:00 20.4 C 71 % 14.97 C
2903 31-07-2019 01:50:00 20.4 C 71 % 14.97 C
2904 31-07-2019 01:55:00 20.3 C 71 % 14.87 C
2905 31-07-2019 02:00:00 20.2 C 71 % 14.78 C
2906 31-07-2019 02:05:00 20.1 C 71 % 14.68 C
2907 31-07-2019 02:10:00 19.9 C 71 % 14.49 C
2908 31-07-2019 02:15:00 19.8 C 71 % 14.39 C
2909 31-07-2019 02:20:00 19.8 C 72 % 14.61 C
2910 31-07-2019 02:25:00 19.7 C 72 % 14.51 C
2911 31-07-2019 02:30:00 19.7 C 72 % 14.51 C
2912 31-07-2019 02:35:00 19.6 C 72 % 14.42 C
2913 31-07-2019 02:40:00 19.6 C 72 % 14.42 C
2914 31-07-2019 02:45:00 19.4 C 72 % 14.22 C
2915 31-07-2019 02:50:00 19.4 C 72 % 14.22 C
2916 31-07-2019 02:55:00 19.3 C 72 % 14.13 C
2917 31-07-2019 03:00:00 19.2 C 72 % 14.03 C
2918 31-07-2019 03:05:00 19.1 C 73 % 14.15 C
2919 31-07-2019 03:10:00 18.9 C 73 % 13.96 C
2920 31-07-2019 03:15:00 18.8 C 74 % 14.07 C
2921 31-07-2019 03:20:00 18.7 C 74 % 13.97 C
2922 31-07-2019 03:25:00 18.6 C 75 % 14.08 C
2923 31-07-2019 03:30:00 18.6 C 76 % 14.29 C
2924 31-07-2019 03:35:00 18.4 C 76 % 14.1 C
2925 31-07-2019 03:40:00 18.4 C 76 % 14.1 C
Sensor: Nr:Datum:Temp:Feuchte:Taupunkt:
Aussen-T/F 2926 31-07-2019 03:45:00 18.3 C 77 % 14.2 C
2927 31-07-2019 03:50:00 18.3 C 77 % 14.2 C
2928 31-07-2019 03:55:00 18.3 C 78 % 14.4 C
2929 31-07-2019 04:00:00 18.3 C 78 % 14.4 C
2930 31-07-2019 04:05:00 18.3 C 79 % 14.6 C
2931 31-07-2019 04:10:00 18.3 C 78 % 14.4 C
2932 31-07-2019 04:15:00 18.4 C 78 % 14.5 C
2933 31-07-2019 04:20:00 18.6 C 77 % 14.49 C
2934 31-07-2019 04:25:00 18.7 C 77 % 14.59 C
2935 31-07-2019 04:30:00 18.7 C 76 % 14.39 C
2936 31-07-2019 04:35:00 18.7 C 76 % 14.39 C
2937 31-07-2019 04:40:00 18.8 C 76 % 14.48 C
2938 31-07-2019 04:45:00 18.8 C 77 % 14.68 C
2939 31-07-2019 04:50:00 18.7 C 76 % 14.39 C
2940 31-07-2019 04:55:00 18.6 C 76 % 14.29 C
2941 31-07-2019 05:00:00 18.4 C 76 % 14.1 C
2942 31-07-2019 05:05:00 18.3 C 76 % 14 C
2943 31-07-2019 05:10:00 18.1 C 76 % 13.81 C
2944 31-07-2019 05:15:00 17.9 C 77 % 13.81 C
2945 31-07-2019 05:20:00 17.8 C 78 % 13.91 C
2946 31-07-2019 05:25:00 17.7 C 78 % 13.82 C
2947 31-07-2019 05:30:00 17.7 C 79 % 14.01 C
2948 31-07-2019 05:35:00 17.6 C 79 % 13.92 C
2949 31-07-2019 05:40:00 17.6 C 79 % 13.92 C
2950 31-07-2019 05:45:00 17.6 C 79 % 13.92 C
Sensor: Nr:Datum:Temp:Feuchte:Taupunkt:
Aussen-T/F 2951 31-07-2019 05:50:00 17.6 C 80 % 14.11 C
2952 31-07-2019 05:55:00 17.7 C 79 % 14.01 C
2953 31-07-2019 06:00:00 17.7 C 79 % 14.01 C
2954 31-07-2019 06:05:00 17.7 C 79 % 14.01 C
2955 31-07-2019 06:10:00 17.7 C 79 % 14.01 C
2956 31-07-2019 06:15:00 17.8 C 78 % 13.91 C
2957 31-07-2019 06:20:00 17.8 C 78 % 13.91 C
2958 31-07-2019 06:25:00 17.7 C 78 % 13.82 C
2959 31-07-2019 06:30:00 17.7 C 78 % 13.82 C
2960 31-07-2019 06:35:00 17.7 C 78 % 13.82 C
2961 31-07-2019 06:40:00 17.6 C 78 % 13.72 C
2962 31-07-2019 06:45:00 17.5 C 78 % 13.62 C
2963 31-07-2019 06:50:00 17.4 C 79 % 13.72 C
2964 31-07-2019 06:55:00 17.4 C 79 % 13.72 C
2965 31-07-2019 07:00:00 17.3 C 79 % 13.63 C
2966 31-07-2019 07:05:00 17.3 C 80 % 13.82 C
2967 31-07-2019 07:10:00 17.3 C 80 % 13.82 C
2968 31-07-2019 07:15:00 17.3 C 80 % 13.82 C
2969 31-07-2019 07:20:00 17.3 C 80 % 13.82 C
2970 31-07-2019 07:25:00 17.3 C 80 % 13.82 C
2971 31-07-2019 07:30:00 17.3 C 80 % 13.82 C
2972 31-07-2019 07:35:00 17.4 C 80 % 13.92 C
2973 31-07-2019 07:40:00 17.4 C 80 % 13.92 C
2974 31-07-2019 07:45:00 17.4 C 80 % 13.92 C
2975 31-07-2019 07:50:00 17.6 C 80 % 14.11 C
Sensor: Nr:Datum:Temp:Feuchte:Taupunkt:
Aussen-T/F 2976 31-07-2019 07:55:00 17.6 C 80 % 14.11 C
2977 31-07-2019 08:00:00 17.7 C 79 % 14.01 C
2978 31-07-2019 08:05:00 17.8 C 78 % 13.91 C
2979 31-07-2019 08:10:00 17.9 C 78 % 14.01 C
2980 31-07-2019 08:15:00 18 C 78 % 14.11 C
2981 31-07-2019 08:20:00 18.1 C 79 % 14.4 C
2982 31-07-2019 08:25:00 18.2 C 76 % 13.9 C
2983 31-07-2019 08:30:00 18.4 C 75 % 13.89 C
2984 31-07-2019 08:35:00 18.7 C 74 % 13.97 C
2985 31-07-2019 08:40:00 18.9 C 73 % 13.96 C
2986 31-07-2019 08:45:00 19.1 C 72 % 13.94 C
2987 31-07-2019 08:50:00 19.2 C 72 % 14.03 C
2988 31-07-2019 08:55:00 19.3 C 71 % 13.91 C
2989 31-07-2019 09:00:00 19.4 C 72 % 14.22 C
2990 31-07-2019 09:05:00 19.5 C 71 % 14.1 C
2991 31-07-2019 09:10:00 19.6 C 70 % 13.98 C
2992 31-07-2019 09:15:00 19.8 C 70 % 14.17 C
2993 31-07-2019 09:20:00 19.8 C 69 % 13.95 C
2994 31-07-2019 09:25:00 19.9 C 68 % 13.82 C
2995 31-07-2019 09:30:00 20.1 C 67 % 13.78 C
2996 31-07-2019 09:35:00 20.2 C 67 % 13.88 C
2997 31-07-2019 09:40:00 20.4 C 66 % 13.84 C
2998 31-07-2019 09:45:00 20.4 C 65 % 13.6 C
2999 31-07-2019 09:50:00 20.5 C 64 % 13.46 C
3000 31-07-2019 09:55:00 20.6 C 63 % 13.31 C
Sensor: Nr:Datum:Temp:Feuchte:Taupunkt:
Aussen-T/F 3001 31-07-2019 10:00:00 20.7 C 64 % 13.65 C
3002 31-07-2019 10:05:00 20.8 C 62 % 13.26 C
3003 31-07-2019 10:10:00 20.9 C 61 % 13.1 C
3004 31-07-2019 10:15:00 21.2 C 61 % 13.38 C
3005 31-07-2019 10:20:00 21.4 C 59 % 13.06 C
3006 31-07-2019 10:25:00 21.4 C 57 % 12.53 C
3007 31-07-2019 10:30:00 21.4 C 57 % 12.53 C
3008 31-07-2019 10:35:00 21.5 C 56 % 12.36 C
3009 31-07-2019 10:40:00 21.7 C 57 % 12.81 C
3010 31-07-2019 10:45:00 21.8 C 58 % 13.17 C
3011 31-07-2019 10:50:00 21.8 C 56 % 12.64 C
3012 31-07-2019 10:55:00 21.7 C 57 % 12.81 C
3013 31-07-2019 11:00:00 21.5 C 56 % 12.36 C
3014 31-07-2019 11:05:00 21.3 C 56 % 12.17 C
3015 31-07-2019 11:10:00 21.1 C 58 % 12.52 C
3016 31-07-2019 11:15:00 21.1 C 57 % 12.25 C
3017 31-07-2019 11:20:00 21.2 C 57 % 12.35 C
3018 31-07-2019 11:25:00 21.4 C 56 % 12.27 C
3019 31-07-2019 11:30:00 21.6 C 55 % 12.18 C
3020 31-07-2019 11:35:00 21.8 C 54 % 12.08 C
3021 31-07-2019 11:40:00 21.9 C 54 % 12.18 C
3022 31-07-2019 11:45:00 22 C 54 % 12.27 C
3023 31-07-2019 11:50:00 22.2 C 53 % 12.17 C
3024 31-07-2019 11:55:00 22.2 C 53 % 12.17 C
3025 31-07-2019 12:00:00 22.1 C 52 % 11.79 C
Sensor: Nr:Datum:Temp:Feuchte:Taupunkt:
Aussen-T/F 3026 31-07-2019 12:05:00 22.2 C 52 % 11.88 C
3027 31-07-2019 12:10:00 22.3 C 52 % 11.97 C
3028 31-07-2019 12:15:00 22.6 C 53 % 12.54 C
3029 31-07-2019 12:20:00 22.8 C 52 % 12.43 C
3030 31-07-2019 12:25:00 22.9 C 51 % 12.23 C
3031 31-07-2019 12:30:00 22.9 C 48 % 11.31 C
3032 31-07-2019 12:35:00 22.7 C 49 % 11.44 C
3033 31-07-2019 12:40:00 22.8 C 49 % 11.53 C
3034 31-07-2019 12:45:00 22.8 C 50 % 11.84 C
3035 31-07-2019 12:50:00 22.9 C 51 % 12.23 C
3036 31-07-2019 12:55:00 23 C 51 % 12.32 C
3037 31-07-2019 13:00:00 23.1 C 52 % 12.71 C
3038 31-07-2019 13:05:00 23.2 C 51 % 12.51 C
3039 31-07-2019 13:10:00 23.3 C 49 % 11.99 C
3040 31-07-2019 13:15:00 23.3 C 47 % 11.36 C
3041 31-07-2019 13:20:00 23.4 C 47 % 11.45 C
3042 31-07-2019 13:25:00 23.6 C 47 % 11.63 C
3043 31-07-2019 13:30:00 23.9 C 46 % 11.58 C
3044 31-07-2019 13:35:00 24 C 45 % 11.34 C
3045 31-07-2019 13:40:00 24 C 46 % 11.67 C
3046 31-07-2019 13:45:00 24.1 C 45 % 11.43 C
3047 31-07-2019 13:50:00 24.2 C 44 % 11.18 C
3048 31-07-2019 13:55:00 24.2 C 45 % 11.52 C
3049 31-07-2019 14:00:00 24.3 C 44 % 11.27 C
3050 31-07-2019 14:05:00 24.4 C 44 % 11.36 C
Sensor: Nr:Datum:Temp:Feuchte:Taupunkt:
Aussen-T/F 3051 31-07-2019 14:10:00 24.3 C 43 % 10.93 C
3052 31-07-2019 14:15:00 24.4 C 43 % 11.02 C
3053 31-07-2019 14:20:00 24.5 C 44 % 11.45 C
3054 31-07-2019 14:25:00 24.7 C 44 % 11.63 C
3055 31-07-2019 14:30:00 25 C 42 % 11.2 C
3056 31-07-2019 14:35:00 25.1 C 41 % 10.93 C
3057 31-07-2019 14:40:00 24.9 C 41 % 10.75 C
3058 31-07-2019 14:45:00 25.1 C 41 % 10.93 C
3059 31-07-2019 14:50:00 25.2 C 41 % 11.02 C
3060 31-07-2019 14:55:00 25.3 C 41 % 11.11 C
3061 31-07-2019 15:00:00 25.4 C 39 % 10.45 C
3062 31-07-2019 15:05:00 25.4 C 40 % 10.83 C
3063 31-07-2019 15:10:00 25.1 C 41 % 10.93 C
3064 31-07-2019 15:15:00 25.1 C 43 % 11.65 C
3065 31-07-2019 15:20:00 25.4 C 40 % 10.83 C
3066 31-07-2019 15:25:00 25.8 C 40 % 11.18 C
3067 31-07-2019 15:30:00 26 C 39 % 10.98 C
3068 31-07-2019 15:35:00 26 C 39 % 10.98 C
3069 31-07-2019 15:40:00 25.6 C 40 % 11 C
3070 31-07-2019 15:45:00 25.7 C 40 % 11.09 C
3071 31-07-2019 15:50:00 25.6 C 40 % 11 C
3072 31-07-2019 15:55:00 25.5 C 40 % 10.91 C
3073 31-07-2019 16:00:00 25.9 C 40 % 11.27 C
3074 31-07-2019 16:05:00 26.3 C 38 % 10.86 C
3075 31-07-2019 16:10:00 25.8 C 39 % 10.8 C
Sensor: Nr:Datum:Temp:Feuchte:Taupunkt:
Aussen-T/F 3076 31-07-2019 16:15:00 25.2 C 41 % 11.02 C
3077 31-07-2019 16:20:00 24.8 C 42 % 11.02 C
3078 31-07-2019 16:25:00 24.7 C 43 % 11.29 C
3079 31-07-2019 16:30:00 24.6 C 43 % 11.2 C
3080 31-07-2019 16:35:00 24.4 C 43 % 11.02 C
3081 31-07-2019 16:40:00 24.3 C 44 % 11.27 C
3082 31-07-2019 16:45:00 24.3 C 45 % 11.61 C
3083 31-07-2019 16:50:00 24.4 C 45 % 11.7 C
3084 31-07-2019 16:55:00 24.8 C 45 % 12.06 C
3085 31-07-2019 17:00:00 24.8 C 44 % 11.72 C
3086 31-07-2019 17:05:00 25.1 C 44 % 12 C
3087 31-07-2019 17:10:00 25.4 C 43 % 11.92 C
3088 31-07-2019 17:15:00 25.6 C 43 % 12.1 C
3089 31-07-2019 17:20:00 25.7 C 43 % 12.19 C
3090 31-07-2019 17:25:00 25.4 C 43 % 11.92 C
3091 31-07-2019 17:30:00 25.2 C 41 % 11.02 C
3092 31-07-2019 17:35:00 25.2 C 42 % 11.38 C
3093 31-07-2019 17:40:00 25.1 C 43 % 11.65 C
3094 31-07-2019 17:45:00 25.1 C 43 % 11.65 C
3095 31-07-2019 17:50:00 25.2 C 43 % 11.74 C
3096 31-07-2019 17:55:00 25.2 C 43 % 11.74 C
3097 31-07-2019 18:00:00 24.8 C 44 % 11.72 C
3098 31-07-2019 18:05:00 24.4 C 45 % 11.7 C
3099 31-07-2019 18:10:00 24.2 C 46 % 11.85 C
3100 31-07-2019 18:15:00 23.9 C 46 % 11.58 C
Sensor: Nr:Datum:Temp:Feuchte:Taupunkt:
Aussen-T/F 3101 31-07-2019 18:20:00 23.8 C 48 % 12.14 C
3102 31-07-2019 18:25:00 23.7 C 47 % 11.73 C
3103 31-07-2019 18:30:00 23.7 C 47 % 11.73 C
3104 31-07-2019 18:35:00 23.6 C 48 % 11.95 C
3105 31-07-2019 18:40:00 23.6 C 50 % 12.57 C
3106 31-07-2019 18:45:00 23.6 C 48 % 11.95 C
3107 31-07-2019 18:50:00 23.6 C 48 % 11.95 C
3108 31-07-2019 18:55:00 23.6 C 48 % 11.95 C
3109 31-07-2019 19:00:00 23.6 C 48 % 11.95 C
3110 31-07-2019 19:05:00 23.7 C 47 % 11.73 C
3111 31-07-2019 19:10:00 23.9 C 48 % 12.23 C
3112 31-07-2019 19:15:00 24 C 48 % 12.32 C
3113 31-07-2019 19:20:00 23.9 C 50 % 12.85 C
3114 31-07-2019 19:25:00 23.7 C 50 % 12.67 C
3115 31-07-2019 19:30:00 23.4 C 50 % 12.39 C
3116 31-07-2019 19:35:00 23.3 C 46 % 11.04 C
3117 31-07-2019 19:40:00 23.2 C 45 % 10.62 C
3118 31-07-2019 19:45:00 23.2 C 46 % 10.95 C
3119 31-07-2019 19:50:00 23.1 C 51 % 12.42 C
3120 31-07-2019 19:55:00 22.9 C 53 % 12.82 C
3121 31-07-2019 20:00:00 22.8 C 53 % 12.73 C
3122 31-07-2019 20:05:00 22.7 C 53 % 12.63 C
3123 31-07-2019 20:10:00 22.4 C 53 % 12.36 C
3124 31-07-2019 20:15:00 22.3 C 54 % 12.55 C
3125 31-07-2019 20:20:00 22.2 C 54 % 12.45 C
Sensor: Nr:Datum:Temp:Feuchte:Taupunkt:
Aussen-T/F 3126 31-07-2019 20:25:00 22.2 C 56 % 13.01 C
3127 31-07-2019 20:30:00 22.2 C 57 % 13.28 C
3128 31-07-2019 20:35:00 22.1 C 57 % 13.19 C
3129 31-07-2019 20:40:00 21.9 C 57 % 13 C
3130 31-07-2019 20:45:00 21.7 C 58 % 13.08 C
3131 31-07-2019 20:50:00 21.4 C 58 % 12.8 C
3132 31-07-2019 20:55:00 21.2 C 59 % 12.87 C
3133 31-07-2019 21:00:00 21 C 60 % 12.94 C
3134 31-07-2019 21:05:00 20.8 C 60 % 12.76 C
3135 31-07-2019 21:10:00 20.7 C 61 % 12.91 C
3136 31-07-2019 21:15:00 20.4 C 60 % 12.38 C
3137 31-07-2019 21:20:00 20.2 C 60 % 12.19 C
3138 31-07-2019 21:25:00 20 C 60 % 12 C
3139 31-07-2019 21:30:00 19.8 C 59 % 11.56 C
3140 31-07-2019 21:35:00 19.6 C 59 % 11.37 C
3141 31-07-2019 21:40:00 19.4 C 59 % 11.19 C
3142 31-07-2019 21:45:00 19.2 C 59 % 11 C
3143 31-07-2019 21:50:00 19.1 C 59 % 10.91 C
3144 31-07-2019 21:55:00 18.9 C 60 % 10.97 C
3145 31-07-2019 22:00:00 18.8 C 60 % 10.88 C
3146 31-07-2019 22:05:00 18.7 C 61 % 11.03 C
3147 31-07-2019 22:10:00 18.7 C 60 % 10.78 C
3148 31-07-2019 22:15:00 18.6 C 61 % 10.94 C
3149 31-07-2019 22:20:00 18.6 C 61 % 10.94 C
3150 31-07-2019 22:25:00 18.6 C 61 % 10.94 C
Sensor: Nr:Datum:Temp:Feuchte:Taupunkt:
Aussen-T/F 3151 31-07-2019 22:30:00 18.6 C 61 % 10.94 C
3152 31-07-2019 22:35:00 18.6 C 61 % 10.94 C
3153 31-07-2019 22:40:00 18.7 C 62 % 11.28 C
3154 31-07-2019 22:45:00 18.7 C 62 % 11.28 C
3155 31-07-2019 22:50:00 18.8 C 61 % 11.13 C
3156 31-07-2019 22:55:00 18.8 C 61 % 11.13 C
3157 31-07-2019 23:00:00 18.9 C 61 % 11.22 C
3158 31-07-2019 23:05:00 18.9 C 61 % 11.22 C
3159 31-07-2019 23:10:00 18.9 C 61 % 11.22 C
3160 31-07-2019 23:15:00 18.8 C 62 % 11.37 C
3161 31-07-2019 23:20:00 18.8 C 62 % 11.37 C
3162 31-07-2019 23:25:00 18.7 C 62 % 11.28 C
3163 31-07-2019 23:30:00 18.5 C 63 % 11.33 C
3164 31-07-2019 23:35:00 18.4 C 63 % 11.23 C
3165 31-07-2019 23:40:00 18.2 C 64 % 11.28 C
3166 31-07-2019 23:45:00 17.9 C 65 % 11.23 C
3167 31-07-2019 23:50:00 17.8 C 66 % 11.37 C
3168 31-07-2019 23:55:00 17.6 C 67 % 11.4 C
3169 01-08-2019 00:00:00 17.4 C 68 % 11.44 C
3170 01-08-2019 00:05:00 17.3 C 69 % 11.56 C
3171 01-08-2019 00:10:00 17.2 C 69 % 11.47 C
3172 01-08-2019 00:15:00 17.1 C 70 % 11.59 C
3173 01-08-2019 00:20:00 17 C 70 % 11.49 C
3174 01-08-2019 00:25:00 16.9 C 71 % 11.61 C
3175 01-08-2019 00:30:00 16.9 C 71 % 11.61 C
Sensor: Nr:Datum:Temp:Feuchte:Taupunkt:
Aussen-T/F 3176 01-08-2019 00:35:00 16.8 C 70 % 11.3 C
3177 01-08-2019 00:40:00 16.7 C 71 % 11.42 C
3178 01-08-2019 00:45:00 16.6 C 71 % 11.32 C
3179 01-08-2019 00:50:00 16.4 C 71 % 11.13 C
3180 01-08-2019 00:55:00 16.3 C 72 % 11.25 C
3181 01-08-2019 01:00:00 16.1 C 73 % 11.26 C
3182 01-08-2019 01:05:00 15.9 C 73 % 11.07 C
3183 01-08-2019 01:10:00 15.8 C 74 % 11.18 C
3184 01-08-2019 01:15:00 15.7 C 75 % 11.28 C
3185 01-08-2019 01:20:00 15.6 C 75 % 11.19 C
3186 01-08-2019 01:25:00 15.6 C 75 % 11.19 C
3187 01-08-2019 01:30:00 15.4 C 75 % 11 C
3188 01-08-2019 01:35:00 15.4 C 75 % 11 C
3189 01-08-2019 01:40:00 15.3 C 76 % 11.1 C
3190 01-08-2019 01:45:00 15.2 C 76 % 11 C
3191 01-08-2019 01:50:00 15.2 C 76 % 11 C
3192 01-08-2019 01:55:00 15.1 C 77 % 11.1 C
3193 01-08-2019 02:00:00 15.1 C 77 % 11.1 C
3194 01-08-2019 02:05:00 14.9 C 77 % 10.91 C
3195 01-08-2019 02:10:00 14.9 C 78 % 11.1 C
3196 01-08-2019 02:15:00 14.8 C 78 % 11 C
3197 01-08-2019 02:20:00 14.8 C 79 % 11.2 C
3198 01-08-2019 02:25:00 14.7 C 79 % 11.1 C
3199 01-08-2019 02:30:00 14.6 C 79 % 11 C
3200 01-08-2019 02:35:00 14.6 C 80 % 11.19 C
Sensor: Nr:Datum:Temp:Feuchte:Taupunkt:
Aussen-T/F 3201 01-08-2019 02:40:00 14.6 C 80 % 11.19 C
3202 01-08-2019 02:45:00 14.6 C 80 % 11.19 C
3203 01-08-2019 02:50:00 14.6 C 80 % 11.19 C
3204 01-08-2019 02:55:00 14.6 C 80 % 11.19 C
3205 01-08-2019 03:00:00 14.6 C 81 % 11.38 C
3206 01-08-2019 03:05:00 14.6 C 81 % 11.38 C
3207 01-08-2019 03:10:00 14.7 C 80 % 11.29 C
3208 01-08-2019 03:15:00 14.6 C 80 % 11.19 C
3209 01-08-2019 03:20:00 14.5 C 80 % 11.09 C
3210 01-08-2019 03:25:00 14.3 C 80 % 10.9 C
3211 01-08-2019 03:30:00 14.2 C 81 % 10.99 C
3212 01-08-2019 03:35:00 14 C 81 % 10.79 C
3213 01-08-2019 03:40:00 13.8 C 81 % 10.6 C
3214 01-08-2019 03:45:00 13.7 C 82 % 10.69 C
3215 01-08-2019 03:50:00 13.5 C 82 % 10.49 C
3216 01-08-2019 03:55:00 13.4 C 83 % 10.57 C
3217 01-08-2019 04:00:00 13.3 C 83 % 10.48 C
3218 01-08-2019 04:05:00 13.2 C 83 % 10.38 C
3219 01-08-2019 04:10:00 13.1 C 84 % 10.46 C
3220 01-08-2019 04:15:00 13 C 84 % 10.36 C
3221 01-08-2019 04:20:00 13 C 85 % 10.54 C
3222 01-08-2019 04:25:00 12.9 C 85 % 10.44 C
3223 01-08-2019 04:30:00 12.9 C 85 % 10.44 C
3224 01-08-2019 04:35:00 12.8 C 86 % 10.52 C
3225 01-08-2019 04:40:00 12.8 C 86 % 10.52 C
Sensor: Nr:Datum:Temp:Feuchte:Taupunkt:
Aussen-T/F 3226 01-08-2019 04:45:00 12.9 C 86 % 10.62 C
3227 01-08-2019 04:50:00 12.8 C 86 % 10.52 C
3228 01-08-2019 04:55:00 12.8 C 86 % 10.52 C
3229 01-08-2019 05:00:00 12.8 C 86 % 10.52 C
3230 01-08-2019 05:05:00 12.8 C 86 % 10.52 C
3231 01-08-2019 05:10:00 12.7 C 86 % 10.42 C
3232 01-08-2019 05:15:00 12.7 C 87 % 10.59 C
3233 01-08-2019 05:20:00 12.6 C 87 % 10.5 C
3234 01-08-2019 05:25:00 12.6 C 87 % 10.5 C
3235 01-08-2019 05:30:00 12.7 C 88 % 10.77 C
3236 01-08-2019 05:35:00 12.7 C 87 % 10.59 C
3237 01-08-2019 05:40:00 12.6 C 87 % 10.5 C
3238 01-08-2019 05:45:00 12.5 C 87 % 10.4 C
3239 01-08-2019 05:50:00 12.4 C 87 % 10.3 C
3240 01-08-2019 05:55:00 12.4 C 87 % 10.3 C
3241 01-08-2019 06:00:00 12.3 C 88 % 10.37 C
3242 01-08-2019 06:05:00 12.3 C 88 % 10.37 C
3243 01-08-2019 06:10:00 12.2 C 88 % 10.27 C
3244 01-08-2019 06:15:00 12.2 C 88 % 10.27 C
3245 01-08-2019 06:20:00 12.1 C 88 % 10.17 C
3246 01-08-2019 06:25:00 12.1 C 89 % 10.34 C
3247 01-08-2019 06:30:00 12.1 C 88 % 10.17 C
3248 01-08-2019 06:35:00 12 C 89 % 10.25 C
3249 01-08-2019 06:40:00 12 C 89 % 10.25 C
3250 01-08-2019 06:45:00 12 C 89 % 10.25 C
Sensor: Nr:Datum:Temp:Feuchte:Taupunkt:
Aussen-T/F 3251 01-08-2019 06:50:00 12.1 C 89 % 10.34 C
3252 01-08-2019 06:55:00 12.1 C 89 % 10.34 C
3253 01-08-2019 07:00:00 12.1 C 89 % 10.34 C
3254 01-08-2019 07:05:00 12.1 C 89 % 10.34 C
3255 01-08-2019 07:10:00 12.1 C 89 % 10.34 C
3256 01-08-2019 07:15:00 12.2 C 89 % 10.44 C
3257 01-08-2019 07:20:00 12.2 C 89 % 10.44 C
3258 01-08-2019 07:25:00 12.2 C 90 % 10.61 C
3259 01-08-2019 07:30:00 12.3 C 90 % 10.71 C
3260 01-08-2019 07:35:00 12.5 C 90 % 10.91 C
3261 01-08-2019 07:40:00 12.8 C 90 % 11.2 C
3262 01-08-2019 07:45:00 13.1 C 89 % 11.33 C
3263 01-08-2019 07:50:00 13.4 C 88 % 11.45 C
3264 01-08-2019 07:55:00 13.7 C 88 % 11.75 C
3265 01-08-2019 08:00:00 13.9 C 87 % 11.77 C
3266 01-08-2019 08:05:00 14.2 C 86 % 11.89 C
3267 01-08-2019 08:10:00 14.4 C 85 % 11.91 C
3268 01-08-2019 08:15:00 14.7 C 83 % 11.85 C
3269 01-08-2019 08:20:00 15 C 83 % 12.14 C
3270 01-08-2019 08:25:00 15.2 C 81 % 11.96 C
3271 01-08-2019 08:30:00 15.3 C 80 % 11.87 C
3272 01-08-2019 08:35:00 15.5 C 80 % 12.07 C
3273 01-08-2019 08:40:00 15.7 C 79 % 12.07 C
3274 01-08-2019 08:45:00 15.8 C 79 % 12.17 C
3275 01-08-2019 08:50:00 16.1 C 78 % 12.27 C
Sensor: Nr:Datum:Temp:Feuchte:Taupunkt:
Aussen-T/F 3276 01-08-2019 08:55:00 16.3 C 77 % 12.26 C
3277 01-08-2019 09:00:00 16.6 C 77 % 12.55 C
3278 01-08-2019 09:05:00 16.9 C 76 % 12.65 C
3279 01-08-2019 09:10:00 17.2 C 75 % 12.73 C
3280 01-08-2019 09:15:00 17.3 C 75 % 12.83 C
3281 01-08-2019 09:20:00 17.4 C 74 % 12.72 C
3282 01-08-2019 09:25:00 17.5 C 74 % 12.82 C
3283 01-08-2019 09:30:00 17.6 C 73 % 12.71 C
3284 01-08-2019 09:35:00 17.6 C 73 % 12.71 C
3285 01-08-2019 09:40:00 17.7 C 73 % 12.8 C
3286 01-08-2019 09:45:00 18 C 72 % 12.88 C
3287 01-08-2019 09:50:00 18.3 C 71 % 12.95 C
3288 01-08-2019 09:55:00 18.7 C 70 % 13.12 C
3289 01-08-2019 10:00:00 19.2 C 68 % 13.15 C
3290 01-08-2019 10:05:00 19.4 C 67 % 13.12 C
3291 01-08-2019 10:10:00 19.7 C 65 % 12.94 C
3292 01-08-2019 10:15:00 20 C 63 % 12.75 C
3293 01-08-2019 10:20:00 20.2 C 63 % 12.94 C
3294 01-08-2019 10:25:00 20.3 C 62 % 12.79 C
3295 01-08-2019 10:30:00 20.5 C 60 % 12.47 C
3296 01-08-2019 10:35:00 20.6 C 61 % 12.82 C
3297 01-08-2019 10:40:00 20.7 C 61 % 12.91 C
3298 01-08-2019 10:45:00 20.8 C 62 % 13.26 C
3299 01-08-2019 10:50:00 21.1 C 59 % 12.78 C
3300 01-08-2019 10:55:00 21.1 C 58 % 12.52 C
Sensor: Nr:Datum:Temp:Feuchte:Taupunkt:
Aussen-T/F 3301 01-08-2019 11:00:00 21.2 C 57 % 12.35 C
3302 01-08-2019 11:05:00 21.2 C 57 % 12.35 C
3303 01-08-2019 11:10:00 21.3 C 57 % 12.44 C
3304 01-08-2019 11:15:00 21.4 C 58 % 12.8 C
3305 01-08-2019 11:20:00 21.6 C 57 % 12.72 C
3306 01-08-2019 11:25:00 21.7 C 56 % 12.54 C
3307 01-08-2019 11:30:00 21.9 C 55 % 12.46 C
3308 01-08-2019 11:35:00 22.1 C 54 % 12.36 C
3309 01-08-2019 11:40:00 22 C 55 % 12.55 C
3310 01-08-2019 11:45:00 22.2 C 55 % 12.73 C
3311 01-08-2019 11:50:00 22.3 C 54 % 12.55 C
3312 01-08-2019 11:55:00 22.4 C 54 % 12.64 C
3313 01-08-2019 12:00:00 22.4 C 54 % 12.64 C
3314 01-08-2019 12:05:00 22.6 C 53 % 12.54 C
3315 01-08-2019 12:10:00 22.6 C 53 % 12.54 C
3316 01-08-2019 12:15:00 22.6 C 53 % 12.54 C
3317 01-08-2019 12:20:00 22.7 C 53 % 12.63 C
3318 01-08-2019 12:25:00 22.8 C 52 % 12.43 C
3319 01-08-2019 12:30:00 22.7 C 53 % 12.63 C
3320 01-08-2019 12:35:00 22.4 C 53 % 12.36 C
3321 01-08-2019 12:40:00 22.2 C 54 % 12.45 C
3322 01-08-2019 12:45:00 22.1 C 55 % 12.64 C
3323 01-08-2019 12:50:00 22.1 C 55 % 12.64 C
3324 01-08-2019 12:55:00 22.2 C 54 % 12.45 C
3325 01-08-2019 13:00:00 22.3 C 55 % 12.83 C
Sensor: Nr:Datum:Temp:Feuchte:Taupunkt:
Aussen-T/F 3326 01-08-2019 13:05:00 22.6 C 55 % 13.11 C
3327 01-08-2019 13:10:00 22.8 C 53 % 12.73 C
3328 01-08-2019 13:15:00 23.1 C 52 % 12.71 C
3329 01-08-2019 13:20:00 23.1 C 52 % 12.71 C
3330 01-08-2019 13:25:00 23.1 C 52 % 12.71 C
3331 01-08-2019 13:30:00 23.2 C 54 % 13.38 C
3332 01-08-2019 13:35:00 23.2 C 54 % 13.38 C
3333 01-08-2019 13:40:00 23.3 C 54 % 13.47 C
3334 01-08-2019 13:45:00 23.6 C 53 % 13.46 C
3335 01-08-2019 13:50:00 23.8 C 51 % 13.06 C
3336 01-08-2019 13:55:00 23.9 C 51 % 13.15 C
3337 01-08-2019 14:00:00 23.9 C 50 % 12.85 C
3338 01-08-2019 14:05:00 24.1 C 50 % 13.03 C
3339 01-08-2019 14:10:00 24.1 C 49 % 12.72 C
3340 01-08-2019 14:15:00 24.1 C 49 % 12.72 C
3341 01-08-2019 14:20:00 24.1 C 51 % 13.34 C
3342 01-08-2019 14:25:00 24.2 C 49 % 12.81 C
3343 01-08-2019 14:30:00 24.2 C 49 % 12.81 C
3344 01-08-2019 14:35:00 24.2 C 49 % 12.81 C
3345 01-08-2019 14:40:00 24.2 C 50 % 13.12 C
3346 01-08-2019 14:45:00 24.2 C 49 % 12.81 C
3347 01-08-2019 14:50:00 24.2 C 49 % 12.81 C
3348 01-08-2019 14:55:00 24.3 C 49 % 12.91 C
3349 01-08-2019 15:00:00 24.4 C 50 % 13.31 C
3350 01-08-2019 15:05:00 24.5 C 48 % 12.77 C
Sensor: Nr:Datum:Temp:Feuchte:Taupunkt:
Aussen-T/F 3351 01-08-2019 15:10:00 24.6 C 49 % 13.18 C
3352 01-08-2019 15:15:00 24.7 C 48 % 12.96 C
3353 01-08-2019 15:20:00 24.8 C 48 % 13.05 C
3354 01-08-2019 15:25:00 24.8 C 49 % 13.36 C
3355 01-08-2019 15:30:00 24.7 C 48 % 12.96 C
3356 01-08-2019 15:35:00 24.7 C 49 % 13.27 C
3357 01-08-2019 15:40:00 24.6 C 49 % 13.18 C
3358 01-08-2019 15:45:00 24.5 C 49 % 13.09 C
3359 01-08-2019 15:50:00 24.3 C 50 % 13.22 C
3360 01-08-2019 15:55:00 24.3 C 50 % 13.22 C
3361 01-08-2019 16:00:00 24.2 C 51 % 13.43 C
3362 01-08-2019 16:05:00 24.2 C 51 % 13.43 C
3363 01-08-2019 16:10:00 24.2 C 51 % 13.43 C
3364 01-08-2019 16:15:00 24.2 C 51 % 13.43 C
3365 01-08-2019 16:20:00 24.2 C 51 % 13.43 C
3366 01-08-2019 16:25:00 24.2 C 51 % 13.43 C
3367 01-08-2019 16:30:00 24.3 C 51 % 13.52 C
3368 01-08-2019 16:35:00 24.4 C 51 % 13.61 C
3369 01-08-2019 16:40:00 24.6 C 49 % 13.18 C
3370 01-08-2019 16:45:00 24.7 C 48 % 12.96 C
3371 01-08-2019 16:50:00 24.8 C 48 % 13.05 C
3372 01-08-2019 16:55:00 24.8 C 47 % 12.73 C
3373 01-08-2019 17:00:00 24.8 C 47 % 12.73 C
3374 01-08-2019 17:05:00 25 C 48 % 13.23 C
3375 01-08-2019 17:10:00 25 C 48 % 13.23 C
Sensor: Nr:Datum:Temp:Feuchte:Taupunkt:
Aussen-T/F 3376 01-08-2019 17:15:00 24.8 C 47 % 12.73 C
3377 01-08-2019 17:20:00 24.8 C 48 % 13.05 C
3378 01-08-2019 17:25:00 24.8 C 49 % 13.36 C
3379 01-08-2019 17:30:00 24.7 C 49 % 13.27 C
3380 01-08-2019 17:35:00 25 C 49 % 13.55 C
3381 01-08-2019 17:40:00 25.4 C 47 % 13.27 C
3382 01-08-2019 17:45:00 25.5 C 47 % 13.36 C
3383 01-08-2019 17:50:00 25.7 C 47 % 13.55 C
3384 01-08-2019 17:55:00 26.1 C 46 % 13.58 C
3385 01-08-2019 18:00:00 26.6 C 46 % 14.03 C
3386 01-08-2019 18:05:00 26.9 C 44 % 13.62 C
3387 01-08-2019 18:10:00 26.7 C 44 % 13.44 C
3388 01-08-2019 18:15:00 26.4 C 46 % 13.85 C
3389 01-08-2019 18:20:00 26.2 C 45 % 13.33 C
3390 01-08-2019 18:25:00 25.8 C 45 % 12.97 C
3391 01-08-2019 18:30:00 25.7 C 46 % 13.22 C
3392 01-08-2019 18:35:00 25.6 C 46 % 13.12 C
3393 01-08-2019 18:40:00 26.1 C 46 % 13.58 C
3394 01-08-2019 18:45:00 26.6 C 44 % 13.35 C
3395 01-08-2019 18:50:00 26.8 C 43 % 13.18 C
3396 01-08-2019 18:55:00 26.8 C 42 % 12.82 C
3397 01-08-2019 19:00:00 26.8 C 43 % 13.18 C
3398 01-08-2019 19:05:00 26.8 C 43 % 13.18 C
3399 01-08-2019 19:10:00 26.8 C 44 % 13.53 C
3400 01-08-2019 19:15:00 26.7 C 44 % 13.44 C
Sensor: Nr:Datum:Temp:Feuchte:Taupunkt:
Aussen-T/F 3401 01-08-2019 19:20:00 26.6 C 45 % 13.69 C
3402 01-08-2019 19:25:00 26.4 C 45 % 13.51 C
3403 01-08-2019 19:30:00 26.3 C 45 % 13.42 C
3404 01-08-2019 19:35:00 26.1 C 46 % 13.58 C
3405 01-08-2019 19:40:00 25.9 C 46 % 13.4 C
3406 01-08-2019 19:45:00 25.7 C 47 % 13.55 C
3407 01-08-2019 19:50:00 25.6 C 47 % 13.45 C
3408 01-08-2019 19:55:00 25.5 C 47 % 13.36 C
3409 01-08-2019 20:00:00 25.4 C 48 % 13.6 C
3410 01-08-2019 20:05:00 25.2 C 51 % 14.35 C
3411 01-08-2019 20:10:00 24.9 C 52 % 14.37 C
3412 01-08-2019 20:15:00 24.6 C 52 % 14.09 C
3413 01-08-2019 20:20:00 24.4 C 53 % 14.2 C
3414 01-08-2019 20:25:00 24.2 C 54 % 14.31 C
3415 01-08-2019 20:30:00 24 C 53 % 13.83 C
3416 01-08-2019 20:35:00 23.9 C 55 % 14.31 C
3417 01-08-2019 20:40:00 23.7 C 56 % 14.4 C
3418 01-08-2019 20:45:00 23.4 C 57 % 14.4 C
3419 01-08-2019 20:50:00 23 C 57 % 14.03 C
3420 01-08-2019 20:55:00 22.6 C 58 % 13.92 C
3421 01-08-2019 21:00:00 22.3 C 59 % 13.9 C
3422 01-08-2019 21:05:00 22.1 C 60 % 13.98 C
3423 01-08-2019 21:10:00 21.8 C 60 % 13.69 C
3424 01-08-2019 21:15:00 21.6 C 61 % 13.76 C
3425 01-08-2019 21:20:00 21.3 C 62 % 13.73 C
Sensor: Nr:Datum:Temp:Feuchte:Taupunkt:
Aussen-T/F 3426 01-08-2019 21:25:00 21.1 C 62 % 13.54 C
3427 01-08-2019 21:30:00 20.9 C 63 % 13.6 C
3428 01-08-2019 21:35:00 20.8 C 64 % 13.74 C
3429 01-08-2019 21:40:00 20.7 C 64 % 13.65 C
3430 01-08-2019 21:45:00 20.5 C 65 % 13.7 C
3431 01-08-2019 21:50:00 20.4 C 66 % 13.84 C
3432 01-08-2019 21:55:00 20.3 C 66 % 13.74 C
3433 01-08-2019 22:00:00 20.3 C 66 % 13.74 C
3434 01-08-2019 22:05:00 20.2 C 67 % 13.88 C
3435 01-08-2019 22:10:00 20.1 C 67 % 13.78 C
3436 01-08-2019 22:15:00 19.9 C 67 % 13.59 C
3437 01-08-2019 22:20:00 19.8 C 68 % 13.73 C
3438 01-08-2019 22:25:00 19.7 C 68 % 13.63 C
3439 01-08-2019 22:30:00 19.6 C 67 % 13.31 C
3440 01-08-2019 22:35:00 19.6 C 68 % 13.54 C
3441 01-08-2019 22:40:00 19.5 C 68 % 13.44 C
3442 01-08-2019 22:45:00 19.5 C 68 % 13.44 C
3443 01-08-2019 22:50:00 19.5 C 69 % 13.66 C
3444 01-08-2019 22:55:00 19.5 C 69 % 13.66 C
3445 01-08-2019 23:00:00 19.5 C 68 % 13.44 C
3446 01-08-2019 23:05:00 19.4 C 68 % 13.34 C
3447 01-08-2019 23:10:00 19.4 C 68 % 13.34 C
3448 01-08-2019 23:15:00 19.3 C 68 % 13.25 C
3449 01-08-2019 23:20:00 19.3 C 69 % 13.47 C
3450 01-08-2019 23:25:00 19.2 C 70 % 13.6 C
Sensor: Nr:Datum:Temp:Feuchte:Taupunkt:
Aussen-T/F 3451 01-08-2019 23:30:00 19.2 C 70 % 13.6 C
3452 01-08-2019 23:35:00 19.2 C 70 % 13.6 C
3453 01-08-2019 23:40:00 19.1 C 71 % 13.72 C
3454 01-08-2019 23:45:00 19.1 C 71 % 13.72 C
3455 01-08-2019 23:50:00 19.1 C 71 % 13.72 C
3456 01-08-2019 23:55:00 19.1 C 71 % 13.72 C
3457 02-08-2019 00:00:00 19.1 C 72 % 13.94 C
3458 02-08-2019 00:05:00 19.1 C 72 % 13.94 C
3459 02-08-2019 00:10:00 19 C 72 % 13.84 C
3460 02-08-2019 00:15:00 18.9 C 72 % 13.74 C
3461 02-08-2019 00:20:00 18.9 C 73 % 13.96 C
3462 02-08-2019 00:25:00 18.8 C 73 % 13.86 C
3463 02-08-2019 00:30:00 18.8 C 73 % 13.86 C
3464 02-08-2019 00:35:00 18.7 C 74 % 13.97 C
3465 02-08-2019 00:40:00 18.7 C 74 % 13.97 C
3466 02-08-2019 00:45:00 18.6 C 74 % 13.88 C
3467 02-08-2019 00:50:00 18.6 C 75 % 14.08 C
3468 02-08-2019 00:55:00 18.6 C 75 % 14.08 C
3469 02-08-2019 01:00:00 18.5 C 75 % 13.99 C
3470 02-08-2019 01:05:00 18.5 C 75 % 13.99 C
3471 02-08-2019 01:10:00 18.5 C 75 % 13.99 C
3472 02-08-2019 01:15:00 18.4 C 75 % 13.89 C
3473 02-08-2019 01:20:00 18.4 C 75 % 13.89 C
3474 02-08-2019 01:25:00 18.4 C 76 % 14.1 C
3475 02-08-2019 01:30:00 18.3 C 76 % 14 C
Sensor: Nr:Datum:Temp:Feuchte:Taupunkt:
Aussen-T/F 3476 02-08-2019 01:35:00 18.3 C 75 % 13.79 C
3477 02-08-2019 01:40:00 18.3 C 77 % 14.2 C
3478 02-08-2019 01:45:00 18.2 C 77 % 14.1 C
3479 02-08-2019 01:50:00 18.2 C 76 % 13.9 C
3480 02-08-2019 01:55:00 18.1 C 76 % 13.81 C
3481 02-08-2019 02:00:00 18.1 C 76 % 13.81 C
3482 02-08-2019 02:05:00 18.1 C 76 % 13.81 C
3483 02-08-2019 02:10:00 18 C 77 % 13.91 C
3484 02-08-2019 02:15:00 18 C 76 % 13.71 C
3485 02-08-2019 02:20:00 17.9 C 77 % 13.81 C
3486 02-08-2019 02:25:00 17.9 C 77 % 13.81 C
3487 02-08-2019 02:30:00 17.9 C 77 % 13.81 C
3488 02-08-2019 02:35:00 17.8 C 77 % 13.72 C
3489 02-08-2019 02:40:00 17.8 C 77 % 13.72 C
3490 02-08-2019 02:45:00 17.7 C 77 % 13.62 C
3491 02-08-2019 02:50:00 17.6 C 77 % 13.52 C
3492 02-08-2019 02:55:00 17.6 C 78 % 13.72 C
3493 02-08-2019 03:00:00 17.4 C 78 % 13.53 C
3494 02-08-2019 03:05:00 17.3 C 78 % 13.43 C
3495 02-08-2019 03:10:00 17.2 C 79 % 13.53 C
3496 02-08-2019 03:15:00 17.1 C 79 % 13.43 C
3497 02-08-2019 03:20:00 17.1 C 80 % 13.62 C
3498 02-08-2019 03:25:00 16.9 C 80 % 13.43 C
3499 02-08-2019 03:30:00 16.8 C 80 % 13.33 C
3500 02-08-2019 03:35:00 16.8 C 80 % 13.33 C
Sensor: Nr:Datum:Temp:Feuchte:Taupunkt:
Aussen-T/F 3501 02-08-2019 03:40:00 16.7 C 80 % 13.23 C
3502 02-08-2019 03:45:00 16.7 C 80 % 13.23 C
3503 02-08-2019 03:50:00 16.7 C 81 % 13.43 C
3504 02-08-2019 03:55:00 16.6 C 81 % 13.33 C
3505 02-08-2019 04:00:00 16.6 C 81 % 13.33 C
3506 02-08-2019 04:05:00 16.5 C 82 % 13.42 C
3507 02-08-2019 04:10:00 16.4 C 82 % 13.32 C
3508 02-08-2019 04:15:00 16.4 C 82 % 13.32 C
3509 02-08-2019 04:20:00 16.3 C 82 % 13.22 C
3510 02-08-2019 04:25:00 16.3 C 82 % 13.22 C
3511 02-08-2019 04:30:00 16.3 C 83 % 13.41 C
3512 02-08-2019 04:35:00 16.2 C 83 % 13.31 C
3513 02-08-2019 04:40:00 16.2 C 84 % 13.5 C
3514 02-08-2019 04:45:00 16.2 C 83 % 13.31 C
3515 02-08-2019 04:50:00 16.2 C 83 % 13.31 C
3516 02-08-2019 04:55:00 16.2 C 83 % 13.31 C
3517 02-08-2019 05:00:00 16.2 C 84 % 13.5 C
3518 02-08-2019 05:05:00 16.2 C 83 % 13.31 C
3519 02-08-2019 05:10:00 16.2 C 83 % 13.31 C
3520 02-08-2019 05:15:00 16.2 C 83 % 13.31 C
3521 02-08-2019 05:20:00 16.2 C 83 % 13.31 C
3522 02-08-2019 05:25:00 16.2 C 84 % 13.5 C
3523 02-08-2019 05:30:00 16.2 C 84 % 13.5 C
3524 02-08-2019 05:35:00 16.2 C 84 % 13.5 C
3525 02-08-2019 05:40:00 16.2 C 84 % 13.5 C
Sensor: Nr:Datum:Temp:Feuchte:Taupunkt:
Aussen-T/F 3526 02-08-2019 05:45:00 16.2 C 84 % 13.5 C
3527 02-08-2019 05:50:00 16.2 C 84 % 13.5 C
3528 02-08-2019 05:55:00 16.2 C 84 % 13.5 C
3529 02-08-2019 06:00:00 16.2 C 85 % 13.68 C
3530 02-08-2019 06:05:00 16.2 C 85 % 13.68 C
3531 02-08-2019 06:10:00 16.2 C 85 % 13.68 C
3532 02-08-2019 06:15:00 16.2 C 85 % 13.68 C
3533 02-08-2019 06:20:00 16.2 C 85 % 13.68 C
3534 02-08-2019 06:25:00 16.2 C 85 % 13.68 C
3535 02-08-2019 06:30:00 16.2 C 85 % 13.68 C
3536 02-08-2019 06:35:00 16.3 C 85 % 13.77 C
3537 02-08-2019 06:40:00 16.3 C 85 % 13.77 C
3538 02-08-2019 06:45:00 16.3 C 85 % 13.77 C
3539 02-08-2019 06:50:00 16.3 C 85 % 13.77 C
3540 02-08-2019 06:55:00 16.4 C 85 % 13.87 C
3541 02-08-2019 07:00:00 16.4 C 85 % 13.87 C
3542 02-08-2019 07:05:00 16.5 C 85 % 13.97 C
3543 02-08-2019 07:10:00 16.6 C 85 % 14.07 C
3544 02-08-2019 07:15:00 16.7 C 85 % 14.17 C
3545 02-08-2019 07:20:00 16.8 C 85 % 14.26 C
3546 02-08-2019 07:25:00 16.9 C 85 % 14.36 C
3547 02-08-2019 07:30:00 17 C 84 % 14.28 C
3548 02-08-2019 07:35:00 17.1 C 84 % 14.38 C
3549 02-08-2019 07:40:00 17.2 C 84 % 14.47 C
3550 02-08-2019 07:45:00 17.2 C 84 % 14.47 C
Sensor: Nr:Datum:Temp:Feuchte:Taupunkt:
Aussen-T/F 3551 02-08-2019 07:50:00 17.3 C 84 % 14.57 C
3552 02-08-2019 07:55:00 17.4 C 84 % 14.67 C
3553 02-08-2019 08:00:00 17.5 C 83 % 14.58 C
3554 02-08-2019 08:05:00 17.6 C 83 % 14.68 C
3555 02-08-2019 08:10:00 17.6 C 83 % 14.68 C
3556 02-08-2019 08:15:00 17.7 C 83 % 14.78 C
3557 02-08-2019 08:20:00 17.8 C 82 % 14.69 C
3558 02-08-2019 08:25:00 17.9 C 83 % 14.97 C
3559 02-08-2019 08:30:00 18 C 82 % 14.88 C
3560 02-08-2019 08:35:00 18.1 C 82 % 14.98 C
3561 02-08-2019 08:40:00 18.2 C 82 % 15.08 C
3562 02-08-2019 08:45:00 18.2 C 82 % 15.08 C
3563 02-08-2019 08:50:00 18.3 C 82 % 15.17 C
3564 02-08-2019 08:55:00 18.3 C 81 % 14.98 C
3565 02-08-2019 09:00:00 18.4 C 82 % 15.27 C
3566 02-08-2019 09:05:00 18.6 C 81 % 15.28 C
3567 02-08-2019 09:10:00 18.7 C 80 % 15.18 C
3568 02-08-2019 09:15:00 18.8 C 79 % 15.08 C
3569 02-08-2019 09:20:00 19 C 79 % 15.28 C
3570 02-08-2019 09:25:00 19.2 C 78 % 15.27 C
3571 02-08-2019 09:30:00 19.4 C 78 % 15.47 C
3572 02-08-2019 09:35:00 19.7 C 77 % 15.56 C
3573 02-08-2019 09:40:00 19.9 C 76 % 15.54 C
3574 02-08-2019 09:45:00 20.1 C 76 % 15.74 C
3575 02-08-2019 09:50:00 20.2 C 75 % 15.63 C
Sensor: Nr:Datum:Temp:Feuchte:Taupunkt:
Aussen-T/F 3576 02-08-2019 09:55:00 20.2 C 74 % 15.42 C
3577 02-08-2019 10:00:00 20.3 C 74 % 15.51 C
3578 02-08-2019 10:05:00 20.3 C 74 % 15.51 C
3579 02-08-2019 10:10:00 20.4 C 74 % 15.61 C
3580 02-08-2019 10:15:00 20.5 C 74 % 15.71 C
3581 02-08-2019 10:20:00 20.6 C 73 % 15.59 C
3582 02-08-2019 10:25:00 20.7 C 73 % 15.69 C
3583 02-08-2019 10:30:00 20.8 C 72 % 15.57 C
3584 02-08-2019 10:35:00 20.8 C 71 % 15.35 C
3585 02-08-2019 10:40:00 20.9 C 71 % 15.45 C
3586 02-08-2019 10:45:00 21 C 70 % 15.32 C
3587 02-08-2019 10:50:00 21.1 C 71 % 15.64 C
3588 02-08-2019 10:55:00 21.2 C 69 % 15.29 C
3589 02-08-2019 11:00:00 21.4 C 69 % 15.48 C
3590 02-08-2019 11:05:00 21.7 C 67 % 15.31 C
3591 02-08-2019 11:10:00 21.7 C 67 % 15.31 C
3592 02-08-2019 11:15:00 21.8 C 66 % 15.17 C
3593 02-08-2019 11:20:00 21.9 C 66 % 15.26 C
3594 02-08-2019 11:25:00 22.1 C 65 % 15.21 C
3595 02-08-2019 11:30:00 22.3 C 64 % 15.16 C
3596 02-08-2019 11:35:00 22.5 C 63 % 15.11 C
3597 02-08-2019 11:40:00 22.6 C 63 % 15.2 C
3598 02-08-2019 11:45:00 22.6 C 63 % 15.2 C
3599 02-08-2019 11:50:00 22.7 C 62 % 15.05 C
3600 02-08-2019 11:55:00 22.7 C 63 % 15.3 C
Sensor: Nr:Datum:Temp:Feuchte:Taupunkt:
Aussen-T/F 3601 02-08-2019 12:00:00 22.6 C 67 % 16.16 C
3602 02-08-2019 12:05:00 22.5 C 73 % 17.42 C
3603 02-08-2019 12:10:00 22.3 C 76 % 17.86 C
3604 02-08-2019 12:15:00 21.9 C 75 % 17.27 C
3605 02-08-2019 12:20:00 21.4 C 74 % 16.57 C
3606 02-08-2019 12:25:00 21.2 C 76 % 16.8 C
3607 02-08-2019 12:30:00 20.8 C 78 % 16.82 C
3608 02-08-2019 12:35:00 20.7 C 79 % 16.93 C
3609 02-08-2019 12:40:00 20.6 C 80 % 17.03 C
3610 02-08-2019 12:45:00 20.5 C 78 % 16.53 C
3611 02-08-2019 12:50:00 20.4 C 76 % 16.03 C
3612 02-08-2019 12:55:00 20.4 C 74 % 15.61 C
3613 02-08-2019 13:00:00 20.4 C 75 % 15.82 C
3614 02-08-2019 13:05:00 20.5 C 71 % 15.06 C
3615 02-08-2019 13:10:00 20.7 C 75 % 16.11 C
3616 02-08-2019 13:15:00 20.7 C 72 % 15.47 C
3617 02-08-2019 13:20:00 20.8 C 72 % 15.57 C
3618 02-08-2019 13:25:00 20.9 C 71 % 15.45 C
3619 02-08-2019 13:30:00 21.1 C 71 % 15.64 C
3620 02-08-2019 13:35:00 21.4 C 69 % 15.48 C
3621 02-08-2019 13:40:00 21.6 C 70 % 15.89 C
3622 02-08-2019 13:45:00 21.7 C 70 % 15.99 C
3623 02-08-2019 13:50:00 21.8 C 71 % 16.31 C
3624 02-08-2019 13:55:00 21.9 C 68 % 15.73 C
3625 02-08-2019 14:00:00 22 C 65 % 15.12 C
Sensor: Nr:Datum:Temp:Feuchte:Taupunkt:
Aussen-T/F 3626 02-08-2019 14:05:00 22.1 C 64 % 14.97 C
3627 02-08-2019 14:10:00 22.3 C 63 % 14.92 C
3628 02-08-2019 14:15:00 22.5 C 62 % 14.86 C
3629 02-08-2019 14:20:00 22.8 C 61 % 14.89 C
3630 02-08-2019 14:25:00 23 C 62 % 15.33 C
3631 02-08-2019 14:30:00 23.3 C 61 % 15.36 C
3632 02-08-2019 14:35:00 23.5 C 62 % 15.8 C
3633 02-08-2019 14:40:00 23.8 C 61 % 15.83 C
3634 02-08-2019 14:45:00 24.1 C 59 % 15.59 C
3635 02-08-2019 14:50:00 24.2 C 61 % 16.2 C
3636 02-08-2019 14:55:00 24.4 C 60 % 16.13 C
3637 02-08-2019 15:00:00 24.5 C 59 % 15.96 C
3638 02-08-2019 15:05:00 24.5 C 59 % 15.96 C
3639 02-08-2019 15:10:00 24.7 C 58 % 15.88 C
3640 02-08-2019 15:15:00 24.8 C 57 % 15.7 C
3641 02-08-2019 15:20:00 24.8 C 55 % 15.15 C
3642 02-08-2019 15:25:00 24.7 C 55 % 15.05 C
3643 02-08-2019 15:30:00 24.5 C 56 % 15.15 C
3644 02-08-2019 15:35:00 24.4 C 57 % 15.33 C
3645 02-08-2019 15:40:00 24.4 C 55 % 14.78 C
3646 02-08-2019 15:45:00 24.4 C 56 % 15.06 C
3647 02-08-2019 15:50:00 24.6 C 54 % 14.68 C
3648 02-08-2019 15:55:00 24.7 C 55 % 15.05 C
3649 02-08-2019 16:00:00 25.2 C 53 % 14.94 C
3650 02-08-2019 16:05:00 25.5 C 52 % 14.92 C
Sensor: Nr:Datum:Temp:Feuchte:Taupunkt:
Aussen-T/F 3651 02-08-2019 16:10:00 25.6 C 51 % 14.71 C
3652 02-08-2019 16:15:00 25.6 C 52 % 15.02 C
3653 02-08-2019 16:20:00 26.1 C 51 % 15.17 C
3654 02-08-2019 16:25:00 26.2 C 50 % 14.96 C
3655 02-08-2019 16:30:00 26.1 C 49 % 14.55 C
3656 02-08-2019 16:35:00 25.7 C 50 % 14.5 C
3657 02-08-2019 16:40:00 25.4 C 52 % 14.83 C
3658 02-08-2019 16:45:00 25.3 C 52 % 14.74 C
3659 02-08-2019 16:50:00 25.2 C 51 % 14.35 C
3660 02-08-2019 16:55:00 25.2 C 50 % 14.04 C
3661 02-08-2019 17:00:00 25.4 C 51 % 14.53 C
3662 02-08-2019 17:05:00 26.1 C 48 % 14.23 C
3663 02-08-2019 17:10:00 26.7 C 46 % 14.12 C
3664 02-08-2019 17:15:00 27.1 C 46 % 14.49 C
3665 02-08-2019 17:20:00 27.3 C 44 % 13.98 C
3666 02-08-2019 17:25:00 27.3 C 44 % 13.98 C
3667 02-08-2019 17:30:00 27.5 C 45 % 14.51 C
3668 02-08-2019 17:35:00 27.4 C 43 % 13.72 C
3669 02-08-2019 17:40:00 27 C 44 % 13.71 C
3670 02-08-2019 17:45:00 26.6 C 46 % 14.03 C
3671 02-08-2019 17:50:00 26.3 C 47 % 14.09 C
3672 02-08-2019 17:55:00 26 C 48 % 14.14 C
3673 02-08-2019 18:00:00 25.8 C 48 % 13.96 C
3674 02-08-2019 18:05:00 26 C 48 % 14.14 C
3675 02-08-2019 18:10:00 25.9 C 49 % 14.37 C
Sensor: Nr:Datum:Temp:Feuchte:Taupunkt:
Aussen-T/F 3676 02-08-2019 18:15:00 25.6 C 50 % 14.41 C
3677 02-08-2019 18:20:00 25.3 C 53 % 15.03 C
3678 02-08-2019 18:25:00 24.9 C 55 % 15.24 C
3679 02-08-2019 18:30:00 24.5 C 56 % 15.15 C
3680 02-08-2019 18:35:00 24.3 C 57 % 15.24 C
3681 02-08-2019 18:40:00 24.4 C 56 % 15.06 C
3682 02-08-2019 18:45:00 24.4 C 57 % 15.33 C
3683 02-08-2019 18:50:00 24.5 C 56 % 15.15 C
3684 02-08-2019 18:55:00 24.5 C 56 % 15.15 C
3685 02-08-2019 19:00:00 24.3 C 57 % 15.24 C
3686 02-08-2019 19:05:00 24.2 C 58 % 15.42 C
3687 02-08-2019 19:10:00 24 C 58 % 15.23 C
3688 02-08-2019 19:15:00 23.9 C 53 % 13.74 C
3689 02-08-2019 19:20:00 23.8 C 53 % 13.65 C
3690 02-08-2019 19:25:00 23.7 C 54 % 13.84 C
3691 02-08-2019 19:30:00 23.6 C 54 % 13.75 C
3692 02-08-2019 19:35:00 23.6 C 53 % 13.46 C
3693 02-08-2019 19:40:00 23.4 C 54 % 13.57 C
3694 02-08-2019 19:45:00 23.4 C 55 % 13.85 C
3695 02-08-2019 19:50:00 23.3 C 54 % 13.47 C
3696 02-08-2019 19:55:00 23.2 C 55 % 13.66 C
3697 02-08-2019 20:00:00 23.1 C 56 % 13.85 C
3698 02-08-2019 20:05:00 22.9 C 60 % 14.73 C
3699 02-08-2019 20:10:00 22.8 C 59 % 14.37 C
3700 02-08-2019 20:15:00 22.7 C 61 % 14.79 C
Sensor: Nr:Datum:Temp:Feuchte:Taupunkt:
Aussen-T/F 3701 02-08-2019 20:20:00 22.5 C 61 % 14.61 C
3702 02-08-2019 20:25:00 22.4 C 60 % 14.26 C
3703 02-08-2019 20:30:00 22.3 C 60 % 14.16 C
3704 02-08-2019 20:35:00 22.3 C 60 % 14.16 C
3705 02-08-2019 20:40:00 22.3 C 61 % 14.42 C
3706 02-08-2019 20:45:00 22.2 C 62 % 14.58 C
3707 02-08-2019 20:50:00 22.1 C 62 % 14.48 C
3708 02-08-2019 20:55:00 21.9 C 63 % 14.54 C
3709 02-08-2019 21:00:00 21.7 C 64 % 14.6 C
3710 02-08-2019 21:05:00 21.5 C 65 % 14.65 C
3711 02-08-2019 21:10:00 21.2 C 64 % 14.12 C
3712 02-08-2019 21:15:00 21.1 C 65 % 14.27 C
3713 02-08-2019 21:20:00 20.9 C 66 % 14.31 C
3714 02-08-2019 21:25:00 20.9 C 64 % 13.84 C
3715 02-08-2019 21:30:00 21.1 C 63 % 13.79 C
3716 02-08-2019 21:35:00 21.3 C 63 % 13.97 C
3717 02-08-2019 21:40:00 21.4 C 62 % 13.82 C
3718 02-08-2019 21:45:00 21.4 C 62 % 13.82 C
3719 02-08-2019 21:50:00 21.4 C 62 % 13.82 C
3720 02-08-2019 21:55:00 21.4 C 63 % 14.07 C
3721 02-08-2019 22:00:00 21.4 C 63 % 14.07 C
3722 02-08-2019 22:05:00 21.3 C 63 % 13.97 C
3723 02-08-2019 22:10:00 21.1 C 64 % 14.03 C
3724 02-08-2019 22:15:00 21 C 65 % 14.17 C
3725 02-08-2019 22:20:00 20.9 C 65 % 14.08 C
Sensor: Nr:Datum:Temp:Feuchte:Taupunkt:
Aussen-T/F 3726 02-08-2019 22:25:00 20.9 C 66 % 14.31 C
3727 02-08-2019 22:30:00 20.8 C 67 % 14.45 C
3728 02-08-2019 22:35:00 20.8 C 66 % 14.22 C
3729 02-08-2019 22:40:00 20.8 C 66 % 14.22 C
3730 02-08-2019 22:45:00 20.8 C 66 % 14.22 C
3731 02-08-2019 22:50:00 20.8 C 67 % 14.45 C
3732 02-08-2019 22:55:00 20.8 C 66 % 14.22 C
3733 02-08-2019 23:00:00 20.6 C 68 % 14.49 C
3734 02-08-2019 23:05:00 20.3 C 72 % 15.09 C
3735 02-08-2019 23:10:00 19.9 C 74 % 15.13 C
3736 02-08-2019 23:15:00 19.6 C 77 % 15.46 C
3737 02-08-2019 23:20:00 19.3 C 78 % 15.37 C
3738 02-08-2019 23:25:00 18.9 C 80 % 15.38 C
3739 02-08-2019 23:30:00 18.7 C 81 % 15.37 C
3740 02-08-2019 23:35:00 18.4 C 81 % 15.08 C
3741 02-08-2019 23:40:00 18.3 C 83 % 15.36 C
3742 02-08-2019 23:45:00 18.1 C 83 % 15.17 C
3743 02-08-2019 23:50:00 17.9 C 84 % 15.16 C
3744 02-08-2019 23:55:00 17.7 C 85 % 15.15 C
3745 03-08-2019 00:00:00 17.5 C 85 % 14.95 C
3746 03-08-2019 00:05:00 17.4 C 86 % 15.03 C
3747 03-08-2019 00:10:00 17.4 C 86 % 15.03 C
3748 03-08-2019 00:15:00 17.4 C 86 % 15.03 C
3749 03-08-2019 00:20:00 17.4 C 86 % 15.03 C
3750 03-08-2019 00:25:00 17.7 C 85 % 15.15 C
Sensor: Nr:Datum:Temp:Feuchte:Taupunkt:
Aussen-T/F 3751 03-08-2019 00:30:00 17.8 C 84 % 15.06 C
3752 03-08-2019 00:35:00 17.9 C 84 % 15.16 C
3753 03-08-2019 00:40:00 18.1 C 83 % 15.17 C
3754 03-08-2019 00:45:00 18.1 C 83 % 15.17 C
3755 03-08-2019 00:50:00 18.2 C 82 % 15.08 C
3756 03-08-2019 00:55:00 18.2 C 82 % 15.08 C
3757 03-08-2019 01:00:00 18.3 C 82 % 15.17 C
3758 03-08-2019 01:05:00 18.3 C 82 % 15.17 C
3759 03-08-2019 01:10:00 18.3 C 83 % 15.36 C
3760 03-08-2019 01:15:00 18.3 C 82 % 15.17 C
3761 03-08-2019 01:20:00 18.3 C 82 % 15.17 C
3762 03-08-2019 01:25:00 18.3 C 82 % 15.17 C
3763 03-08-2019 01:30:00 18.3 C 82 % 15.17 C
3764 03-08-2019 01:35:00 18.3 C 82 % 15.17 C
3765 03-08-2019 01:40:00 18.3 C 83 % 15.36 C
3766 03-08-2019 01:45:00 18.3 C 83 % 15.36 C
3767 03-08-2019 01:50:00 18.2 C 83 % 15.27 C
3768 03-08-2019 01:55:00 18.2 C 84 % 15.45 C
3769 03-08-2019 02:00:00 18.2 C 84 % 15.45 C
3770 03-08-2019 02:05:00 18.2 C 84 % 15.45 C
3771 03-08-2019 02:10:00 18.2 C 84 % 15.45 C
3772 03-08-2019 02:15:00 18.2 C 84 % 15.45 C
3773 03-08-2019 02:20:00 18.2 C 84 % 15.45 C
3774 03-08-2019 02:25:00 18.2 C 84 % 15.45 C
3775 03-08-2019 02:30:00 18.3 C 85 % 15.74 C
Sensor: Nr:Datum:Temp:Feuchte:Taupunkt:
Aussen-T/F 3776 03-08-2019 02:35:00 18.3 C 84 % 15.55 C
3777 03-08-2019 02:40:00 18.3 C 85 % 15.74 C
3778 03-08-2019 02:45:00 18.3 C 85 % 15.74 C
3779 03-08-2019 02:50:00 18.3 C 85 % 15.74 C
3780 03-08-2019 02:55:00 18.2 C 85 % 15.64 C
3781 03-08-2019 03:00:00 18.2 C 85 % 15.64 C
3782 03-08-2019 03:05:00 18.2 C 85 % 15.64 C
3783 03-08-2019 03:10:00 18.2 C 85 % 15.64 C
3784 03-08-2019 03:15:00 18.2 C 85 % 15.64 C
3785 03-08-2019 03:20:00 18.2 C 86 % 15.82 C
3786 03-08-2019 03:25:00 18.2 C 86 % 15.82 C
3787 03-08-2019 03:30:00 18.2 C 86 % 15.82 C
3788 03-08-2019 03:35:00 18.2 C 86 % 15.82 C
3789 03-08-2019 03:40:00 18.2 C 86 % 15.82 C
3790 03-08-2019 03:45:00 18.2 C 86 % 15.82 C
3791 03-08-2019 03:50:00 18.2 C 86 % 15.82 C
3792 03-08-2019 03:55:00 18.2 C 86 % 15.82 C
3793 03-08-2019 04:00:00 18.2 C 86 % 15.82 C
3794 03-08-2019 04:05:00 18.1 C 87 % 15.9 C
3795 03-08-2019 04:10:00 18.1 C 87 % 15.9 C
3796 03-08-2019 04:15:00 18.1 C 87 % 15.9 C
3797 03-08-2019 04:20:00 18.1 C 87 % 15.9 C
3798 03-08-2019 04:25:00 18.1 C 87 % 15.9 C
3799 03-08-2019 04:30:00 18.1 C 87 % 15.9 C
3800 03-08-2019 04:35:00 18.2 C 87 % 16 C
Sensor: Nr:Datum:Temp:Feuchte:Taupunkt:
Aussen-T/F 3801 03-08-2019 04:40:00 18.2 C 87 % 16 C
3802 03-08-2019 04:45:00 18.2 C 87 % 16 C
3803 03-08-2019 04:50:00 18.2 C 87 % 16 C
3804 03-08-2019 04:55:00 18.2 C 87 % 16 C
3805 03-08-2019 05:00:00 18.2 C 87 % 16 C
3806 03-08-2019 05:05:00 18.2 C 87 % 16 C
3807 03-08-2019 05:10:00 18.2 C 87 % 16 C
3808 03-08-2019 05:15:00 18.2 C 87 % 16 C
3809 03-08-2019 05:20:00 18.2 C 87 % 16 C
3810 03-08-2019 05:25:00 18.1 C 87 % 15.9 C
3811 03-08-2019 05:30:00 18.1 C 87 % 15.9 C
3812 03-08-2019 05:35:00 18.1 C 87 % 15.9 C
3813 03-08-2019 05:40:00 18.1 C 87 % 15.9 C
3814 03-08-2019 05:45:00 18.1 C 87 % 15.9 C
3815 03-08-2019 05:50:00 18.1 C 87 % 15.9 C
3816 03-08-2019 05:55:00 18.1 C 87 % 15.9 C
3817 03-08-2019 06:00:00 18 C 87 % 15.8 C
3818 03-08-2019 06:05:00 18 C 87 % 15.8 C
3819 03-08-2019 06:10:00 17.9 C 87 % 15.71 C
3820 03-08-2019 06:15:00 17.9 C 88 % 15.88 C
3821 03-08-2019 06:20:00 17.9 C 88 % 15.88 C
3822 03-08-2019 06:25:00 17.9 C 88 % 15.88 C
3823 03-08-2019 06:30:00 17.9 C 87 % 15.71 C
3824 03-08-2019 06:35:00 17.9 C 87 % 15.71 C
3825 03-08-2019 06:40:00 17.9 C 87 % 15.71 C
Sensor: Nr:Datum:Temp:Feuchte:Taupunkt:
Aussen-T/F 3826 03-08-2019 06:45:00 17.8 C 87 % 15.61 C
3827 03-08-2019 06:50:00 17.8 C 87 % 15.61 C
3828 03-08-2019 06:55:00 17.8 C 87 % 15.61 C
3829 03-08-2019 07:00:00 17.8 C 87 % 15.61 C
3830 03-08-2019 07:05:00 17.8 C 86 % 15.43 C
3831 03-08-2019 07:10:00 17.8 C 86 % 15.43 C
3832 03-08-2019 07:15:00 17.8 C 86 % 15.43 C
3833 03-08-2019 07:20:00 17.8 C 86 % 15.43 C
3834 03-08-2019 07:25:00 17.8 C 86 % 15.43 C
3835 03-08-2019 07:30:00 17.9 C 86 % 15.53 C
3836 03-08-2019 07:35:00 17.9 C 85 % 15.34 C
3837 03-08-2019 07:40:00 17.9 C 85 % 15.34 C
3838 03-08-2019 07:45:00 17.9 C 85 % 15.34 C
3839 03-08-2019 07:50:00 17.9 C 85 % 15.34 C
3840 03-08-2019 07:55:00 17.8 C 85 % 15.25 C
3841 03-08-2019 08:00:00 17.8 C 86 % 15.43 C
3842 03-08-2019 08:05:00 17.8 C 86 % 15.43 C
3843 03-08-2019 08:10:00 17.8 C 85 % 15.25 C
3844 03-08-2019 08:15:00 17.8 C 85 % 15.25 C
3845 03-08-2019 08:20:00 17.8 C 85 % 15.25 C
3846 03-08-2019 08:25:00 17.8 C 85 % 15.25 C
3847 03-08-2019 08:30:00 17.9 C 85 % 15.34 C
3848 03-08-2019 08:35:00 18 C 84 % 15.26 C
3849 03-08-2019 08:40:00 18.1 C 84 % 15.35 C
3850 03-08-2019 08:45:00 18.2 C 84 % 15.45 C
Sensor: Nr:Datum:Temp:Feuchte:Taupunkt:
Aussen-T/F 3851 03-08-2019 08:50:00 18.2 C 83 % 15.27 C
3852 03-08-2019 08:55:00 18.2 C 82 % 15.08 C
3853 03-08-2019 09:00:00 18.2 C 82 % 15.08 C
3854 03-08-2019 09:05:00 18.3 C 81 % 14.98 C
3855 03-08-2019 09:10:00 18.3 C 81 % 14.98 C
3856 03-08-2019 09:15:00 18.4 C 79 % 14.69 C
3857 03-08-2019 09:20:00 18.5 C 79 % 14.79 C
3858 03-08-2019 09:25:00 18.6 C 79 % 14.89 C
3859 03-08-2019 09:30:00 18.7 C 79 % 14.99 C
3860 03-08-2019 09:35:00 18.8 C 79 % 15.08 C
3861 03-08-2019 09:40:00 18.8 C 78 % 14.88 C
3862 03-08-2019 09:45:00 18.8 C 78 % 14.88 C
3863 03-08-2019 09:50:00 18.9 C 78 % 14.98 C
3864 03-08-2019 09:55:00 18.9 C 78 % 14.98 C
3865 03-08-2019 10:00:00 19.1 C 77 % 14.97 C
3866 03-08-2019 10:05:00 19.2 C 76 % 14.87 C
3867 03-08-2019 10:10:00 19.3 C 76 % 14.97 C
3868 03-08-2019 10:15:00 19.4 C 76 % 15.06 C
3869 03-08-2019 10:20:00 19.7 C 76 % 15.35 C
3870 03-08-2019 10:25:00 19.9 C 76 % 15.54 C
3871 03-08-2019 10:30:00 19.8 C 75 % 15.24 C
3872 03-08-2019 10:35:00 19.8 C 75 % 15.24 C
3873 03-08-2019 10:40:00 19.7 C 76 % 15.35 C
3874 03-08-2019 10:45:00 19.8 C 74 % 15.03 C
3875 03-08-2019 10:50:00 19.8 C 74 % 15.03 C
Sensor: Nr:Datum:Temp:Feuchte:Taupunkt:
Aussen-T/F 3876 03-08-2019 10:55:00 19.9 C 75 % 15.34 C
3877